Darstellungsparameter: Aktuell verwendete Einstellungen:
Skalierung der Graphiken ... ?
xyx+y,   Skalierungsfaktor:      Skalierung: Modus: x, Faktor: 1
Darstellungszeitraum ... ?
Vom - - bis: - -   Zeitraum: 20.07.2008 - 19.10.2008
Min/Max/Avg-Anzeige ... ?
Zeige MMA aktuell
Zeige MMA Monat
Zeige MMA alles
Zeige --A aktuell
Zeige --A Monat
Zeige --A alles
Keine MMA-Anzeige
MMA:
Average (ber die Originaldaten)
MMA-Basis: 17.04.2019 - 19.05.2019
Quicknavigation für Darstellung... ?
Tage:      1T, 2T, 3T, 5T -1T -2T -3T -5T +1T +2T +3T +5T
Wochen: 1W, 2W, 3W -1W -2W -3W +1W +2W +3W
Monate: 1M, 3M, 6M -1M -3M -6M +1M +3M +6M
Jahre:    1J, 3J, 5J, 10J -1J -3J -5J -10J +1J +3J +5J +10J
Nutze für die Darstellung ... ?
Originaldaten oder Mittelwerte auf ...
Stundenbasis Tagesbasis Wochenbasis
Monatsbasis Jahresbasis      Datenbasis: Original-Daten
Darstellen als:
Statistik (Auto) Statistik J:M      Darstellung:
Zur Graphik,    zurück zur Übersicht aller Sensoren.
 
Tabellarische Datenbersicht: ?
 
Sensor: Nr:Datum:Temp:Abs-Feuchte:Windchill:Wind:
Aussen-T/F 1 20-07-2008 00:05:14 15 C 10.13 g/m*3 15 C 0 km/h
2 20-07-2008 00:35:14 14.8 C 10.01 g/m*3 14.8 C 0 km/h
3 20-07-2008 01:05:14 14.9 C 9.3 g/m*3 14.9 C 0 km/h
4 20-07-2008 01:35:14 14.4 C 9.15 g/m*3 14.4 C 0 km/h
5 20-07-2008 02:05:14 14.8 C 8.99 g/m*3 14.8 C 0 km/h
6 20-07-2008 02:35:14 14.4 C 8.9 g/m*3 14.4 C 0 km/h
7 20-07-2008 03:05:15 14.2 C 8.91 g/m*3 14.2 C 0 km/h
8 20-07-2008 03:35:15 14.1 C 8.86 g/m*3 14.1 C 0 km/h
9 20-07-2008 04:05:15 14 C 8.56 g/m*3 14 C 0 km/h
10 20-07-2008 04:35:15 13.7 C 8.64 g/m*3 13.7 C 0 km/h
11 20-07-2008 05:05:15 13.3 C 8.78 g/m*3 13.3 C 0 km/h
12 20-07-2008 05:35:15 12.7 C 8.91 g/m*3 12.7 C 0 km/h
13 20-07-2008 06:05:15 12.4 C 8.96 g/m*3 12.4 C 0 km/h
14 20-07-2008 06:35:15 12.6 C 9.07 g/m*3 12.6 C 0 km/h
15 20-07-2008 07:05:15 12.9 C 9.24 g/m*3 12.9 C 0 km/h
16 20-07-2008 07:35:15 13.3 C 9.13 g/m*3 13.3 C 0 km/h
17 20-07-2008 08:05:15 13.7 C 8.88 g/m*3 13.7 C 0 km/h
18 20-07-2008 08:35:15 14.1 C 8.62 g/m*3 14.1 C 0 km/h
19 20-07-2008 09:05:15 14.7 C 8.69 g/m*3 14.7 C 0 km/h
20 20-07-2008 09:35:15 15.8 C 8.62 g/m*3 15.8 C 0 km/h
21 20-07-2008 10:05:15 16.5 C 8.43 g/m*3 16.5 C 0 km/h
22 20-07-2008 10:35:15 17.1 C 8.59 g/m*3 17.1 C 0 km/h
23 20-07-2008 11:05:15 18 C 8.29 g/m*3 18 C 0 km/h
24 20-07-2008 11:35:15 18.8 C 8.7 g/m*3 18.8 C 0 km/h
25 20-07-2008 12:05:15 20 C 8.12 g/m*3 20 C 0 km/h
Sensor: Nr:Datum:Temp:Abs-Feuchte:Windchill:Wind:
Aussen-T/F 26 20-07-2008 12:35:15 19.5 C 8.06 g/m*3 19.5 C 0 km/h
27 20-07-2008 13:05:15 19.5 C 7.89 g/m*3 19.5 C 0 km/h
28 20-07-2008 13:35:16 18.8 C 8.05 g/m*3 18.8 C 0 km/h
29 20-07-2008 14:05:16 19.7 C 7.81 g/m*3 19.7 C 0 km/h
30 20-07-2008 14:35:16 21.2 C 7.41 g/m*3 21.2 C 0 km/h
31 20-07-2008 15:05:16 21.8 C 6.72 g/m*3 21.8 C 0 km/h
32 20-07-2008 15:35:16 22.6 C 6.63 g/m*3 22.6 C 0 km/h
33 20-07-2008 16:05:16 14.5 C 9.7 g/m*3 14.5 C 0 km/h
34 20-07-2008 16:35:16 14.8 C 10.51 g/m*3 14.8 C 0 km/h
35 20-07-2008 17:05:16 15.9 C 10.02 g/m*3 15.9 C 0 km/h
36 20-07-2008 17:35:16 15.4 C 9.72 g/m*3 15.4 C 0 km/h
37 20-07-2008 18:05:16 14.3 C 9.95 g/m*3 14.3 C 0 km/h
38 20-07-2008 18:35:16 16.5 C 9.83 g/m*3 16.5 C 0 km/h
39 20-07-2008 19:05:16 16.8 C 9.29 g/m*3 16.8 C 0 km/h
40 20-07-2008 19:35:16 16.4 C 9.21 g/m*3 16.4 C 0 km/h
41 20-07-2008 20:05:16 16.4 C 9.91 g/m*3 16.4 C 0 km/h
42 20-07-2008 20:35:16 13.3 C 9.01 g/m*3 13.3 C 0 km/h
43 20-07-2008 21:05:16 13.8 C 9.89 g/m*3 13.8 C 0 km/h
44 20-07-2008 21:35:16 13 C 9.3 g/m*3 13 C 0 km/h
45 20-07-2008 22:05:16 12.9 C 9.58 g/m*3 12.9 C 0 km/h
46 20-07-2008 22:35:16 12.4 C 9.29 g/m*3 12.4 C 0 km/h
47 20-07-2008 23:05:16 11.9 C 9.11 g/m*3 11.9 C 0 km/h
48 20-07-2008 23:35:16 11.7 C 8.99 g/m*3 11.7 C 0 km/h
49 21-07-2008 00:05:17 11.1 C 8.76 g/m*3 11.1 C 0 km/h
50 21-07-2008 00:35:17 11.5 C 9.09 g/m*3 11.5 C 0 km/h
Sensor: Nr:Datum:Temp:Abs-Feuchte:Windchill:Wind:
Aussen-T/F 51 21-07-2008 01:05:17 11 C 8.71 g/m*3 11 C 0 km/h
52 21-07-2008 01:35:17 10.7 C 8.55 g/m*3 10.7 C 0 km/h
53 21-07-2008 02:05:17 10.5 C 8.53 g/m*3 10.5 C 0 km/h
54 21-07-2008 02:35:17 10.3 C 8.33 g/m*3 10.3 C 0 km/h
55 21-07-2008 03:05:17 10.1 C 8.04 g/m*3 10.1 C 0 km/h
56 21-07-2008 03:35:17 10.1 C 7.56 g/m*3 10.1 C 0 km/h
57 21-07-2008 04:05:17 10 C 7.61 g/m*3 10 C 0 km/h
58 21-07-2008 04:35:17 10.4 C 7.61 g/m*3 10.4 C 0 km/h
59 21-07-2008 05:05:17 10.4 C 7.71 g/m*3 10.4 C 0 km/h
60 21-07-2008 05:35:17 10.3 C 7.85 g/m*3 10.3 C 0 km/h
61 21-07-2008 06:05:17 10.6 C 7.71 g/m*3 10.6 C 0 km/h
62 21-07-2008 06:35:17 10.9 C 7.66 g/m*3 10.9 C 0 km/h
63 21-07-2008 07:05:17 11.3 C 7.75 g/m*3 11.3 C 0 km/h
64 21-07-2008 07:35:17 11.8 C 7.89 g/m*3 11.8 C 0 km/h
65 21-07-2008 08:05:17 12.6 C 7.97 g/m*3 12.6 C 0 km/h
66 21-07-2008 08:35:17 13 C 7.71 g/m*3 13 C 0 km/h
67 21-07-2008 09:05:17 13.1 C 7.65 g/m*3 13.1 C 0 km/h
68 21-07-2008 09:35:18 15.1 C 7.48 g/m*3 15.1 C 0 km/h
69 21-07-2008 10:05:18 15.8 C 7.4 g/m*3 15.8 C 0 km/h
70 21-07-2008 10:35:18 17 C 6.66 g/m*3 17 C 0 km/h
71 21-07-2008 11:05:18 17.1 C 6.84 g/m*3 17.1 C 0 km/h
72 21-07-2008 11:35:18 17 C 6.66 g/m*3 17 C 0 km/h
73 21-07-2008 12:05:18 14.1 C 8.25 g/m*3 14.1 C 0 km/h
74 21-07-2008 12:35:18 15.8 C 8.48 g/m*3 15.8 C 0 km/h
75 21-07-2008 13:05:18 17 C 8.83 g/m*3 17 C 0 km/h
Sensor: Nr:Datum:Temp:Abs-Feuchte:Windchill:Wind:
Aussen-T/F 76 21-07-2008 13:35:18 15.7 C 8.96 g/m*3 15.7 C 0 km/h
77 21-07-2008 14:05:18 14.5 C 8.71 g/m*3 14.5 C 0 km/h
78 21-07-2008 14:35:18 14 C 9.17 g/m*3 14 C 0 km/h
79 21-07-2008 15:05:18 13.4 C 8.83 g/m*3 13.4 C 0 km/h
80 21-07-2008 15:35:18 14.6 C 8.88 g/m*3 14.6 C 0 km/h
81 21-07-2008 16:05:18 13.9 C 8.99 g/m*3 13.9 C 0 km/h
82 21-07-2008 16:35:18 12.4 C 8.63 g/m*3 12.4 C 0 km/h
83 21-07-2008 17:05:18 11.7 C 8.99 g/m*3 11.7 C 0 km/h
84 21-07-2008 17:35:18 11.9 C 9.11 g/m*3 11.9 C 0 km/h
85 21-07-2008 18:05:18 12.6 C 8.85 g/m*3 12.6 C 0 km/h
86 21-07-2008 18:35:18 12.4 C 8.74 g/m*3 12.4 C 0 km/h
87 21-07-2008 19:05:19 12.6 C 8.74 g/m*3 12.6 C 0 km/h
88 21-07-2008 19:35:19 12.7 C 8.35 g/m*3 12.7 C 0 km/h
89 21-07-2008 20:05:19 12.1 C 8.47 g/m*3 12.1 C 0 km/h
90 21-07-2008 20:35:19 12 C 8.63 g/m*3 12 C 0 km/h
91 21-07-2008 21:05:19 11.8 C 8.74 g/m*3 11.8 C 0 km/h
92 21-07-2008 21:35:19 11.9 C 8.9 g/m*3 11.9 C 0 km/h
93 21-07-2008 22:05:19 11.7 C 8.99 g/m*3 11.7 C 0 km/h
94 21-07-2008 22:35:19 11.5 C 9.09 g/m*3 11.5 C 0 km/h
95 21-07-2008 23:05:19 12 C 9.17 g/m*3 12 C 0 km/h
96 21-07-2008 23:35:19 12.2 C 9.17 g/m*3 12.2 C 0 km/h
97 22-07-2008 00:05:19 12.1 C 9.01 g/m*3 12.1 C 0 km/h
98 22-07-2008 00:35:19 12.1 C 9.33 g/m*3 12.1 C 0 km/h
99 22-07-2008 01:05:19 12.3 C 9.45 g/m*3 12.3 C 0 km/h
100 22-07-2008 01:35:19 12.4 C 9.4 g/m*3 12.4 C 0 km/h
Sensor: Nr:Datum:Temp:Abs-Feuchte:Windchill:Wind:
Aussen-T/F 101 22-07-2008 02:05:19 12.4 C 9.4 g/m*3 12.4 C 0 km/h
102 22-07-2008 02:35:19 12.7 C 9.24 g/m*3 12.7 C 0 km/h
103 22-07-2008 03:05:19 12.4 C 9.07 g/m*3 12.4 C 0 km/h
104 22-07-2008 03:35:19 11.9 C 9 g/m*3 11.9 C 0 km/h
105 22-07-2008 04:05:19 11.8 C 9.05 g/m*3 11.8 C 0 km/h
106 22-07-2008 04:35:19 12 C 9.27 g/m*3 12 C 0 km/h
107 22-07-2008 05:05:20 11.8 C 9.37 g/m*3 11.8 C 0 km/h
108 22-07-2008 05:35:20 11.8 C 9.58 g/m*3 11.8 C 0 km/h
109 22-07-2008 06:05:20 12 C 9.8 g/m*3 12 C 0 km/h
110 22-07-2008 06:35:20 12 C 9.91 g/m*3 12 C 0 km/h
111 22-07-2008 07:05:20 12 C 9.91 g/m*3 12 C 0 km/h
112 22-07-2008 07:35:20 12.1 C 9.97 g/m*3 12.1 C 0 km/h
113 22-07-2008 08:05:20 12.5 C 10.33 g/m*3 12.5 C 0 km/h
114 22-07-2008 08:35:20 12.5 C 10.33 g/m*3 12.5 C 0 km/h
115 22-07-2008 09:05:20 12.5 C 10.33 g/m*3 12.5 C 0 km/h
116 22-07-2008 09:35:20 12.9 C 10.37 g/m*3 12.9 C 0 km/h
117 22-07-2008 10:05:20 13.4 C 10.11 g/m*3 13.4 C 0 km/h
118 22-07-2008 10:35:20 14 C 9.77 g/m*3 14 C 0 km/h
119 22-07-2008 11:05:20 15 C 9.87 g/m*3 15 C 0 km/h
120 22-07-2008 11:35:20 15.2 C 9.48 g/m*3 15.2 C 0 km/h
121 22-07-2008 12:05:20 15.1 C 8.9 g/m*3 15.1 C 0 km/h
122 22-07-2008 12:35:20 15.5 C 9.12 g/m*3 15.5 C 0 km/h
123 22-07-2008 13:05:20 15.4 C 8.93 g/m*3 15.4 C 0 km/h
124 22-07-2008 13:35:20 15.5 C 8.86 g/m*3 15.5 C 0 km/h
125 22-07-2008 14:05:20 15.5 C 8.86 g/m*3 15.5 C 0 km/h
Sensor: Nr:Datum:Temp:Abs-Feuchte:Windchill:Wind:
Aussen-T/F 126 22-07-2008 14:35:20 16.7 C 9.38 g/m*3 16.7 C 0 km/h
127 22-07-2008 15:05:20 16.8 C 8.58 g/m*3 16.8 C 0 km/h
128 22-07-2008 15:35:21 17.8 C 8.2 g/m*3 17.8 C 0 km/h
129 22-07-2008 16:05:21 17.3 C 8.1 g/m*3 17.3 C 0 km/h
130 22-07-2008 16:35:21 18 C 8.45 g/m*3 18 C 0 km/h
131 22-07-2008 17:05:21 18.5 C 8.07 g/m*3 18.5 C 0 km/h
132 22-07-2008 17:35:21 17.6 C 7.95 g/m*3 17.6 C 0 km/h
133 22-07-2008 18:05:21 18.8 C 8.21 g/m*3 18.8 C 0 km/h
134 22-07-2008 18:35:21 18.2 C 9.01 g/m*3 18.2 C 0 km/h
135 22-07-2008 19:05:21 18.5 C 9.02 g/m*3 18.5 C 0 km/h
136 22-07-2008 19:35:21 18.4 C 8.97 g/m*3 18.4 C 0 km/h
137 22-07-2008 20:05:21 17.3 C 9.43 g/m*3 17.3 C 0 km/h
138 22-07-2008 20:35:21 18 C 9.52 g/m*3 18 C 0 km/h
139 22-07-2008 21:05:21 17.2 C 9.23 g/m*3 17.2 C 0 km/h
140 22-07-2008 21:35:21 15.8 C 9.29 g/m*3 15.8 C 0 km/h
141 22-07-2008 22:05:21 14.6 C 9.01 g/m*3 14.6 C 0 km/h
142 22-07-2008 22:35:21 14 C 8.81 g/m*3 14 C 0 km/h
143 22-07-2008 23:05:21 13.5 C 9.12 g/m*3 13.5 C 0 km/h
144 22-07-2008 23:35:21 13.1 C 9.13 g/m*3 13.1 C 0 km/h
145 23-07-2008 00:05:21 13.1 C 9.36 g/m*3 13.1 C 0 km/h
146 23-07-2008 00:35:21 13 C 9.41 g/m*3 13 C 0 km/h
147 23-07-2008 01:05:21 12.5 C 9.24 g/m*3 12.5 C 0 km/h
148 23-07-2008 01:35:22 12 C 9.06 g/m*3 12 C 0 km/h
149 23-07-2008 02:05:22 11.6 C 9.04 g/m*3 11.6 C 0 km/h
150 23-07-2008 02:35:22 11.3 C 8.87 g/m*3 11.3 C 0 km/h
Sensor: Nr:Datum:Temp:Abs-Feuchte:Windchill:Wind:
Aussen-T/F 151 23-07-2008 03:05:22 11.2 C 9.02 g/m*3 11.2 C 0 km/h
152 23-07-2008 03:35:22 10.7 C 8.74 g/m*3 10.7 C 0 km/h
153 23-07-2008 04:05:22 10.4 C 8.58 g/m*3 10.4 C 0 km/h
154 23-07-2008 04:35:22 10.4 C 8.77 g/m*3 10.4 C 0 km/h
155 23-07-2008 05:05:22 10.5 C 8.92 g/m*3 10.5 C 0 km/h
156 23-07-2008 05:35:22 10.7 C 9.04 g/m*3 10.7 C 0 km/h
157 23-07-2008 06:05:22 10.8 C 9.09 g/m*3 10.8 C 0 km/h
158 23-07-2008 06:35:22 10.8 C 9.09 g/m*3 10.8 C 0 km/h
159 23-07-2008 07:05:22 10.5 C 8.92 g/m*3 10.5 C 0 km/h
160 23-07-2008 07:35:22 10.8 C 8.99 g/m*3 10.8 C 0 km/h
161 23-07-2008 08:05:22 10.9 C 8.85 g/m*3 10.9 C 0 km/h
162 23-07-2008 08:35:22 11.8 C 9.16 g/m*3 11.8 C 0 km/h
163 23-07-2008 09:05:22 12.9 C 9.13 g/m*3 12.9 C 0 km/h
164 23-07-2008 09:35:22 12.8 C 9.18 g/m*3 12.8 C 0 km/h
165 23-07-2008 10:05:22 15.4 C 9.46 g/m*3 15.4 C 0 km/h
166 23-07-2008 10:35:22 17 C 9.69 g/m*3 17 C 0 km/h
167 23-07-2008 11:05:22 18.1 C 9.73 g/m*3 18.1 C 0 km/h
168 23-07-2008 11:35:22 19.4 C 9.18 g/m*3 19.4 C 0 km/h
169 23-07-2008 12:05:23 21.1 C 8.29 g/m*3 21.1 C 0 km/h
170 23-07-2008 12:35:23 22.2 C 8.25 g/m*3 22.2 C 0 km/h
171 23-07-2008 13:05:23 23.9 C 7.36 g/m*3 23.9 C 0 km/h
172 23-07-2008 13:35:23 25.9 C 7.26 g/m*3 25.9 C 0 km/h
173 23-07-2008 14:05:23 26 C 6.09 g/m*3 26 C 0 km/h
174 23-07-2008 14:35:23 25.7 C 7.18 g/m*3 25.7 C 0 km/h
175 23-07-2008 15:05:23 26.3 C 6.93 g/m*3 26.3 C 0 km/h
Sensor: Nr:Datum:Temp:Abs-Feuchte:Windchill:Wind:
Aussen-T/F 176 23-07-2008 15:35:23 28.9 C 7.14 g/m*3 28.9 C 0 km/h
177 23-07-2008 16:05:23 29.2 C 6.97 g/m*3 29.2 C 0 km/h
178 23-07-2008 16:35:23 29.2 C 6.39 g/m*3 29.2 C 0 km/h
179 23-07-2008 17:05:23 30.1 C 6.1 g/m*3 30.1 C 0 km/h
180 23-07-2008 17:35:23 29.3 C 6.42 g/m*3 29.3 C 0 km/h
181 23-07-2008 18:05:23 28.8 C 6.53 g/m*3 28.8 C 0 km/h
182 23-07-2008 18:35:23 30 C 6.67 g/m*3 30 C 0 km/h
183 23-07-2008 19:05:23 27.9 C 6.76 g/m*3 27.9 C 0 km/h
184 23-07-2008 19:35:23 28.7 C 7.06 g/m*3 28.7 C 0 km/h
185 23-07-2008 20:05:23 27.8 C 6.99 g/m*3 27.8 C 0 km/h
186 23-07-2008 20:35:23 25.2 C 7.68 g/m*3 25.2 C 0 km/h
187 23-07-2008 21:05:23 23.6 C 8.51 g/m*3 23.6 C 0 km/h
188 23-07-2008 21:35:23 22.5 C 9.39 g/m*3 22.5 C 0 km/h
189 23-07-2008 22:05:24 20.7 C 9.54 g/m*3 20.7 C 0 km/h
190 23-07-2008 22:35:24 19.9 C 9.62 g/m*3 19.9 C 0 km/h
191 23-07-2008 23:05:24 19.2 C 9.56 g/m*3 19.2 C 0 km/h
192 23-07-2008 23:35:24 18.6 C 9.55 g/m*3 18.6 C 0 km/h
193 24-07-2008 00:05:24 18.1 C 9.89 g/m*3 18.1 C 0 km/h
194 24-07-2008 00:35:24 17.5 C 9.24 g/m*3 17.5 C 0 km/h
195 24-07-2008 01:05:24 16.8 C 9.01 g/m*3 16.8 C 0 km/h
196 24-07-2008 01:35:24 16.3 C 8.88 g/m*3 16.3 C 0 km/h
197 24-07-2008 02:05:24 15.9 C 8.94 g/m*3 15.9 C 0 km/h
198 24-07-2008 02:35:24 15.4 C 8.93 g/m*3 15.4 C 0 km/h
199 24-07-2008 03:05:24 14.8 C 8.99 g/m*3 14.8 C 0 km/h
200 24-07-2008 03:35:24 14.7 C 9.19 g/m*3 14.7 C 0 km/h
Sensor: Nr:Datum:Temp:Abs-Feuchte:Windchill:Wind:
Aussen-T/F 201 24-07-2008 04:05:24 14.1 C 9.1 g/m*3 14.1 C 0 km/h
202 24-07-2008 04:35:24 13.7 C 9.12 g/m*3 13.7 C 0 km/h
203 24-07-2008 05:05:24 13.3 C 9.01 g/m*3 13.3 C 0 km/h
204 24-07-2008 05:35:24 13 C 8.96 g/m*3 13 C 0 km/h
205 24-07-2008 06:05:24 12.8 C 9.07 g/m*3 12.8 C 0 km/h
206 24-07-2008 06:35:24 12.8 C 9.07 g/m*3 12.8 C 0 km/h
207 24-07-2008 07:05:24 12.9 C 9.24 g/m*3 12.9 C 0 km/h
208 24-07-2008 07:35:24 13.1 C 9.24 g/m*3 13.1 C 0 km/h
209 24-07-2008 08:05:24 13.6 C 9.53 g/m*3 13.6 C 0 km/h
210 24-07-2008 08:35:25 14.3 C 9.71 g/m*3 14.3 C 0 km/h
211 24-07-2008 09:05:25 15.4 C 10.25 g/m*3 15.4 C 0 km/h
212 24-07-2008 09:35:25 17 C 10.13 g/m*3 17 C 0 km/h
213 24-07-2008 10:05:25 18.9 C 10.04 g/m*3 18.9 C 0 km/h
214 24-07-2008 10:35:25 20.8 C 8.87 g/m*3 20.8 C 0 km/h
215 24-07-2008 11:05:25 22.4 C 8.34 g/m*3 22.4 C 0 km/h
216 24-07-2008 11:35:25 23.1 C 7.65 g/m*3 23.1 C 0 km/h
217 24-07-2008 12:05:25 24.5 C 7.83 g/m*3 24.5 C 0 km/h
218 24-07-2008 12:35:25 26.5 C 7.01 g/m*3 26.5 C 0 km/h
219 24-07-2008 13:05:25 25.7 C 6.46 g/m*3 25.7 C 0 km/h
220 24-07-2008 13:35:25 29 C 6.32 g/m*3 29 C 0 km/h
221 24-07-2008 14:05:25 28.8 C 5.97 g/m*3 28.8 C 0 km/h
222 24-07-2008 14:35:25 28.3 C 6.36 g/m*3 28.3 C 0 km/h
223 24-07-2008 15:05:25 29.9 C 6.03 g/m*3 29.9 C 0 km/h
224 24-07-2008 15:35:25 30.7 C 6.3 g/m*3 30.7 C 0 km/h
225 24-07-2008 16:05:25 31 C 6.4 g/m*3 31 C 0 km/h
Sensor: Nr:Datum:Temp:Abs-Feuchte:Windchill:Wind:
Aussen-T/F 226 24-07-2008 16:35:25 31.4 C 6.54 g/m*3 31.4 C 0 km/h
227 24-07-2008 17:05:25 31.6 C 6.61 g/m*3 31.6 C 0 km/h
228 24-07-2008 17:35:25 32.1 C 6.79 g/m*3 32.1 C 0 km/h
229 24-07-2008 18:05:26 32.3 C 6.86 g/m*3 32.3 C 0 km/h
230 24-07-2008 18:35:26 32.3 C 6.86 g/m*3 32.3 C 0 km/h
231 24-07-2008 19:05:26 32.3 C 6.86 g/m*3 32.3 C 0 km/h
232 24-07-2008 19:35:26 31.6 C 6.61 g/m*3 31.6 C 0 km/h
233 24-07-2008 20:05:26 31.2 C 6.47 g/m*3 31.2 C 0 km/h
234 24-07-2008 20:35:26 30.3 C 7.4 g/m*3 30.3 C 0 km/h
235 24-07-2008 21:05:26 27.1 C 7.76 g/m*3 27.1 C 0 km/h
236 24-07-2008 21:35:26 25 C 7.37 g/m*3 25 C 0 km/h
237 24-07-2008 22:05:26 23.7 C 7.7 g/m*3 23.7 C 0 km/h
238 24-07-2008 22:35:26 22.7 C 7.88 g/m*3 22.7 C 0 km/h
239 24-07-2008 23:05:26 22.2 C 8.05 g/m*3 22.2 C 0 km/h
240 24-07-2008 23:35:26 21.8 C 8.25 g/m*3 21.8 C 0 km/h
241 25-07-2008 00:05:26 21.2 C 8.15 g/m*3 21.2 C 0 km/h
242 25-07-2008 00:35:26 20.9 C 8.38 g/m*3 20.9 C 0 km/h
243 25-07-2008 01:05:26 20.2 C 8.22 g/m*3 20.2 C 0 km/h
244 25-07-2008 01:35:26 19.9 C 8.42 g/m*3 19.9 C 0 km/h
245 25-07-2008 02:05:26 19.5 C 8.22 g/m*3 19.5 C 0 km/h
246 25-07-2008 02:35:26 19.1 C 8.36 g/m*3 19.1 C 0 km/h
247 25-07-2008 03:05:26 18.5 C 8.54 g/m*3 18.5 C 0 km/h
248 25-07-2008 03:35:26 18.1 C 8.65 g/m*3 18.1 C 0 km/h
249 25-07-2008 04:05:27 17.9 C 9.01 g/m*3 17.9 C 0 km/h
250 25-07-2008 04:35:27 17.5 C 9.24 g/m*3 17.5 C 0 km/h
Sensor: Nr:Datum:Temp:Abs-Feuchte:Windchill:Wind:
Aussen-T/F 251 25-07-2008 05:05:27 17.4 C 9.34 g/m*3 17.4 C 0 km/h
252 25-07-2008 05:35:27 17 C 9.12 g/m*3 17 C 0 km/h
253 25-07-2008 06:05:27 16.6 C 9.32 g/m*3 16.6 C 0 km/h
254 25-07-2008 06:35:27 16.2 C 9.52 g/m*3 16.2 C 0 km/h
255 25-07-2008 07:05:27 16.3 C 9.71 g/m*3 16.3 C 0 km/h
256 25-07-2008 07:35:27 16.8 C 9.87 g/m*3 16.8 C 0 km/h
257 25-07-2008 08:05:27 16.9 C 9.78 g/m*3 16.9 C 0 km/h
258 25-07-2008 08:35:27 17.9 C 9.92 g/m*3 17.9 C 0 km/h
259 25-07-2008 09:05:27 20 C 9.51 g/m*3 20 C 0 km/h
260 25-07-2008 09:35:27 20.4 C 9.91 g/m*3 20.4 C 0 km/h
261 25-07-2008 10:05:27 20.8 C 10.14 g/m*3 20.8 C 0 km/h
262 25-07-2008 10:35:27 22.7 C 9.9 g/m*3 22.7 C 0 km/h
263 25-07-2008 11:05:27 24.4 C 9.57 g/m*3 24.4 C 0 km/h
264 25-07-2008 11:35:27 25.6 C 9.52 g/m*3 25.6 C 0 km/h
265 25-07-2008 12:05:27 27.1 C 9.32 g/m*3 27.1 C 0 km/h
266 25-07-2008 12:35:27 28.8 C 8.81 g/m*3 28.8 C 0 km/h
267 25-07-2008 13:05:27 29.7 C 8.95 g/m*3 29.7 C 0 km/h
268 25-07-2008 13:35:27 30.7 C 8.19 g/m*3 30.7 C 0 km/h
269 25-07-2008 14:05:27 31.3 C 7.48 g/m*3 31.3 C 0 km/h
270 25-07-2008 14:35:28 31.2 C 7.44 g/m*3 31.2 C 0 km/h
271 25-07-2008 15:05:28 32.1 C 7.13 g/m*3 32.1 C 0 km/h
272 25-07-2008 15:35:28 32.6 C 6.97 g/m*3 32.6 C 0 km/h
273 25-07-2008 16:05:28 32.3 C 6.86 g/m*3 32.3 C 0 km/h
274 25-07-2008 16:35:28 33.3 C 7.23 g/m*3 33.3 C 0 km/h
275 25-07-2008 17:05:28 32.5 C 6.93 g/m*3 32.5 C 0 km/h
Sensor: Nr:Datum:Temp:Abs-Feuchte:Windchill:Wind:
Aussen-T/F 276 25-07-2008 17:35:28 32.5 C 6.93 g/m*3 32.5 C 0 km/h
277 25-07-2008 18:05:28 32.5 C 6.93 g/m*3 32.5 C 0 km/h
278 25-07-2008 18:35:28 33.2 C 7.2 g/m*3 33.2 C 0 km/h
279 25-07-2008 19:05:28 32.8 C 7.04 g/m*3 32.8 C 0 km/h
280 25-07-2008 19:35:28 31.3 C 8.46 g/m*3 31.3 C 0 km/h
281 25-07-2008 20:05:28 30.7 C 9.45 g/m*3 30.7 C 0 km/h
282 25-07-2008 20:35:28 29.3 C 9.93 g/m*3 29.3 C 0 km/h
283 25-07-2008 21:05:28 27.8 C 9.95 g/m*3 27.8 C 0 km/h
284 25-07-2008 21:35:28 26.6 C 9.82 g/m*3 26.6 C 0 km/h
285 25-07-2008 22:05:28 25.8 C 9.63 g/m*3 25.8 C 0 km/h
286 25-07-2008 22:35:28 24.9 C 10.07 g/m*3 24.9 C 0 km/h
287 25-07-2008 23:05:28 24.3 C 9.96 g/m*3 24.3 C 0 km/h
288 25-07-2008 23:35:28 23.6 C 10.42 g/m*3 23.6 C 0 km/h
289 26-07-2008 00:05:28 23 C 10.48 g/m*3 23 C 0 km/h
290 26-07-2008 00:35:29 22.2 C 10.6 g/m*3 22.2 C 0 km/h
291 26-07-2008 01:05:29 22.2 C 10.8 g/m*3 22.2 C 0 km/h
292 26-07-2008 01:35:29 21.3 C 10.81 g/m*3 21.3 C 0 km/h
293 26-07-2008 02:05:29 21 C 10.99 g/m*3 21 C 0 km/h
294 26-07-2008 02:35:29 20.5 C 11.21 g/m*3 20.5 C 0 km/h
295 26-07-2008 03:05:29 20.2 C 11.19 g/m*3 20.2 C 0 km/h
296 26-07-2008 03:35:29 20 C 11.23 g/m*3 20 C 0 km/h
297 26-07-2008 04:05:29 20.2 C 11.19 g/m*3 20.2 C 0 km/h
298 26-07-2008 04:35:29 20 C 11.23 g/m*3 20 C 0 km/h
299 26-07-2008 05:05:29 19.9 C 11.51 g/m*3 19.9 C 0 km/h
300 26-07-2008 05:35:29 19.1 C 11.31 g/m*3 19.1 C 0 km/h
Sensor: Nr:Datum:Temp:Abs-Feuchte:Windchill:Wind:
Aussen-T/F 301 26-07-2008 06:05:29 18.8 C 11.6 g/m*3 18.8 C 0 km/h
302 26-07-2008 06:35:29 19.1 C 11.64 g/m*3 19.1 C 0 km/h
303 26-07-2008 07:05:29 19.5 C 11.75 g/m*3 19.5 C 0 km/h
304 26-07-2008 07:35:29 19.6 C 11.65 g/m*3 19.6 C 0 km/h
305 26-07-2008 08:05:29 19.8 C 11.79 g/m*3 19.8 C 0 km/h
306 26-07-2008 08:35:29 20.2 C 11.71 g/m*3 20.2 C 0 km/h
307 26-07-2008 09:05:29 21 C 11.36 g/m*3 21 C 0 km/h
308 26-07-2008 09:35:29 22 C 11.65 g/m*3 22 C 0 km/h
309 26-07-2008 10:05:29 23.7 C 11.55 g/m*3 23.7 C 0 km/h
310 26-07-2008 10:35:30 25.1 C 11.81 g/m*3 25.1 C 0 km/h
311 26-07-2008 11:05:30 25.8 C 12.28 g/m*3 25.8 C 0 km/h
312 26-07-2008 11:35:30 27.3 C 12.04 g/m*3 27.3 C 0 km/h
313 26-07-2008 12:05:30 29.6 C 12.17 g/m*3 29.6 C 0 km/h
314 26-07-2008 12:35:30 30.2 C 11.34 g/m*3 30.2 C 0 km/h
315 26-07-2008 13:05:30 30.6 C 10.96 g/m*3 30.6 C 0 km/h
316 26-07-2008 13:35:30 30.7 C 11.02 g/m*3 30.7 C 0 km/h
317 26-07-2008 14:05:30 30.9 C 10.5 g/m*3 30.9 C 0 km/h
318 26-07-2008 14:35:30 31 C 10.24 g/m*3 31 C 0 km/h
319 26-07-2008 15:05:30 31.8 C 10.02 g/m*3 31.8 C 0 km/h
320 26-07-2008 15:35:30 32.1 C 10.18 g/m*3 32.1 C 0 km/h
321 26-07-2008 16:05:30 33.2 C 7.55 g/m*3 33.2 C 0 km/h
322 26-07-2008 16:35:30 32.2 C 8.53 g/m*3 32.2 C 0 km/h
323 26-07-2008 17:05:30 31.7 C 8.64 g/m*3 31.7 C 0 km/h
324 26-07-2008 17:35:30 29 C 10.05 g/m*3 29 C 0 km/h
325 26-07-2008 18:05:30 25.3 C 11.71 g/m*3 25.3 C 0 km/h
Sensor: Nr:Datum:Temp:Abs-Feuchte:Windchill:Wind:
Aussen-T/F 326 26-07-2008 18:35:30 20.8 C 14.12 g/m*3 20.8 C 0 km/h
327 26-07-2008 19:05:30 20.9 C 15.3 g/m*3 20.9 C 0 km/h
328 26-07-2008 19:35:30 20.6 C 15.21 g/m*3 20.6 C 0 km/h
329 26-07-2008 20:05:31 21.1 C 14.37 g/m*3 21.1 C 0 km/h
330 26-07-2008 20:35:31 20.8 C 14.49 g/m*3 20.8 C 0 km/h
331 26-07-2008 21:05:31 20.8 C 14.3 g/m*3 20.8 C 0 km/h
332 26-07-2008 21:35:31 19.5 C 14.1 g/m*3 19.5 C 0 km/h
333 26-07-2008 22:05:31 19.3 C 13.6 g/m*3 19.3 C 0 km/h
334 26-07-2008 22:35:31 19 C 13.36 g/m*3 19 C 0 km/h
335 26-07-2008 23:05:31 18.9 C 13.61 g/m*3 18.9 C 0 km/h
336 26-07-2008 23:35:31 18.8 C 14.17 g/m*3 18.8 C 0 km/h
337 27-07-2008 00:05:31 18.5 C 14.08 g/m*3 18.5 C 0 km/h
338 27-07-2008 00:35:31 18.4 C 14 g/m*3 18.4 C 0 km/h
339 27-07-2008 01:05:31 18.5 C 14.08 g/m*3 18.5 C 0 km/h
340 27-07-2008 01:35:31 18.3 C 13.92 g/m*3 18.3 C 0 km/h
341 27-07-2008 02:05:31 18.1 C 13.6 g/m*3 18.1 C 0 km/h
342 27-07-2008 02:35:31 17.8 C 13.51 g/m*3 17.8 C 0 km/h
343 27-07-2008 03:05:31 18 C 13.67 g/m*3 18 C 0 km/h
344 27-07-2008 03:35:31 18.4 C 14 g/m*3 18.4 C 0 km/h
345 27-07-2008 04:05:31 18.4 C 13.84 g/m*3 18.4 C 0 km/h
346 27-07-2008 04:35:31 18.5 C 13.92 g/m*3 18.5 C 0 km/h
347 27-07-2008 05:05:31 18.7 C 13.93 g/m*3 18.7 C 0 km/h
348 27-07-2008 05:35:32 18.7 C 13.93 g/m*3 18.7 C 0 km/h
349 27-07-2008 06:05:32 18.8 C 14.01 g/m*3 18.8 C 0 km/h
350 27-07-2008 06:35:32 18.8 C 14.01 g/m*3 18.8 C 0 km/h
Sensor: Nr:Datum:Temp:Abs-Feuchte:Windchill:Wind:
Aussen-T/F 351 27-07-2008 07:05:32 19 C 13.85 g/m*3 19 C 0 km/h
352 27-07-2008 07:35:32 19.2 C 13.85 g/m*3 19.2 C 0 km/h
353 27-07-2008 08:05:32 19.6 C 13.67 g/m*3 19.6 C 0 km/h
354 27-07-2008 08:35:32 19.7 C 13.25 g/m*3 19.7 C 0 km/h
355 27-07-2008 09:05:32 19.9 C 13.23 g/m*3 19.9 C 0 km/h
356 27-07-2008 09:35:32 20.1 C 13.04 g/m*3 20.1 C 0 km/h
357 27-07-2008 10:05:32 20.4 C 13.09 g/m*3 20.4 C 0 km/h
358 27-07-2008 10:35:32 21.6 C 13.66 g/m*3 21.6 C 0 km/h
359 27-07-2008 11:05:32 23.4 C 13.04 g/m*3 23.4 C 0 km/h
360 27-07-2008 11:35:32 24.3 C 12.83 g/m*3 24.3 C 0 km/h
361 27-07-2008 12:05:32 24.9 C 13.05 g/m*3 24.9 C 0 km/h
362 27-07-2008 12:35:32 26.5 C 12.77 g/m*3 26.5 C 0 km/h
363 27-07-2008 13:05:32 28.2 C 12.1 g/m*3 28.2 C 0 km/h
364 27-07-2008 13:35:32 29.9 C 11.46 g/m*3 29.9 C 0 km/h
365 27-07-2008 14:05:32 30.3 C 11.4 g/m*3 30.3 C 0 km/h
366 27-07-2008 14:35:32 31.2 C 10.67 g/m*3 31.2 C 0 km/h
367 27-07-2008 15:05:33 31.8 C 10.02 g/m*3 31.8 C 0 km/h
368 27-07-2008 15:35:33 32.4 C 10 g/m*3 32.4 C 0 km/h
369 27-07-2008 16:05:33 33 C 8.9 g/m*3 33 C 0 km/h
370 27-07-2008 16:35:33 32.7 C 8.76 g/m*3 32.7 C 0 km/h
371 27-07-2008 17:05:33 33.8 C 7.43 g/m*3 33.8 C 0 km/h
372 27-07-2008 17:35:33 33.6 C 7.35 g/m*3 33.6 C 0 km/h
373 27-07-2008 18:05:33 32 C 9.45 g/m*3 32 C 0 km/h
374 27-07-2008 18:35:33 31 C 10.88 g/m*3 31 C 0 km/h
375 27-07-2008 19:05:33 25.1 C 12.04 g/m*3 25.1 C 0 km/h
Sensor: Nr:Datum:Temp:Abs-Feuchte:Windchill:Wind:
Aussen-T/F 376 27-07-2008 19:35:33 22.8 C 15.65 g/m*3 22.8 C 0 km/h
377 27-07-2008 20:05:33 21.7 C 15.83 g/m*3 21.7 C 0 km/h
378 27-07-2008 20:35:33 21 C 15.39 g/m*3 21 C 0 km/h
379 27-07-2008 21:05:33 21.6 C 15.36 g/m*3 21.6 C 0 km/h
380 27-07-2008 21:35:33 21.5 C 14.71 g/m*3 21.5 C 0 km/h
381 27-07-2008 22:05:33 21.3 C 14.54 g/m*3 21.3 C 0 km/h
382 27-07-2008 22:35:33 21 C 13.92 g/m*3 21 C 0 km/h
383 27-07-2008 23:05:33 20.8 C 13.76 g/m*3 20.8 C 0 km/h
384 27-07-2008 23:35:33 20.7 C 13.68 g/m*3 20.7 C 0 km/h
385 28-07-2008 00:05:33 20.3 C 13.54 g/m*3 20.3 C 0 km/h
386 28-07-2008 00:35:33 20 C 13.48 g/m*3 20 C 0 km/h
387 28-07-2008 01:05:34 19.5 C 13.26 g/m*3 19.5 C 0 km/h
388 28-07-2008 01:35:34 19.2 C 13.19 g/m*3 19.2 C 0 km/h
389 28-07-2008 02:05:34 19.1 C 13.28 g/m*3 19.1 C 0 km/h
390 28-07-2008 02:35:34 19.2 C 13.36 g/m*3 19.2 C 0 km/h
391 28-07-2008 03:05:34 19.2 C 13.36 g/m*3 19.2 C 0 km/h
392 28-07-2008 03:35:34 18.9 C 13.61 g/m*3 18.9 C 0 km/h
393 28-07-2008 04:05:34 18.6 C 13.37 g/m*3 18.6 C 0 km/h
394 28-07-2008 04:35:34 18.6 C 13.37 g/m*3 18.6 C 0 km/h
395 28-07-2008 05:05:34 18.3 C 13.29 g/m*3 18.3 C 0 km/h
396 28-07-2008 05:35:34 18.1 C 13.13 g/m*3 18.1 C 0 km/h
397 28-07-2008 06:05:34 18 C 13.06 g/m*3 18 C 0 km/h
398 28-07-2008 06:35:34 18.2 C 13.21 g/m*3 18.2 C 0 km/h
399 28-07-2008 07:05:34 18.5 C 13.45 g/m*3 18.5 C 0 km/h
400 28-07-2008 07:35:34 18.9 C 13.77 g/m*3 18.9 C 0 km/h
Sensor: Nr:Datum:Temp:Abs-Feuchte:Windchill:Wind:
Aussen-T/F 401 28-07-2008 08:05:34 19.4 C 13.85 g/m*3 19.4 C 0 km/h
402 28-07-2008 08:35:34 19.8 C 13.84 g/m*3 19.8 C 0 km/h
403 28-07-2008 09:05:34 20.9 C 14.21 g/m*3 20.9 C 0 km/h
404 28-07-2008 09:35:34 22.4 C 13.7 g/m*3 22.4 C 0 km/h
405 28-07-2008 10:05:34 23.5 C 13.75 g/m*3 23.5 C 0 km/h
406 28-07-2008 10:35:35 26 C 12.42 g/m*3 26 C 0 km/h
407 28-07-2008 11:05:35 26.6 C 12.59 g/m*3 26.6 C 0 km/h
408 28-07-2008 11:35:35 27.9 C 12.17 g/m*3 27.9 C 0 km/h
409 28-07-2008 12:05:35 28.7 C 11.59 g/m*3 28.7 C 0 km/h
410 28-07-2008 12:35:35 30.6 C 10.65 g/m*3 30.6 C 0 km/h
411 28-07-2008 13:05:35 31.5 C 9.86 g/m*3 31.5 C 0 km/h
412 28-07-2008 13:35:35 32.1 C 9.16 g/m*3 32.1 C 0 km/h
413 28-07-2008 14:05:35 32.1 C 8.82 g/m*3 32.1 C 0 km/h
414 28-07-2008 14:35:35 31.9 C 8.39 g/m*3 31.9 C 0 km/h
415 28-07-2008 15:05:35 32.6 C 7.67 g/m*3 32.6 C 0 km/h
416 28-07-2008 15:35:35 32.3 C 6.86 g/m*3 32.3 C 0 km/h
417 28-07-2008 16:05:35 33.1 C 7.16 g/m*3 33.1 C 0 km/h
418 28-07-2008 16:35:35 32.6 C 6.97 g/m*3 32.6 C 0 km/h
419 28-07-2008 17:05:35 33.2 C 7.2 g/m*3 33.2 C 0 km/h
420 28-07-2008 17:35:35 32.7 C 8.41 g/m*3 32.7 C 0 km/h
421 28-07-2008 18:05:35 32.8 C 7.75 g/m*3 32.8 C 0 km/h
422 28-07-2008 18:35:35 31.5 C 9.2 g/m*3 31.5 C 0 km/h
423 28-07-2008 19:05:35 30.2 C 9.2 g/m*3 30.2 C 0 km/h
424 28-07-2008 19:35:35 30.3 C 9.55 g/m*3 30.3 C 0 km/h
425 28-07-2008 20:05:36 29 C 9.77 g/m*3 29 C 0 km/h
Sensor: Nr:Datum:Temp:Abs-Feuchte:Windchill:Wind:
Aussen-T/F 426 28-07-2008 20:35:36 27.8 C 9.68 g/m*3 27.8 C 0 km/h
427 28-07-2008 21:05:36 27 C 9.52 g/m*3 27 C 0 km/h
428 28-07-2008 21:35:36 26.3 C 9.65 g/m*3 26.3 C 0 km/h
429 28-07-2008 22:05:36 25.5 C 9.47 g/m*3 25.5 C 0 km/h
430 28-07-2008 22:35:36 24.8 C 9.79 g/m*3 24.8 C 0 km/h
431 28-07-2008 23:05:36 24.1 C 9.63 g/m*3 24.1 C 0 km/h
432 28-07-2008 23:35:36 23.4 C 9.88 g/m*3 23.4 C 0 km/h
433 29-07-2008 00:05:36 23 C 9.87 g/m*3 23 C 0 km/h
434 29-07-2008 00:35:36 22.5 C 10.39 g/m*3 22.5 C 0 km/h
435 29-07-2008 01:05:36 22.1 C 10.35 g/m*3 22.1 C 0 km/h
436 29-07-2008 01:35:36 21.6 C 10.43 g/m*3 21.6 C 0 km/h
437 29-07-2008 02:05:36 21.1 C 11.06 g/m*3 21.1 C 0 km/h
438 29-07-2008 02:35:36 20.9 C 10.93 g/m*3 20.9 C 0 km/h
439 29-07-2008 03:05:36 20.4 C 10.97 g/m*3 20.4 C 0 km/h
440 29-07-2008 03:35:36 20.1 C 11.3 g/m*3 20.1 C 0 km/h
441 29-07-2008 04:05:36 19.8 C 11.44 g/m*3 19.8 C 0 km/h
442 29-07-2008 04:35:36 19.4 C 11.68 g/m*3 19.4 C 0 km/h
443 29-07-2008 05:05:36 19.2 C 11.87 g/m*3 19.2 C 0 km/h
444 29-07-2008 05:35:37 19 C 11.57 g/m*3 19 C 0 km/h
445 29-07-2008 06:05:37 19 C 11.73 g/m*3 19 C 0 km/h
446 29-07-2008 06:35:37 19 C 11.9 g/m*3 19 C 0 km/h
447 29-07-2008 07:05:37 19.2 C 12.04 g/m*3 19.2 C 0 km/h
448 29-07-2008 07:35:37 19.1 C 12.13 g/m*3 19.1 C 0 km/h
449 29-07-2008 08:05:37 19.4 C 12.35 g/m*3 19.4 C 0 km/h
450 29-07-2008 08:35:37 20.2 C 12.24 g/m*3 20.2 C 0 km/h
Sensor: Nr:Datum:Temp:Abs-Feuchte:Windchill:Wind:
Aussen-T/F 451 29-07-2008 09:05:37 22 C 12.23 g/m*3 22 C 0 km/h
452 29-07-2008 09:35:37 23.5 C 11.84 g/m*3 23.5 C 0 km/h
453 29-07-2008 10:05:37 24.6 C 11.7 g/m*3 24.6 C 0 km/h
454 29-07-2008 10:35:37 27 C 11.58 g/m*3 27 C 0 km/h
455 29-07-2008 11:05:37 27.8 C 12.1 g/m*3 27.8 C 0 km/h
456 29-07-2008 11:35:37 24.8 C 11.84 g/m*3 24.8 C 0 km/h
457 29-07-2008 12:05:37 20.4 C 13.98 g/m*3 20.4 C 0 km/h
458 29-07-2008 12:35:37 20.3 C 14.95 g/m*3 20.3 C 0 km/h
459 29-07-2008 13:05:37 21.4 C 15.37 g/m*3 21.4 C 0 km/h
460 29-07-2008 13:35:37 24.6 C 16.21 g/m*3 24.6 C 0 km/h
461 29-07-2008 14:05:37 26.8 C 14 g/m*3 26.8 C 0 km/h
462 29-07-2008 14:35:37 27.7 C 13.11 g/m*3 27.7 C 0 km/h
463 29-07-2008 15:05:38 29.8 C 12 g/m*3 29.8 C 0 km/h
464 29-07-2008 15:35:38 30.7 C 11.02 g/m*3 30.7 C 0 km/h
465 29-07-2008 16:05:38 31.4 C 10.46 g/m*3 31.4 C 0 km/h
466 29-07-2008 16:35:38 32 C 10.13 g/m*3 32 C 0 km/h
467 29-07-2008 17:05:38 32.1 C 9.5 g/m*3 32.1 C 0 km/h
468 29-07-2008 17:35:38 31.8 C 10.02 g/m*3 31.8 C 0 km/h
469 29-07-2008 18:05:38 31.5 C 10.19 g/m*3 31.5 C 0 km/h
470 29-07-2008 18:35:38 31.9 C 9.07 g/m*3 31.9 C 0 km/h
471 29-07-2008 19:05:38 31.7 C 9.3 g/m*3 31.7 C 0 km/h
472 29-07-2008 19:35:38 30.3 C 10.79 g/m*3 30.3 C 0 km/h
473 29-07-2008 20:05:38 31.3 C 10.73 g/m*3 31.3 C 0 km/h
474 29-07-2008 20:35:38 30.2 C 9.81 g/m*3 30.2 C 0 km/h
475 29-07-2008 21:05:38 26.9 C 10.49 g/m*3 26.9 C 0 km/h
Sensor: Nr:Datum:Temp:Abs-Feuchte:Windchill:Wind:
Aussen-T/F 476 29-07-2008 21:35:38 25.1 C 10.65 g/m*3 25.1 C 0 km/h
477 29-07-2008 22:05:38 24.4 C 11.57 g/m*3 24.4 C 0 km/h
478 29-07-2008 22:35:38 23.5 C 11.42 g/m*3 23.5 C 0 km/h
479 29-07-2008 23:05:38 23.1 C 11.78 g/m*3 23.1 C 0 km/h
480 29-07-2008 23:35:38 22.3 C 11.65 g/m*3 22.3 C 0 km/h
481 30-07-2008 00:05:38 21.7 C 12.21 g/m*3 21.7 C 0 km/h
482 30-07-2008 00:35:38 21.1 C 12.53 g/m*3 21.1 C 0 km/h
483 30-07-2008 01:05:39 20.7 C 12.78 g/m*3 20.7 C 0 km/h
484 30-07-2008 01:35:39 20.6 C 12.71 g/m*3 20.6 C 0 km/h
485 30-07-2008 02:05:39 20.3 C 12.49 g/m*3 20.3 C 0 km/h
486 30-07-2008 02:35:39 19.9 C 12.54 g/m*3 19.9 C 0 km/h
487 30-07-2008 03:05:39 19.5 C 12.42 g/m*3 19.5 C 0 km/h
488 30-07-2008 03:35:39 19 C 12.55 g/m*3 19 C 0 km/h
489 30-07-2008 04:05:39 18.9 C 12.47 g/m*3 18.9 C 0 km/h
490 30-07-2008 04:35:39 18.7 C 12.49 g/m*3 18.7 C 0 km/h
491 30-07-2008 05:05:39 18.3 C 12.51 g/m*3 18.3 C 0 km/h
492 30-07-2008 05:35:39 18.1 C 12.36 g/m*3 18.1 C 0 km/h
493 30-07-2008 06:05:39 17.9 C 12.37 g/m*3 17.9 C 0 km/h
494 30-07-2008 06:35:39 17.8 C 12.45 g/m*3 17.8 C 0 km/h
495 30-07-2008 07:05:39 17.8 C 12.45 g/m*3 17.8 C 0 km/h
496 30-07-2008 07:35:39 17.8 C 12.45 g/m*3 17.8 C 0 km/h
497 30-07-2008 08:05:39 19 C 12.71 g/m*3 19 C 0 km/h
498 30-07-2008 08:35:39 19.9 C 12.54 g/m*3 19.9 C 0 km/h
499 30-07-2008 09:05:39 20.7 C 12.6 g/m*3 20.7 C 0 km/h
500 30-07-2008 09:35:39 22 C 12.81 g/m*3 22 C 0 km/h
Sensor: Nr:Datum:Temp:Abs-Feuchte:Windchill:Wind:
Aussen-T/F 501 30-07-2008 10:05:39 22.7 C 12.93 g/m*3 22.7 C 0 km/h
502 30-07-2008 10:35:40 24.8 C 12.97 g/m*3 24.8 C 0 km/h
503 30-07-2008 11:05:40 26.1 C 12.49 g/m*3 26.1 C 0 km/h
504 30-07-2008 11:35:40 26.8 C 12.22 g/m*3 26.8 C 0 km/h
505 30-07-2008 12:05:40 27.5 C 12.43 g/m*3 27.5 C 0 km/h
506 30-07-2008 12:35:40 29.3 C 11.97 g/m*3 29.3 C 0 km/h
507 30-07-2008 13:05:40 29.6 C 11.87 g/m*3 29.6 C 0 km/h
508 30-07-2008 13:35:40 30 C 10.92 g/m*3 30 C 0 km/h
509 30-07-2008 14:05:40 29.8 C 11.4 g/m*3 29.8 C 0 km/h
510 30-07-2008 14:35:40 31.7 C 10.3 g/m*3 31.7 C 0 km/h
511 30-07-2008 15:05:40 32.7 C 9.11 g/m*3 32.7 C 0 km/h
512 30-07-2008 15:35:40 32 C 9.45 g/m*3 32 C 0 km/h
513 30-07-2008 16:05:40 31.8 C 10.02 g/m*3 31.8 C 0 km/h
514 30-07-2008 16:35:40 33.2 C 8.63 g/m*3 33.2 C 0 km/h
515 30-07-2008 17:05:40 33.3 C 7.96 g/m*3 33.3 C 0 km/h
516 30-07-2008 17:35:40 33.6 C 8.08 g/m*3 33.6 C 0 km/h
517 30-07-2008 18:05:40 34 C 7.5 g/m*3 34 C 0 km/h
518 30-07-2008 18:35:40 24.5 C 5.82 g/m*3 24.5 C 0 km/h
519 30-07-2008 19:05:40 21.2 C 4.82 g/m*3 21.2 C 0 km/h
520 30-07-2008 19:35:40 22.4 C 6.16 g/m*3 22.4 C 0 km/h
521 30-07-2008 20:05:41 24.6 C 18.01 g/m*3 24.6 C 0 km/h
522 30-07-2008 20:35:41 23 C 15.42 g/m*3 23 C 0 km/h
523 30-07-2008 21:05:41 22.1 C 13.66 g/m*3 22.1 C 0 km/h
524 30-07-2008 21:35:41 20.1 C 14.78 g/m*3 20.1 C 0 km/h
525 30-07-2008 22:05:41 20.1 C 15.12 g/m*3 20.1 C 0 km/h
Sensor: Nr:Datum:Temp:Abs-Feuchte:Windchill:Wind:
Aussen-T/F 526 30-07-2008 22:35:41 20.1 C 15.12 g/m*3 20.1 C 0 km/h
527 30-07-2008 23:05:41 20 C 14.86 g/m*3 20 C 0 km/h
528 30-07-2008 23:35:41 19.6 C 14.69 g/m*3 19.6 C 0 km/h
529 31-07-2008 00:05:41 19.1 C 13.93 g/m*3 19.1 C 0 km/h
530 31-07-2008 00:35:41 18.7 C 13.77 g/m*3 18.7 C 0 km/h
531 31-07-2008 01:05:41 18.5 C 13.61 g/m*3 18.5 C 0 km/h
532 31-07-2008 01:35:41 18.4 C 13.53 g/m*3 18.4 C 0 km/h
533 31-07-2008 02:05:41 18.1 C 13.44 g/m*3 18.1 C 0 km/h
534 31-07-2008 02:35:41 17.9 C 13.44 g/m*3 17.9 C 0 km/h
535 31-07-2008 03:05:41 17.6 C 13.2 g/m*3 17.6 C 0 km/h
536 31-07-2008 03:35:41 17.4 C 13.04 g/m*3 17.4 C 0 km/h
537 31-07-2008 04:05:41 17.1 C 12.96 g/m*3 17.1 C 0 km/h
538 31-07-2008 04:35:41 17.2 C 13.18 g/m*3 17.2 C 0 km/h
539 31-07-2008 05:05:41 17.2 C 13.03 g/m*3 17.2 C 0 km/h
540 31-07-2008 05:35:42 17.4 C 13.19 g/m*3 17.4 C 0 km/h
541 31-07-2008 06:05:42 17 C 12.73 g/m*3 17 C 0 km/h
542 31-07-2008 06:35:42 17.5 C 13.12 g/m*3 17.5 C 0 km/h
543 31-07-2008 07:05:42 17.2 C 12.59 g/m*3 17.2 C 0 km/h
544 31-07-2008 07:35:42 17.1 C 12.66 g/m*3 17.1 C 0 km/h
545 31-07-2008 08:05:42 17.9 C 13.28 g/m*3 17.9 C 0 km/h
546 31-07-2008 08:35:42 18.5 C 13.13 g/m*3 18.5 C 0 km/h
547 31-07-2008 09:05:42 18.9 C 12.96 g/m*3 18.9 C 0 km/h
548 31-07-2008 09:35:42 19.7 C 13.75 g/m*3 19.7 C 0 km/h
549 31-07-2008 10:05:42 21 C 14.29 g/m*3 21 C 0 km/h
550 31-07-2008 10:35:42 22.9 C 15.12 g/m*3 22.9 C 0 km/h
Sensor: Nr:Datum:Temp:Abs-Feuchte:Windchill:Wind:
Aussen-T/F 551 31-07-2008 11:05:42 24.8 C 13.88 g/m*3 24.8 C 0 km/h
552 31-07-2008 11:35:42 26.6 C 13.84 g/m*3 26.6 C 0 km/h
553 31-07-2008 12:05:42 27.8 C 13.18 g/m*3 27.8 C 0 km/h
554 31-07-2008 12:35:42 29.5 C 12.4 g/m*3 29.5 C 0 km/h
555 31-07-2008 13:05:42 30.7 C 11.34 g/m*3 30.7 C 0 km/h
556 31-07-2008 13:35:42 31.6 C 9.91 g/m*3 31.6 C 0 km/h
557 31-07-2008 14:05:42 31.4 C 9.81 g/m*3 31.4 C 0 km/h
558 31-07-2008 14:35:42 30.8 C 10.76 g/m*3 30.8 C 0 km/h
559 31-07-2008 15:05:43 31.5 C 10.19 g/m*3 31.5 C 0 km/h
560 31-07-2008 15:35:43 31.5 C 10.52 g/m*3 31.5 C 0 km/h
561 31-07-2008 16:05:43 33.3 C 9.04 g/m*3 33.3 C 0 km/h
562 31-07-2008 16:35:43 33.8 C 8.54 g/m*3 33.8 C 0 km/h
563 31-07-2008 17:05:43 33.7 C 8.49 g/m*3 33.7 C 0 km/h
564 31-07-2008 17:35:43 33.9 C 7.84 g/m*3 33.9 C 0 km/h
565 31-07-2008 18:05:43 34.1 C 8.3 g/m*3 34.1 C 0 km/h
566 31-07-2008 18:35:43 33.8 C 8.91 g/m*3 33.8 C 0 km/h
567 31-07-2008 19:05:43 33.3 C 9.04 g/m*3 33.3 C 0 km/h
568 31-07-2008 19:35:43 32.9 C 9.56 g/m*3 32.9 C 0 km/h
569 31-07-2008 20:05:43 32 C 10.47 g/m*3 32 C 0 km/h
570 31-07-2008 20:35:43 29.7 C 12.23 g/m*3 29.7 C 0 km/h
571 31-07-2008 21:05:43 27.9 C 12.17 g/m*3 27.9 C 0 km/h
572 31-07-2008 21:35:43 26.8 C 12.22 g/m*3 26.8 C 0 km/h
573 31-07-2008 22:05:43 26.1 C 11.75 g/m*3 26.1 C 0 km/h
574 31-07-2008 22:35:43 25.6 C 11.67 g/m*3 25.6 C 0 km/h
575 31-07-2008 23:05:43 25.2 C 11.87 g/m*3 25.2 C 0 km/h
Sensor: Nr:Datum:Temp:Abs-Feuchte:Windchill:Wind:
Aussen-T/F 576 31-07-2008 23:35:43 24.9 C 11.9 g/m*3 24.9 C 0 km/h
577 01-08-2008 00:05:43 24.6 C 11.93 g/m*3 24.6 C 0 km/h
578 01-08-2008 00:35:44 24.5 C 12.53 g/m*3 24.5 C 0 km/h
579 01-08-2008 01:05:44 24.8 C 12.29 g/m*3 24.8 C 0 km/h
580 01-08-2008 01:35:44 24.6 C 12.38 g/m*3 24.6 C 0 km/h
581 01-08-2008 02:05:44 24.1 C 12.69 g/m*3 24.1 C 0 km/h
582 01-08-2008 02:35:44 23.8 C 13.34 g/m*3 23.8 C 0 km/h
583 01-08-2008 03:05:44 23.7 C 13.48 g/m*3 23.7 C 0 km/h
584 01-08-2008 03:35:44 23 C 13.57 g/m*3 23 C 0 km/h
585 01-08-2008 04:05:44 22.8 C 13.61 g/m*3 22.8 C 0 km/h
586 01-08-2008 04:35:44 22.6 C 13.66 g/m*3 22.6 C 0 km/h
587 01-08-2008 05:05:44 22.5 C 13.98 g/m*3 22.5 C 0 km/h
588 01-08-2008 05:35:44 22.1 C 14.05 g/m*3 22.1 C 0 km/h
589 01-08-2008 06:05:44 22.2 C 13.94 g/m*3 22.2 C 0 km/h
590 01-08-2008 06:35:44 22.4 C 13.9 g/m*3 22.4 C 0 km/h
591 01-08-2008 07:05:44 22.7 C 13.54 g/m*3 22.7 C 0 km/h
592 01-08-2008 07:35:44 23.4 C 13.67 g/m*3 23.4 C 0 km/h
593 01-08-2008 08:05:44 23.4 C 13.46 g/m*3 23.4 C 0 km/h
594 01-08-2008 08:35:44 23.7 C 13.69 g/m*3 23.7 C 0 km/h
595 01-08-2008 09:05:44 23.8 C 12.48 g/m*3 23.8 C 0 km/h
596 01-08-2008 09:35:44 24.5 C 12.76 g/m*3 24.5 C 0 km/h
597 01-08-2008 10:05:45 24.9 C 12.36 g/m*3 24.9 C 0 km/h
598 01-08-2008 10:35:45 26.3 C 11.64 g/m*3 26.3 C 0 km/h
599 01-08-2008 11:05:45 27.3 C 11.51 g/m*3 27.3 C 0 km/h
600 01-08-2008 11:35:45 27.7 C 10.7 g/m*3 27.7 C 0 km/h
Sensor: Nr:Datum:Temp:Abs-Feuchte:Windchill:Wind:
Aussen-T/F 601 01-08-2008 12:05:45 27.7 C 9.9 g/m*3 27.7 C 0 km/h
602 01-08-2008 12:35:45 28.2 C 8.8 g/m*3 28.2 C 0 km/h
603 01-08-2008 13:05:45 28.2 C 8.52 g/m*3 28.2 C 0 km/h
604 01-08-2008 13:35:45 26.5 C 9.26 g/m*3 26.5 C 0 km/h
605 01-08-2008 14:05:45 26.3 C 9.41 g/m*3 26.3 C 0 km/h
606 01-08-2008 14:35:45 26.1 C 9.55 g/m*3 26.1 C 0 km/h
607 01-08-2008 15:05:45 28.2 C 8.8 g/m*3 28.2 C 0 km/h
608 01-08-2008 15:35:45 29.5 C 8.85 g/m*3 29.5 C 0 km/h
609 01-08-2008 16:05:45 28.2 C 8.8 g/m*3 28.2 C 0 km/h
610 01-08-2008 16:35:45 29.3 C 8.47 g/m*3 29.3 C 0 km/h
611 01-08-2008 17:05:45 28.4 C 8.34 g/m*3 28.4 C 0 km/h
612 01-08-2008 17:35:45 26.8 C 8.14 g/m*3 26.8 C 0 km/h
613 01-08-2008 18:05:45 26.3 C 7.92 g/m*3 26.3 C 0 km/h
614 01-08-2008 18:35:45 26.4 C 7.97 g/m*3 26.4 C 0 km/h
615 01-08-2008 19:05:45 26.9 C 7.68 g/m*3 26.9 C 0 km/h
616 01-08-2008 19:35:46 27.2 C 7.03 g/m*3 27.2 C 0 km/h
617 01-08-2008 20:05:46 25.6 C 6.43 g/m*3 25.6 C 0 km/h
618 01-08-2008 20:35:46 24.4 C 6.45 g/m*3 24.4 C 0 km/h
619 01-08-2008 21:05:46 23.7 C 7.06 g/m*3 23.7 C 0 km/h
620 01-08-2008 21:35:46 23.1 C 7.44 g/m*3 23.1 C 0 km/h
621 01-08-2008 22:05:46 22.4 C 7.55 g/m*3 22.4 C 0 km/h
622 01-08-2008 22:35:46 22 C 7.96 g/m*3 22 C 0 km/h
623 01-08-2008 23:05:46 21.6 C 8.16 g/m*3 21.6 C 0 km/h
624 01-08-2008 23:35:46 20.6 C 8.59 g/m*3 20.6 C 0 km/h
625 02-08-2008 00:05:46 19.6 C 8.61 g/m*3 19.6 C 0 km/h
Sensor: Nr:Datum:Temp:Abs-Feuchte:Windchill:Wind:
Aussen-T/F 626 02-08-2008 00:35:46 19 C 8.8 g/m*3 19 C 0 km/h
627 02-08-2008 01:05:46 18.4 C 9.12 g/m*3 18.4 C 0 km/h
628 02-08-2008 01:35:46 18.1 C 9.27 g/m*3 18.1 C 0 km/h
629 02-08-2008 02:05:46 17.2 C 9.52 g/m*3 17.2 C 0 km/h
630 02-08-2008 02:35:46 16.9 C 9.78 g/m*3 16.9 C 0 km/h
631 02-08-2008 03:05:46 16.6 C 9.75 g/m*3 16.6 C 0 km/h
632 02-08-2008 03:35:46 16.6 C 9.75 g/m*3 16.6 C 0 km/h
633 02-08-2008 04:05:46 16.3 C 9.85 g/m*3 16.3 C 0 km/h
634 02-08-2008 04:35:46 16.6 C 9.89 g/m*3 16.6 C 0 km/h
635 02-08-2008 05:05:47 16.1 C 9.73 g/m*3 16.1 C 0 km/h
636 02-08-2008 05:35:47 15.7 C 9.9 g/m*3 15.7 C 0 km/h
637 02-08-2008 06:05:47 15.5 C 10.05 g/m*3 15.5 C 0 km/h
638 02-08-2008 06:35:47 16.1 C 10.28 g/m*3 16.1 C 0 km/h
639 02-08-2008 07:05:47 16.6 C 10.45 g/m*3 16.6 C 0 km/h
640 02-08-2008 07:35:47 17.2 C 10.4 g/m*3 17.2 C 0 km/h
641 02-08-2008 08:05:47 18 C 10.29 g/m*3 18 C 0 km/h
642 02-08-2008 08:35:47 18.5 C 10.13 g/m*3 18.5 C 0 km/h
643 02-08-2008 09:05:47 20 C 9.85 g/m*3 20 C 0 km/h
644 02-08-2008 09:35:47 20.4 C 10.26 g/m*3 20.4 C 0 km/h
645 02-08-2008 10:05:47 21.2 C 10.38 g/m*3 21.2 C 0 km/h
646 02-08-2008 10:35:47 22 C 8.93 g/m*3 22 C 0 km/h
647 02-08-2008 11:05:47 22.9 C 8.58 g/m*3 22.9 C 0 km/h
648 02-08-2008 11:35:47 23.6 C 8.08 g/m*3 23.6 C 0 km/h
649 02-08-2008 12:05:47 24.4 C 7.79 g/m*3 24.4 C 0 km/h
650 02-08-2008 12:35:47 25.6 C 7.38 g/m*3 25.6 C 0 km/h
Sensor: Nr:Datum:Temp:Abs-Feuchte:Windchill:Wind:
Aussen-T/F 651 02-08-2008 13:05:47 26.9 C 6.91 g/m*3 26.9 C 0 km/h
652 02-08-2008 13:35:47 27 C 6.95 g/m*3 27 C 0 km/h
653 02-08-2008 14:05:47 26.9 C 6.65 g/m*3 26.9 C 0 km/h
654 02-08-2008 14:35:48 26.5 C 7.01 g/m*3 26.5 C 0 km/h
655 02-08-2008 15:05:48 27 C 6.95 g/m*3 27 C 0 km/h
656 02-08-2008 15:35:48 27.3 C 6.8 g/m*3 27.3 C 0 km/h
657 02-08-2008 16:05:48 26.9 C 6.91 g/m*3 26.9 C 0 km/h
658 02-08-2008 16:35:48 23.3 C 9.62 g/m*3 23.3 C 0 km/h
659 02-08-2008 17:05:48 24.6 C 8.55 g/m*3 24.6 C 0 km/h
660 02-08-2008 17:35:02 24.9 C 8.24 g/m*3 24.9 C 0 km/h
661 02-08-2008 18:05:02 24.7 C 8.15 g/m*3 24.7 C 0 km/h
662 02-08-2008 18:35:02 24.1 C 8.53 g/m*3 24.1 C 0 km/h
663 02-08-2008 19:05:04 24.7 C 8.83 g/m*3 24.7 C 0 km/h
664 02-08-2008 19:35:02 24.1 C 8.1 g/m*3 24.1 C 0 km/h
665 02-08-2008 20:05:02 23.7 C 8.34 g/m*3 23.7 C 0 km/h
666 02-08-2008 20:35:01 22.8 C 8.94 g/m*3 22.8 C 0 km/h
667 02-08-2008 21:05:03 22 C 8.93 g/m*3 22 C 0 km/h
668 02-08-2008 21:35:03 21.8 C 9.4 g/m*3 21.8 C 0 km/h
669 02-08-2008 22:05:04 21.5 C 9.62 g/m*3 21.5 C 0 km/h
670 02-08-2008 22:35:03 21.2 C 10.01 g/m*3 21.2 C 0 km/h
671 02-08-2008 23:05:02 20.7 C 10.26 g/m*3 20.7 C 0 km/h
672 02-08-2008 23:35:02 20.6 C 10.74 g/m*3 20.6 C 0 km/h
673 03-08-2008 00:05:03 20.4 C 11.14 g/m*3 20.4 C 0 km/h
674 03-08-2008 00:35:03 19 C 12.06 g/m*3 19 C 0 km/h
675 03-08-2008 01:05:02 19.2 C 12.2 g/m*3 19.2 C 0 km/h
Sensor: Nr:Datum:Temp:Abs-Feuchte:Windchill:Wind:
Aussen-T/F 676 03-08-2008 01:35:03 19.6 C 11.99 g/m*3 19.6 C 0 km/h
677 03-08-2008 02:05:02 18.4 C 13.05 g/m*3 18.4 C 0 km/h
678 03-08-2008 02:35:03 18.4 C 13.68 g/m*3 18.4 C 0 km/h
679 03-08-2008 03:06:03 18.2 C 13.68 g/m*3 18.2 C 0 km/h
680 03-08-2008 03:36:02 18.2 C 13.68 g/m*3 18.2 C 0 km/h
681 03-08-2008 04:06:02 17.7 C 12.98 g/m*3 17.7 C 0 km/h
682 03-08-2008 04:36:02 17.6 C 13.05 g/m*3 17.6 C 0 km/h
683 03-08-2008 05:06:01 17.3 C 12.96 g/m*3 17.3 C 0 km/h
684 03-08-2008 05:36:01 17.5 C 13.27 g/m*3 17.5 C 0 km/h
685 03-08-2008 06:06:03 17.5 C 13.27 g/m*3 17.5 C 0 km/h
686 03-08-2008 06:36:03 17.5 C 13.27 g/m*3 17.5 C 0 km/h
687 03-08-2008 07:06:02 17.7 C 12.82 g/m*3 17.7 C 0 km/h
688 03-08-2008 07:36:02 17.8 C 11.99 g/m*3 17.8 C 0 km/h
689 03-08-2008 08:06:02 17.9 C 10.84 g/m*3 17.9 C 0 km/h
690 03-08-2008 08:36:02 18.3 C 10.79 g/m*3 18.3 C 0 km/h
691 03-08-2008 09:06:02 19 C 10.1 g/m*3 19 C 0 km/h
692 03-08-2008 09:36:02 19.5 C 10.41 g/m*3 19.5 C 0 km/h
693 03-08-2008 10:06:02 20.1 C 9.91 g/m*3 20.1 C 0 km/h
694 03-08-2008 10:36:02 21.1 C 9.95 g/m*3 21.1 C 0 km/h
695 03-08-2008 11:06:01 22 C 9.7 g/m*3 22 C 0 km/h
696 03-08-2008 11:36:01 23.6 C 9.57 g/m*3 23.6 C 0 km/h
697 03-08-2008 12:00:01 22.6 C 9.24 g/m*3 22.6 C 0 km/h
698 03-08-2008 12:12:02 22.6 C 9.04 g/m*3 22.6 C 0 km/h
699 03-08-2008 12:24:01 22.5 C 8.99 g/m*3 22.5 C 0 km/h
700 03-08-2008 12:36:02 23 C 8.84 g/m*3 23 C 0 km/h
Sensor: Nr:Datum:Temp:Abs-Feuchte:Windchill:Wind:
Aussen-T/F 701 03-08-2008 12:48:02 23.1 C 9.1 g/m*3 23.1 C 0 km/h
702 03-08-2008 13:00:02 23.4 C 9.04 g/m*3 23.4 C 0 km/h
703 03-08-2008 13:12:01 23.3 C 9.62 g/m*3 23.3 C 0 km/h
704 03-08-2008 13:24:02 23.2 C 9.15 g/m*3 23.2 C 0 km/h
705 03-08-2008 13:36:02 24.6 C 9.23 g/m*3 24.6 C 0 km/h
706 03-08-2008 13:48:02 26.7 C 8.86 g/m*3 26.7 C 0 km/h
707 03-08-2008 14:00:02 26.5 C 9.01 g/m*3 26.5 C 0 km/h
708 03-08-2008 14:12:02 26.7 C 8.86 g/m*3 26.7 C 0 km/h
709 03-08-2008 14:24:01 26.2 C 9.11 g/m*3 26.2 C 0 km/h
710 03-08-2008 14:36:02 27.2 C 9.11 g/m*3 27.2 C 0 km/h
711 03-08-2008 14:48:02 27.1 C 8.8 g/m*3 27.1 C 0 km/h
712 03-08-2008 15:00:03 27.4 C 8.95 g/m*3 27.4 C 0 km/h
713 03-08-2008 15:12:02 27.6 C 8.78 g/m*3 27.6 C 0 km/h
714 03-08-2008 15:24:03 26.9 C 8.7 g/m*3 26.9 C 0 km/h
715 03-08-2008 15:36:03 27 C 9.01 g/m*3 27 C 0 km/h
716 03-08-2008 15:48:02 27.3 C 9.16 g/m*3 27.3 C 0 km/h
717 03-08-2008 16:00:02 27.7 C 9.36 g/m*3 27.7 C 0 km/h
718 03-08-2008 16:12:02 27.9 C 9.2 g/m*3 27.9 C 0 km/h
719 03-08-2008 16:24:02 28 C 8.97 g/m*3 28 C 0 km/h
720 03-08-2008 16:36:01 27.2 C 9.11 g/m*3 27.2 C 0 km/h
721 03-08-2008 16:48:02 27.2 C 9.11 g/m*3 27.2 C 0 km/h
722 03-08-2008 17:00:02 28 C 8.97 g/m*3 28 C 0 km/h
723 03-08-2008 17:12:03 28 C 8.7 g/m*3 28 C 0 km/h
724 03-08-2008 17:48:02 28.4 C 8.62 g/m*3 28.4 C 0 km/h
725 03-08-2008 18:00:02 28.4 C 8.9 g/m*3 28.4 C 0 km/h
Sensor: Nr:Datum:Temp:Abs-Feuchte:Windchill:Wind:
Aussen-T/F 726 03-08-2008 18:12:03 28.8 C 8.81 g/m*3 28.8 C 0 km/h
727 03-08-2008 18:24:03 27.5 C 8.73 g/m*3 27.5 C 0 km/h
728 03-08-2008 18:36:02 27.2 C 8.85 g/m*3 27.2 C 0 km/h
729 03-08-2008 18:48:02 27.3 C 9.16 g/m*3 27.3 C 0 km/h
730 03-08-2008 19:00:02 27.1 C 9.06 g/m*3 27.1 C 0 km/h
731 03-08-2008 19:12:02 27.3 C 9.16 g/m*3 27.3 C 0 km/h
732 03-08-2008 19:24:02 26.6 C 9.31 g/m*3 26.6 C 0 km/h
733 03-08-2008 19:36:02 26.1 C 9.3 g/m*3 26.1 C 0 km/h
734 03-08-2008 19:48:02 25.8 C 9.63 g/m*3 25.8 C 0 km/h
735 03-08-2008 20:00:03 25.7 C 9.58 g/m*3 25.7 C 0 km/h
736 03-08-2008 20:12:02 25.3 C 9.83 g/m*3 25.3 C 0 km/h
737 03-08-2008 20:24:02 25 C 9.67 g/m*3 25 C 0 km/h
738 03-08-2008 20:36:02 24.8 C 10.02 g/m*3 24.8 C 0 km/h
739 03-08-2008 20:48:02 24.7 C 10.19 g/m*3 24.7 C 0 km/h
740 03-08-2008 21:00:02 24.5 C 10.3 g/m*3 24.5 C 0 km/h
741 03-08-2008 21:12:02 24.3 C 10.4 g/m*3 24.3 C 0 km/h
742 03-08-2008 21:24:02 24.1 C 10.94 g/m*3 24.1 C 0 km/h
743 03-08-2008 21:36:03 23.6 C 11.27 g/m*3 23.6 C 0 km/h
744 03-08-2008 21:48:02 22.6 C 12.46 g/m*3 22.6 C 0 km/h
745 03-08-2008 22:00:02 22.7 C 12.32 g/m*3 22.7 C 0 km/h
746 03-08-2008 22:12:03 22.9 C 12.06 g/m*3 22.9 C 0 km/h
747 03-08-2008 22:24:02 22.7 C 11.92 g/m*3 22.7 C 0 km/h
748 03-08-2008 22:37:04 22.6 C 11.85 g/m*3 22.6 C 0 km/h
749 03-08-2008 22:49:04 22.5 C 11.98 g/m*3 22.5 C 0 km/h
750 03-08-2008 23:01:05 22.2 C 11.98 g/m*3 22.2 C 0 km/h
Sensor: Nr:Datum:Temp:Abs-Feuchte:Windchill:Wind:
Aussen-T/F 751 03-08-2008 23:13:05 22.1 C 11.91 g/m*3 22.1 C 0 km/h
752 03-08-2008 23:25:05 22 C 12.23 g/m*3 22 C 0 km/h
753 03-08-2008 23:37:05 21.8 C 12.28 g/m*3 21.8 C 0 km/h
754 03-08-2008 23:49:05 21.9 C 12.35 g/m*3 21.9 C 0 km/h
755 04-08-2008 00:01:05 21.8 C 12.28 g/m*3 21.8 C 0 km/h
756 04-08-2008 00:13:05 21.8 C 12.28 g/m*3 21.8 C 0 km/h
757 04-08-2008 00:25:05 21.6 C 12.33 g/m*3 21.6 C 0 km/h
758 04-08-2008 00:37:05 21.3 C 12.3 g/m*3 21.3 C 0 km/h
759 04-08-2008 00:49:05 21.3 C 12.3 g/m*3 21.3 C 0 km/h
760 04-08-2008 01:01:05 21.6 C 12.14 g/m*3 21.6 C 0 km/h
761 04-08-2008 01:13:05 21.8 C 11.9 g/m*3 21.8 C 0 km/h
762 04-08-2008 01:25:05 22.1 C 11.91 g/m*3 22.1 C 0 km/h
763 04-08-2008 01:37:05 22.6 C 11.85 g/m*3 22.6 C 0 km/h
764 04-08-2008 01:49:05 22.9 C 11.65 g/m*3 22.9 C 0 km/h
765 04-08-2008 02:01:05 23.1 C 11.37 g/m*3 23.1 C 0 km/h
766 04-08-2008 02:13:05 23.3 C 11.29 g/m*3 23.3 C 0 km/h
767 04-08-2008 02:25:05 23.4 C 11.14 g/m*3 23.4 C 0 km/h
768 04-08-2008 02:37:05 23.5 C 11.21 g/m*3 23.5 C 0 km/h
769 04-08-2008 02:49:06 23.4 C 11.14 g/m*3 23.4 C 0 km/h
770 04-08-2008 03:01:06 23.3 C 11.29 g/m*3 23.3 C 0 km/h
771 04-08-2008 03:13:06 23.2 C 11.23 g/m*3 23.2 C 0 km/h
772 04-08-2008 03:25:06 23 C 11.3 g/m*3 23 C 0 km/h
773 04-08-2008 03:37:06 22.9 C 11.44 g/m*3 22.9 C 0 km/h
774 04-08-2008 03:49:06 21.5 C 12.63 g/m*3 21.5 C 0 km/h
775 04-08-2008 04:01:06 19.8 C 13.84 g/m*3 19.8 C 0 km/h
Sensor: Nr:Datum:Temp:Abs-Feuchte:Windchill:Wind:
Aussen-T/F 776 04-08-2008 04:13:06 19.5 C 14.1 g/m*3 19.5 C 0 km/h
777 04-08-2008 04:25:06 19.4 C 14.18 g/m*3 19.4 C 0 km/h
778 04-08-2008 04:37:06 19.1 C 13.93 g/m*3 19.1 C 0 km/h
779 04-08-2008 04:49:06 19.2 C 13.36 g/m*3 19.2 C 0 km/h
780 04-08-2008 05:01:06 18.9 C 13.28 g/m*3 18.9 C 0 km/h
781 04-08-2008 05:13:06 18.8 C 13.53 g/m*3 18.8 C 0 km/h
782 04-08-2008 05:25:06 18.4 C 13.21 g/m*3 18.4 C 0 km/h
783 04-08-2008 05:37:06 17.9 C 12.83 g/m*3 17.9 C 0 km/h
784 04-08-2008 05:49:06 17.7 C 12.82 g/m*3 17.7 C 0 km/h
785 04-08-2008 06:01:06 17.6 C 12.9 g/m*3 17.6 C 0 km/h
786 04-08-2008 06:13:06 17.5 C 12.97 g/m*3 17.5 C 0 km/h
787 04-08-2008 06:25:06 17.2 C 12.89 g/m*3 17.2 C 0 km/h
788 04-08-2008 06:37:06 16.9 C 12.8 g/m*3 16.9 C 0 km/h
789 04-08-2008 06:49:06 16.8 C 12.72 g/m*3 16.8 C 0 km/h
790 04-08-2008 07:01:07 16.6 C 12.71 g/m*3 16.6 C 0 km/h
791 04-08-2008 07:13:07 16.3 C 12.49 g/m*3 16.3 C 0 km/h
792 04-08-2008 07:25:07 16.4 C 12.56 g/m*3 16.4 C 0 km/h
793 04-08-2008 07:37:07 16.5 C 12.64 g/m*3 16.5 C 0 km/h
794 04-08-2008 07:49:07 16.5 C 12.64 g/m*3 16.5 C 0 km/h
795 04-08-2008 08:01:07 17 C 12.73 g/m*3 17 C 0 km/h
796 04-08-2008 08:13:07 17.2 C 12.59 g/m*3 17.2 C 0 km/h
797 04-08-2008 08:25:07 17.4 C 12.6 g/m*3 17.4 C 0 km/h
798 04-08-2008 08:37:07 17.9 C 12.98 g/m*3 17.9 C 0 km/h
799 04-08-2008 08:49:07 18.1 C 12.98 g/m*3 18.1 C 0 km/h
800 04-08-2008 09:01:07 18 C 12.75 g/m*3 18 C 0 km/h
Sensor: Nr:Datum:Temp:Abs-Feuchte:Windchill:Wind:
Aussen-T/F 801 04-08-2008 09:13:07 17.9 C 12.67 g/m*3 17.9 C 0 km/h
802 04-08-2008 09:25:04 18.1 C 12.36 g/m*3 18.1 C 0 km/h
803 04-08-2008 09:37:04 18.6 C 12.73 g/m*3 18.6 C 0 km/h
804 04-08-2008 09:49:02 19.1 C 12.62 g/m*3 19.1 C 0 km/h
805 04-08-2008 10:01:02 19.1 C 11.8 g/m*3 19.1 C 0 km/h
806 04-08-2008 10:13:02 19 C 11.41 g/m*3 19 C 0 km/h
807 04-08-2008 10:25:01 19.4 C 11.85 g/m*3 19.4 C 0 km/h
808 04-08-2008 10:37:02 19.9 C 11.34 g/m*3 19.9 C 0 km/h
809 04-08-2008 10:49:02 20.4 C 10.08 g/m*3 20.4 C 0 km/h
810 04-08-2008 11:01:03 20.7 C 9.9 g/m*3 20.7 C 0 km/h
811 04-08-2008 11:13:03 20.8 C 9.42 g/m*3 20.8 C 0 km/h
812 04-08-2008 11:25:02 21.4 C 9.19 g/m*3 21.4 C 0 km/h
813 04-08-2008 11:37:02 21.8 C 9.4 g/m*3 21.8 C 0 km/h
814 04-08-2008 11:49:02 22 C 8.73 g/m*3 22 C 0 km/h
815 04-08-2008 12:01:02 22.6 C 8.84 g/m*3 22.6 C 0 km/h
816 04-08-2008 12:13:02 22.9 C 8.38 g/m*3 22.9 C 0 km/h
817 04-08-2008 12:25:02 23.7 C 7.91 g/m*3 23.7 C 0 km/h
818 04-08-2008 12:37:02 23.1 C 7.65 g/m*3 23.1 C 0 km/h
819 04-08-2008 12:49:02 23.4 C 7.57 g/m*3 23.4 C 0 km/h
820 04-08-2008 13:01:02 24.4 C 7.12 g/m*3 24.4 C 0 km/h
821 04-08-2008 13:13:02 24 C 6.74 g/m*3 24 C 0 km/h
822 04-08-2008 13:25:02 24 C 6.53 g/m*3 24 C 0 km/h
823 04-08-2008 13:37:02 24.5 C 6.94 g/m*3 24.5 C 0 km/h
824 04-08-2008 13:49:03 24.8 C 6.37 g/m*3 24.8 C 0 km/h
825 04-08-2008 14:01:03 25.7 C 6.46 g/m*3 25.7 C 0 km/h
Sensor: Nr:Datum:Temp:Abs-Feuchte:Windchill:Wind:
Aussen-T/F 826 04-08-2008 14:13:03 25.4 C 7.06 g/m*3 25.4 C 0 km/h
827 04-08-2008 14:25:03 24.8 C 7.97 g/m*3 24.8 C 0 km/h
828 04-08-2008 14:37:02 24.4 C 8.23 g/m*3 24.4 C 0 km/h
829 04-08-2008 14:49:02 25.3 C 7.26 g/m*3 25.3 C 0 km/h
830 04-08-2008 15:01:01 25.2 C 6.52 g/m*3 25.2 C 0 km/h
831 04-08-2008 15:13:01 24.7 C 6.34 g/m*3 24.7 C 0 km/h
832 04-08-2008 15:25:02 25.1 C 6.48 g/m*3 25.1 C 0 km/h
833 04-08-2008 15:37:01 25.9 C 6.29 g/m*3 25.9 C 0 km/h
834 04-08-2008 15:49:02 27.1 C 5.69 g/m*3 27.1 C 0 km/h
835 04-08-2008 16:01:02 26.2 C 5.66 g/m*3 26.2 C 0 km/h
836 04-08-2008 16:13:02 26.9 C 5.63 g/m*3 26.9 C 0 km/h
837 04-08-2008 16:25:02 26.8 C 5.6 g/m*3 26.8 C 0 km/h
838 04-08-2008 16:37:02 25.8 C 5.3 g/m*3 25.8 C 0 km/h
839 04-08-2008 16:49:03 26.3 C 6.19 g/m*3 26.3 C 0 km/h
840 04-08-2008 17:01:02 27.2 C 5.99 g/m*3 27.2 C 0 km/h
841 04-08-2008 17:13:02 26.3 C 6.19 g/m*3 26.3 C 0 km/h
842 04-08-2008 17:25:03 26.7 C 5.57 g/m*3 26.7 C 0 km/h
843 04-08-2008 17:37:02 26.2 C 5.42 g/m*3 26.2 C 0 km/h
844 04-08-2008 17:49:02 26.3 C 5.2 g/m*3 26.3 C 0 km/h
845 04-08-2008 18:01:02 26.5 C 5.51 g/m*3 26.5 C 0 km/h
846 04-08-2008 18:13:02 26.6 C 5.54 g/m*3 26.6 C 0 km/h
847 04-08-2008 18:25:02 25.9 C 5.57 g/m*3 25.9 C 0 km/h
848 04-08-2008 18:37:02 26.1 C 5.63 g/m*3 26.1 C 0 km/h
849 04-08-2008 18:49:01 25.7 C 5.99 g/m*3 25.7 C 0 km/h
850 04-08-2008 19:01:02 26 C 5.6 g/m*3 26 C 0 km/h
Sensor: Nr:Datum:Temp:Abs-Feuchte:Windchill:Wind:
Aussen-T/F 851 04-08-2008 19:13:02 25.9 C 6.29 g/m*3 25.9 C 0 km/h
852 04-08-2008 19:25:01 26.1 C 6.12 g/m*3 26.1 C 0 km/h
853 04-08-2008 19:37:02 26.1 C 5.88 g/m*3 26.1 C 0 km/h
854 04-08-2008 19:49:02 25.4 C 5.89 g/m*3 25.4 C 0 km/h
855 04-08-2008 20:01:02 24.5 C 5.82 g/m*3 24.5 C 0 km/h
856 04-08-2008 20:13:02 23.9 C 6.06 g/m*3 23.9 C 0 km/h
857 04-08-2008 20:25:02 23.4 C 6.1 g/m*3 23.4 C 0 km/h
858 04-08-2008 20:37:02 23.1 C 6.41 g/m*3 23.1 C 0 km/h
859 04-08-2008 20:49:02 22.5 C 6.99 g/m*3 22.5 C 0 km/h
860 04-08-2008 21:01:01 21.8 C 6.91 g/m*3 21.8 C 0 km/h
861 04-08-2008 21:13:01 21.5 C 7.17 g/m*3 21.5 C 0 km/h
862 04-08-2008 21:25:02 21 C 7.14 g/m*3 21 C 0 km/h
863 04-08-2008 21:37:01 20.6 C 7.16 g/m*3 20.6 C 0 km/h
864 04-08-2008 21:49:03 20.4 C 7.25 g/m*3 20.4 C 0 km/h
865 04-08-2008 22:01:02 20.3 C 7.39 g/m*3 20.3 C 0 km/h
866 04-08-2008 22:13:02 19.9 C 7.56 g/m*3 19.9 C 0 km/h
867 04-08-2008 22:25:03 19.5 C 7.55 g/m*3 19.5 C 0 km/h
868 04-08-2008 22:38:13 19.3 C 7.8 g/m*3 19.3 C 0 km/h
869 04-08-2008 22:50:13 19.2 C 7.75 g/m*3 19.2 C 0 km/h
870 04-08-2008 23:02:13 19.2 C 7.91 g/m*3 19.2 C 0 km/h
871 04-08-2008 23:14:13 19.3 C 7.8 g/m*3 19.3 C 0 km/h
872 04-08-2008 23:26:13 19.1 C 8.03 g/m*3 19.1 C 0 km/h
873 04-08-2008 23:38:13 18.9 C 8.1 g/m*3 18.9 C 0 km/h
874 04-08-2008 23:50:13 18.5 C 8.23 g/m*3 18.5 C 0 km/h
875 05-08-2008 00:02:13 18.4 C 8.18 g/m*3 18.4 C 0 km/h
Sensor: Nr:Datum:Temp:Abs-Feuchte:Windchill:Wind:
Aussen-T/F 876 05-08-2008 00:14:14 18.2 C 8.24 g/m*3 18.2 C 0 km/h
877 05-08-2008 00:26:14 18.1 C 8.34 g/m*3 18.1 C 0 km/h
878 05-08-2008 00:38:14 17.7 C 8.75 g/m*3 17.7 C 0 km/h
879 05-08-2008 00:50:14 17.4 C 8.6 g/m*3 17.4 C 0 km/h
880 05-08-2008 01:02:14 17.2 C 8.64 g/m*3 17.2 C 0 km/h
881 05-08-2008 01:14:14 16.8 C 8.86 g/m*3 16.8 C 0 km/h
882 05-08-2008 01:26:14 16.6 C 8.76 g/m*3 16.6 C 0 km/h
883 05-08-2008 01:38:14 16.4 C 8.93 g/m*3 16.4 C 0 km/h
884 05-08-2008 01:50:14 16.2 C 8.96 g/m*3 16.2 C 0 km/h
885 05-08-2008 02:02:14 16 C 8.99 g/m*3 16 C 0 km/h
886 05-08-2008 02:14:14 15.8 C 9.02 g/m*3 15.8 C 0 km/h
887 05-08-2008 02:26:14 15.6 C 8.91 g/m*3 15.6 C 0 km/h
888 05-08-2008 02:38:14 15.5 C 9.12 g/m*3 15.5 C 0 km/h
889 05-08-2008 02:50:14 15.4 C 8.8 g/m*3 15.4 C 0 km/h
890 05-08-2008 03:02:14 15.2 C 8.44 g/m*3 15.2 C 0 km/h
891 05-08-2008 03:14:14 15.3 C 8.62 g/m*3 15.3 C 0 km/h
892 05-08-2008 03:26:14 15.1 C 8.39 g/m*3 15.1 C 0 km/h
893 05-08-2008 03:38:14 15 C 8.59 g/m*3 15 C 0 km/h
894 05-08-2008 03:50:14 14.8 C 8.74 g/m*3 14.8 C 0 km/h
895 05-08-2008 04:02:14 14.7 C 8.56 g/m*3 14.7 C 0 km/h
896 05-08-2008 04:14:14 14.7 C 8.18 g/m*3 14.7 C 0 km/h
897 05-08-2008 04:26:15 14.5 C 8.58 g/m*3 14.5 C 0 km/h
898 05-08-2008 04:38:15 14.2 C 8.55 g/m*3 14.2 C 0 km/h
899 05-08-2008 04:50:15 14.2 C 8.43 g/m*3 14.2 C 0 km/h
900 05-08-2008 05:02:15 14.1 C 8.25 g/m*3 14.1 C 0 km/h
Sensor: Nr:Datum:Temp:Abs-Feuchte:Windchill:Wind:
Aussen-T/F 901 05-08-2008 05:14:15 14 C 8.32 g/m*3 14 C 0 km/h
902 05-08-2008 05:26:15 13.9 C 8.63 g/m*3 13.9 C 0 km/h
903 05-08-2008 05:38:15 13.7 C 8.64 g/m*3 13.7 C 0 km/h
904 05-08-2008 05:50:15 13.5 C 8.54 g/m*3 13.5 C 0 km/h
905 05-08-2008 06:02:15 13.5 C 8.54 g/m*3 13.5 C 0 km/h
906 05-08-2008 06:14:15 13.4 C 8.6 g/m*3 13.4 C 0 km/h
907 05-08-2008 06:26:15 13.4 C 8.6 g/m*3 13.4 C 0 km/h
908 05-08-2008 06:38:15 13.4 C 8.6 g/m*3 13.4 C 0 km/h
909 05-08-2008 06:50:15 13.5 C 8.66 g/m*3 13.5 C 0 km/h
910 05-08-2008 07:02:15 13.6 C 8.71 g/m*3 13.6 C 0 km/h
911 05-08-2008 07:14:15 13.7 C 8.76 g/m*3 13.7 C 0 km/h
912 05-08-2008 07:26:15 13.9 C 8.75 g/m*3 13.9 C 0 km/h
913 05-08-2008 07:38:15 14.2 C 8.67 g/m*3 14.2 C 0 km/h
914 05-08-2008 07:50:15 14.4 C 8.53 g/m*3 14.4 C 0 km/h
915 05-08-2008 08:02:15 14.6 C 8.63 g/m*3 14.6 C 0 km/h
916 05-08-2008 08:14:15 14.8 C 8.61 g/m*3 14.8 C 0 km/h
917 05-08-2008 08:26:15 15 C 8.46 g/m*3 15 C 0 km/h
918 05-08-2008 08:38:03 15.4 C 8.54 g/m*3 15.4 C 0 km/h
919 05-08-2008 08:50:03 15.6 C 8.38 g/m*3 15.6 C 0 km/h
920 05-08-2008 09:02:03 15.7 C 8.56 g/m*3 15.7 C 0 km/h
921 05-08-2008 09:14:03 16.1 C 8.5 g/m*3 16.1 C 0 km/h
922 05-08-2008 09:26:02 16.4 C 8.51 g/m*3 16.4 C 0 km/h
923 05-08-2008 09:38:02 16.8 C 8.58 g/m*3 16.8 C 0 km/h
924 05-08-2008 09:50:02 17.2 C 8.49 g/m*3 17.2 C 0 km/h
925 05-08-2008 10:02:03 17.9 C 8.7 g/m*3 17.9 C 0 km/h
Sensor: Nr:Datum:Temp:Abs-Feuchte:Windchill:Wind:
Aussen-T/F 926 05-08-2008 10:14:03 18 C 8.45 g/m*3 18 C 0 km/h
927 05-08-2008 10:26:02 18.4 C 8.49 g/m*3 18.4 C 0 km/h
928 05-08-2008 10:38:03 19.1 C 8.52 g/m*3 19.1 C 0 km/h
929 05-08-2008 10:50:03 19.8 C 8.37 g/m*3 19.8 C 0 km/h
930 05-08-2008 11:02:02 20.1 C 8.17 g/m*3 20.1 C 0 km/h
931 05-08-2008 11:14:03 20.5 C 8.19 g/m*3 20.5 C 0 km/h
932 05-08-2008 11:26:02 21.1 C 8.29 g/m*3 21.1 C 0 km/h
933 05-08-2008 11:38:03 22.7 C 7.88 g/m*3 22.7 C 0 km/h
934 05-08-2008 11:50:02 22.2 C 8.05 g/m*3 22.2 C 0 km/h
935 05-08-2008 12:02:02 22.7 C 8.28 g/m*3 22.7 C 0 km/h
936 05-08-2008 12:14:02 23.8 C 7.96 g/m*3 23.8 C 0 km/h
937 05-08-2008 12:26:02 24 C 7.83 g/m*3 24 C 0 km/h
938 05-08-2008 12:38:02 24.5 C 7.83 g/m*3 24.5 C 0 km/h
939 05-08-2008 12:50:01 24.3 C 7.52 g/m*3 24.3 C 0 km/h
940 05-08-2008 13:02:03 24.8 C 7.28 g/m*3 24.8 C 0 km/h
941 05-08-2008 13:14:03 24.6 C 7.2 g/m*3 24.6 C 0 km/h
942 05-08-2008 13:26:02 24.4 C 7.34 g/m*3 24.4 C 0 km/h
943 05-08-2008 13:38:02 25 C 7.37 g/m*3 25 C 0 km/h
944 05-08-2008 13:50:01 25.2 C 7.45 g/m*3 25.2 C 0 km/h
945 05-08-2008 14:02:02 25.9 C 7.51 g/m*3 25.9 C 0 km/h
946 05-08-2008 14:14:02 26.5 C 7.01 g/m*3 26.5 C 0 km/h
947 05-08-2008 14:26:02 26.9 C 6.65 g/m*3 26.9 C 0 km/h
948 05-08-2008 14:38:02 26.8 C 6.87 g/m*3 26.8 C 0 km/h
949 05-08-2008 14:50:01 27.5 C 6.61 g/m*3 27.5 C 0 km/h
950 05-08-2008 15:02:02 26.9 C 6.65 g/m*3 26.9 C 0 km/h
Sensor: Nr:Datum:Temp:Abs-Feuchte:Windchill:Wind:
Aussen-T/F 951 05-08-2008 15:14:02 26.7 C 6.58 g/m*3 26.7 C 0 km/h
952 05-08-2008 15:26:02 26.2 C 7.14 g/m*3 26.2 C 0 km/h
953 05-08-2008 15:38:01 25.8 C 7.22 g/m*3 25.8 C 0 km/h
954 05-08-2008 15:50:01 26.3 C 7.18 g/m*3 26.3 C 0 km/h
955 05-08-2008 16:02:02 26.6 C 7.05 g/m*3 26.6 C 0 km/h
956 05-08-2008 16:14:02 26.6 C 7.3 g/m*3 26.6 C 0 km/h
957 05-08-2008 16:26:01 27.6 C 7.18 g/m*3 27.6 C 0 km/h
958 05-08-2008 16:38:02 28.5 C 6.99 g/m*3 28.5 C 0 km/h
959 05-08-2008 16:50:02 28.6 C 7.03 g/m*3 28.6 C 0 km/h
960 05-08-2008 17:02:02 29.1 C 6.35 g/m*3 29.1 C 0 km/h
961 05-08-2008 17:14:02 29.6 C 6.53 g/m*3 29.6 C 0 km/h
962 05-08-2008 17:26:02 27.9 C 6.76 g/m*3 27.9 C 0 km/h
963 05-08-2008 17:38:02 27.2 C 6.77 g/m*3 27.2 C 0 km/h
964 05-08-2008 17:50:02 28.3 C 6.91 g/m*3 28.3 C 0 km/h
965 05-08-2008 18:02:02 28.8 C 6.53 g/m*3 28.8 C 0 km/h
966 05-08-2008 18:14:02 27.1 C 6.47 g/m*3 27.1 C 0 km/h
967 05-08-2008 18:26:02 26.7 C 7.59 g/m*3 26.7 C 0 km/h
968 05-08-2008 18:38:02 26.6 C 8.05 g/m*3 26.6 C 0 km/h
969 05-08-2008 18:50:02 26.2 C 7.88 g/m*3 26.2 C 0 km/h
970 05-08-2008 19:02:01 25.8 C 7.7 g/m*3 25.8 C 0 km/h
971 05-08-2008 19:14:01 25.9 C 7.99 g/m*3 25.9 C 0 km/h
972 05-08-2008 19:26:02 25.6 C 8.09 g/m*3 25.6 C 0 km/h
973 05-08-2008 19:38:01 25.1 C 8.33 g/m*3 25.1 C 0 km/h
974 05-08-2008 19:50:01 24.7 C 8.37 g/m*3 24.7 C 0 km/h
975 05-08-2008 20:02:02 24.7 C 8.37 g/m*3 24.7 C 0 km/h
Sensor: Nr:Datum:Temp:Abs-Feuchte:Windchill:Wind:
Aussen-T/F 976 05-08-2008 20:14:02 24.1 C 8.1 g/m*3 24.1 C 0 km/h
977 05-08-2008 20:26:02 23.5 C 8.25 g/m*3 23.5 C 0 km/h
978 05-08-2008 20:38:01 22.9 C 8.58 g/m*3 22.9 C 0 km/h
979 05-08-2008 20:50:02 22.4 C 8.34 g/m*3 22.4 C 0 km/h
980 05-08-2008 21:02:03 21.9 C 8.68 g/m*3 21.9 C 0 km/h
981 05-08-2008 21:14:03 21.5 C 8.67 g/m*3 21.5 C 0 km/h
982 05-08-2008 21:26:03 21.2 C 8.52 g/m*3 21.2 C 0 km/h
983 05-08-2008 21:38:02 21 C 8.43 g/m*3 21 C 0 km/h
984 05-08-2008 21:50:03 20.9 C 9.11 g/m*3 20.9 C 0 km/h
985 05-08-2008 22:02:02 21 C 8.98 g/m*3 21 C 0 km/h
986 05-08-2008 22:14:02 20.8 C 9.05 g/m*3 20.8 C 0 km/h
987 05-08-2008 22:26:03 20.6 C 9.13 g/m*3 20.6 C 0 km/h
988 05-08-2008 22:39:03 20.3 C 9.15 g/m*3 20.3 C 0 km/h
989 05-08-2008 22:51:03 20 C 8.81 g/m*3 20 C 0 km/h
990 05-08-2008 23:03:03 19.9 C 8.93 g/m*3 19.9 C 0 km/h
991 05-08-2008 23:15:03 19.5 C 8.89 g/m*3 19.5 C 0 km/h
992 05-08-2008 23:27:03 19.3 C 8.79 g/m*3 19.3 C 0 km/h
993 05-08-2008 23:39:03 19.2 C 9.07 g/m*3 19.2 C 0 km/h
994 05-08-2008 23:51:03 18.9 C 9.23 g/m*3 18.9 C 0 km/h
995 06-08-2008 00:03:04 18.9 C 9.23 g/m*3 18.9 C 0 km/h
996 06-08-2008 00:15:04 18.7 C 9.13 g/m*3 18.7 C 0 km/h
997 06-08-2008 00:27:04 18.7 C 9.29 g/m*3 18.7 C 0 km/h
998 06-08-2008 00:39:04 18.6 C 9.39 g/m*3 18.6 C 0 km/h
999 06-08-2008 00:51:04 18.4 C 9.28 g/m*3 18.4 C 0 km/h
1000 06-08-2008 01:03:04 18.3 C 9.22 g/m*3 18.3 C 0 km/h
Sensor: Nr:Datum:Temp:Abs-Feuchte:Windchill:Wind:
Aussen-T/F 1001 06-08-2008 01:15:04 18.1 C 9.43 g/m*3 18.1 C 0 km/h
1002 06-08-2008 01:27:04 17.9 C 9.47 g/m*3 17.9 C 0 km/h
1003 06-08-2008 01:39:04 17.9 C 9.62 g/m*3 17.9 C 0 km/h
1004 06-08-2008 01:51:04 17.7 C 9.66 g/m*3 17.7 C 0 km/h
1005 06-08-2008 02:03:04 17.6 C 9.6 g/m*3 17.6 C 0 km/h
1006 06-08-2008 02:15:04 17.5 C 9.54 g/m*3 17.5 C 0 km/h
1007 06-08-2008 02:27:04 17.4 C 9.48 g/m*3 17.4 C 0 km/h
1008 06-08-2008 02:39:04 17.5 C 9.69 g/m*3 17.5 C 0 km/h
1009 06-08-2008 02:51:04 17.6 C 9.6 g/m*3 17.6 C 0 km/h
1010 06-08-2008 03:03:04 17.4 C 9.63 g/m*3 17.4 C 0 km/h
1011 06-08-2008 03:15:04 17 C 9.41 g/m*3 17 C 0 km/h
1012 06-08-2008 03:27:04 16.8 C 9.72 g/m*3 16.8 C 0 km/h
1013 06-08-2008 03:39:04 16.7 C 9.81 g/m*3 16.7 C 0 km/h
1014 06-08-2008 03:51:05 16.6 C 9.75 g/m*3 16.6 C 0 km/h
1015 06-08-2008 04:03:05 16.6 C 9.75 g/m*3 16.6 C 0 km/h
1016 06-08-2008 04:15:05 16.6 C 9.75 g/m*3 16.6 C 0 km/h
1017 06-08-2008 04:27:05 16.4 C 9.77 g/m*3 16.4 C 0 km/h
1018 06-08-2008 04:39:05 16.2 C 9.79 g/m*3 16.2 C 0 km/h
1019 06-08-2008 04:51:05 16 C 9.81 g/m*3 16 C 0 km/h
1020 06-08-2008 05:03:05 15.9 C 9.89 g/m*3 15.9 C 0 km/h
1021 06-08-2008 05:15:05 15.7 C 9.77 g/m*3 15.7 C 0 km/h
1022 06-08-2008 05:27:05 15.6 C 9.84 g/m*3 15.6 C 0 km/h
1023 06-08-2008 05:39:05 15.4 C 9.72 g/m*3 15.4 C 0 km/h
1024 06-08-2008 05:51:05 15.3 C 9.79 g/m*3 15.3 C 0 km/h
1025 06-08-2008 06:03:05 15.2 C 9.73 g/m*3 15.2 C 0 km/h
Sensor: Nr:Datum:Temp:Abs-Feuchte:Windchill:Wind:
Aussen-T/F 1026 06-08-2008 06:15:05 15.2 C 9.99 g/m*3 15.2 C 0 km/h
1027 06-08-2008 06:27:05 15.1 C 9.93 g/m*3 15.1 C 0 km/h
1028 06-08-2008 06:39:05 14.9 C 9.94 g/m*3 14.9 C 0 km/h
1029 06-08-2008 06:51:02 14.9 C 9.94 g/m*3 14.9 C 0 km/h
1030 06-08-2008 07:03:01 15.2 C 10.12 g/m*3 15.2 C 0 km/h
1031 06-08-2008 07:15:02 15.3 C 10.19 g/m*3 15.3 C 0 km/h
1032 06-08-2008 07:27:02 15.5 C 10.31 g/m*3 15.5 C 0 km/h
1033 06-08-2008 07:39:01 15.6 C 10.24 g/m*3 15.6 C 0 km/h
1034 06-08-2008 07:51:02 15.8 C 10.36 g/m*3 15.8 C 0 km/h
1035 06-08-2008 08:03:01 15.9 C 10.29 g/m*3 15.9 C 0 km/h
1036 06-08-2008 08:15:02 16.2 C 10.34 g/m*3 16.2 C 0 km/h
1037 06-08-2008 08:27:02 16.4 C 10.33 g/m*3 16.4 C 0 km/h
1038 06-08-2008 08:39:01 16.6 C 10.45 g/m*3 16.6 C 0 km/h
1039 06-08-2008 08:51:01 16.9 C 10.36 g/m*3 16.9 C 0 km/h
1040 06-08-2008 09:03:01 17.3 C 10.16 g/m*3 17.3 C 0 km/h
1041 06-08-2008 09:15:02 17.8 C 10.47 g/m*3 17.8 C 0 km/h
1042 06-08-2008 09:27:02 18.3 C 10.32 g/m*3 18.3 C 0 km/h
1043 06-08-2008 09:39:01 18.9 C 10.69 g/m*3 18.9 C 0 km/h
1044 06-08-2008 09:51:01 19.3 C 10.62 g/m*3 19.3 C 0 km/h
1045 06-08-2008 10:03:01 20 C 10.54 g/m*3 20 C 0 km/h
1046 06-08-2008 10:15:01 20.9 C 10.56 g/m*3 20.9 C 0 km/h
1047 06-08-2008 10:27:01 21.7 C 10.11 g/m*3 21.7 C 0 km/h
1048 06-08-2008 10:39:01 22.2 C 10.01 g/m*3 22.2 C 0 km/h
1049 06-08-2008 10:51:01 23.2 C 9.98 g/m*3 23.2 C 0 km/h
1050 06-08-2008 11:03:02 23.7 C 10.27 g/m*3 23.7 C 0 km/h
Sensor: Nr:Datum:Temp:Abs-Feuchte:Windchill:Wind:
Aussen-T/F 1051 06-08-2008 11:15:01 24.3 C 9.52 g/m*3 24.3 C 0 km/h
1052 06-08-2008 11:27:01 25.1 C 9.26 g/m*3 25.1 C 0 km/h
1053 06-08-2008 11:39:02 25.8 C 9.39 g/m*3 25.8 C 0 km/h
1054 06-08-2008 11:51:02 26.1 C 9.06 g/m*3 26.1 C 0 km/h
1055 06-08-2008 12:03:02 26.9 C 9.47 g/m*3 26.9 C 0 km/h
1056 06-08-2008 12:15:01 27.1 C 8.8 g/m*3 27.1 C 0 km/h
1057 06-08-2008 12:27:01 27.6 C 9.04 g/m*3 27.6 C 0 km/h
1058 06-08-2008 12:39:02 28.1 C 8.75 g/m*3 28.1 C 0 km/h
1059 06-08-2008 12:51:02 27.8 C 8.61 g/m*3 27.8 C 0 km/h
1060 06-08-2008 13:03:02 28.9 C 8.86 g/m*3 28.9 C 0 km/h
1061 06-08-2008 13:15:02 30 C 8.19 g/m*3 30 C 0 km/h
1062 06-08-2008 13:27:02 30.6 C 8.14 g/m*3 30.6 C 0 km/h
1063 06-08-2008 13:39:02 30.6 C 7.83 g/m*3 30.6 C 0 km/h
1064 06-08-2008 13:51:02 30.9 C 7.96 g/m*3 30.9 C 0 km/h
1065 06-08-2008 14:03:01 31 C 8 g/m*3 31 C 0 km/h
1066 06-08-2008 14:15:02 31.1 C 8.04 g/m*3 31.1 C 0 km/h
1067 06-08-2008 14:27:02 30.7 C 8.5 g/m*3 30.7 C 0 km/h
1068 06-08-2008 14:39:02 31.3 C 7.81 g/m*3 31.3 C 0 km/h
1069 06-08-2008 14:51:02 31.5 C 7.56 g/m*3 31.5 C 0 km/h
1070 06-08-2008 15:03:02 32.1 C 7.47 g/m*3 32.1 C 0 km/h
1071 06-08-2008 15:15:02 32.3 C 6.86 g/m*3 32.3 C 0 km/h
1072 06-08-2008 15:27:03 32 C 7.09 g/m*3 32 C 0 km/h
1073 06-08-2008 15:39:02 32.5 C 6.93 g/m*3 32.5 C 0 km/h
1074 06-08-2008 15:51:02 32.7 C 7.01 g/m*3 32.7 C 0 km/h
1075 06-08-2008 16:03:02 33 C 7.12 g/m*3 33 C 0 km/h
Sensor: Nr:Datum:Temp:Abs-Feuchte:Windchill:Wind:
Aussen-T/F 1076 06-08-2008 16:15:02 33.2 C 7.2 g/m*3 33.2 C 0 km/h
1077 06-08-2008 16:27:02 33.5 C 7.31 g/m*3 33.5 C 0 km/h
1078 06-08-2008 16:39:02 33.6 C 7.35 g/m*3 33.6 C 0 km/h
1079 06-08-2008 16:51:02 33.7 C 7.39 g/m*3 33.7 C 0 km/h
1080 06-08-2008 17:03:02 33.9 C 7.46 g/m*3 33.9 C 0 km/h
1081 06-08-2008 17:15:02 33.9 C 7.46 g/m*3 33.9 C 0 km/h
1082 06-08-2008 17:27:02 33.6 C 7.35 g/m*3 33.6 C 0 km/h
1083 06-08-2008 17:39:02 33.7 C 7.39 g/m*3 33.7 C 0 km/h
1084 06-08-2008 17:51:02 33.8 C 7.43 g/m*3 33.8 C 0 km/h
1085 06-08-2008 18:03:02 34 C 7.5 g/m*3 34 C 0 km/h
1086 06-08-2008 18:15:02 34.2 C 7.58 g/m*3 34.2 C 0 km/h
1087 06-08-2008 18:27:02 33.9 C 7.46 g/m*3 33.9 C 0 km/h
1088 06-08-2008 18:39:02 34 C 7.5 g/m*3 34 C 0 km/h
1089 06-08-2008 18:51:02 33.9 C 7.46 g/m*3 33.9 C 0 km/h
1090 06-08-2008 19:03:01 33.9 C 7.46 g/m*3 33.9 C 0 km/h
1091 06-08-2008 19:15:02 33.3 C 7.23 g/m*3 33.3 C 0 km/h
1092 06-08-2008 19:27:02 33.3 C 7.59 g/m*3 33.3 C 0 km/h
1093 06-08-2008 19:39:02 32.7 C 7.36 g/m*3 32.7 C 0 km/h
1094 06-08-2008 19:51:02 31.6 C 8.59 g/m*3 31.6 C 0 km/h
1095 06-08-2008 20:03:02 30.6 C 9.4 g/m*3 30.6 C 0 km/h
1096 06-08-2008 20:15:02 30.1 C 9.45 g/m*3 30.1 C 0 km/h
1097 06-08-2008 20:27:03 29.5 C 9.44 g/m*3 29.5 C 0 km/h
1098 06-08-2008 20:39:02 28.9 C 9.43 g/m*3 28.9 C 0 km/h
1099 06-08-2008 20:51:02 28.4 C 9.45 g/m*3 28.4 C 0 km/h
1100 06-08-2008 21:03:02 27.8 C 9.15 g/m*3 27.8 C 0 km/h
Sensor: Nr:Datum:Temp:Abs-Feuchte:Windchill:Wind:
Aussen-T/F 1101 06-08-2008 21:15:03 27.3 C 9.16 g/m*3 27.3 C 0 km/h
1102 06-08-2008 21:27:03 27 C 9.01 g/m*3 27 C 0 km/h
1103 06-08-2008 21:39:02 26.7 C 9.11 g/m*3 26.7 C 0 km/h
1104 06-08-2008 21:51:01 26.6 C 9.31 g/m*3 26.6 C 0 km/h
1105 06-08-2008 22:03:01 26.6 C 9.06 g/m*3 26.6 C 0 km/h
1106 06-08-2008 22:15:01 26.4 C 9.21 g/m*3 26.4 C 0 km/h
1107 06-08-2008 22:27:01 26 C 9.49 g/m*3 26 C 0 km/h
1108 06-08-2008 22:40:02 25.8 C 9.39 g/m*3 25.8 C 0 km/h
1109 06-08-2008 22:52:02 25.6 C 9.28 g/m*3 25.6 C 0 km/h
1110 06-08-2008 23:04:02 25.1 C 9.26 g/m*3 25.1 C 0 km/h
1111 06-08-2008 23:16:02 24.8 C 9.79 g/m*3 24.8 C 0 km/h
1112 06-08-2008 23:28:02 24.5 C 10.07 g/m*3 24.5 C 0 km/h
1113 06-08-2008 23:40:02 24.1 C 9.85 g/m*3 24.1 C 0 km/h
1114 06-08-2008 23:52:02 24 C 10.01 g/m*3 24 C 0 km/h
1115 07-08-2008 00:04:02 23.7 C 9.84 g/m*3 23.7 C 0 km/h
1116 07-08-2008 00:16:02 23.6 C 10.21 g/m*3 23.6 C 0 km/h
1117 07-08-2008 00:28:02 23.3 C 10.25 g/m*3 23.3 C 0 km/h
1118 07-08-2008 00:40:02 23 C 10.28 g/m*3 23 C 0 km/h
1119 07-08-2008 00:52:02 22.7 C 10.51 g/m*3 22.7 C 0 km/h
1120 07-08-2008 01:04:02 22.5 C 10.59 g/m*3 22.5 C 0 km/h
1121 07-08-2008 01:16:02 22.3 C 10.66 g/m*3 22.3 C 0 km/h
1122 07-08-2008 01:28:02 22.1 C 10.74 g/m*3 22.1 C 0 km/h
1123 07-08-2008 01:40:02 21.9 C 11 g/m*3 21.9 C 0 km/h
1124 07-08-2008 01:52:03 21.7 C 11.06 g/m*3 21.7 C 0 km/h
1125 07-08-2008 02:04:03 21.4 C 11.06 g/m*3 21.4 C 0 km/h
Sensor: Nr:Datum:Temp:Abs-Feuchte:Windchill:Wind:
Aussen-T/F 1126 07-08-2008 02:16:03 21.3 C 11 g/m*3 21.3 C 0 km/h
1127 07-08-2008 02:28:03 21.1 C 11.06 g/m*3 21.1 C 0 km/h
1128 07-08-2008 02:40:03 20.9 C 11.29 g/m*3 20.9 C 0 km/h
1129 07-08-2008 02:52:03 20.7 C 11.34 g/m*3 20.7 C 0 km/h
1130 07-08-2008 03:04:03 20.6 C 11.28 g/m*3 20.6 C 0 km/h
1131 07-08-2008 03:16:03 20.4 C 11.14 g/m*3 20.4 C 0 km/h
1132 07-08-2008 03:28:03 20.3 C 11.26 g/m*3 20.3 C 0 km/h
1133 07-08-2008 03:40:03 20.3 C 11.26 g/m*3 20.3 C 0 km/h
1134 07-08-2008 03:52:03 20.2 C 11.19 g/m*3 20.2 C 0 km/h
1135 07-08-2008 04:04:03 19.9 C 11.34 g/m*3 19.9 C 0 km/h
1136 07-08-2008 04:16:03 19.7 C 11.38 g/m*3 19.7 C 0 km/h
1137 07-08-2008 04:28:03 19.6 C 11.31 g/m*3 19.6 C 0 km/h
1138 07-08-2008 04:40:03 19.4 C 11.35 g/m*3 19.4 C 0 km/h
1139 07-08-2008 04:52:03 19.3 C 11.44 g/m*3 19.3 C 0 km/h
1140 07-08-2008 05:04:03 19.3 C 11.44 g/m*3 19.3 C 0 km/h
1141 07-08-2008 05:16:03 19.1 C 11.47 g/m*3 19.1 C 0 km/h
1142 07-08-2008 05:28:03 18.8 C 11.6 g/m*3 18.8 C 0 km/h
1143 07-08-2008 05:40:03 18.8 C 11.6 g/m*3 18.8 C 0 km/h
1144 07-08-2008 05:52:04 18.6 C 11.62 g/m*3 18.6 C 0 km/h
1145 07-08-2008 06:04:04 18.6 C 11.62 g/m*3 18.6 C 0 km/h
1146 07-08-2008 06:16:04 18.5 C 11.71 g/m*3 18.5 C 0 km/h
1147 07-08-2008 06:28:04 18.4 C 11.64 g/m*3 18.4 C 0 km/h
1148 07-08-2008 06:40:04 18.3 C 11.57 g/m*3 18.3 C 0 km/h
1149 07-08-2008 06:52:04 18.5 C 11.87 g/m*3 18.5 C 0 km/h
1150 07-08-2008 07:04:03 18.7 C 12.01 g/m*3 18.7 C 0 km/h
Sensor: Nr:Datum:Temp:Abs-Feuchte:Windchill:Wind:
Aussen-T/F 1151 07-08-2008 07:16:02 18.8 C 11.92 g/m*3 18.8 C 0 km/h
1152 07-08-2008 07:28:02 18.6 C 11.94 g/m*3 18.6 C 0 km/h
1153 07-08-2008 07:40:02 18.8 C 12.08 g/m*3 18.8 C 0 km/h
1154 07-08-2008 07:52:02 19.1 C 11.97 g/m*3 19.1 C 0 km/h
1155 07-08-2008 08:04:02 19.2 C 12.04 g/m*3 19.2 C 0 km/h
1156 07-08-2008 08:16:02 19.6 C 12.15 g/m*3 19.6 C 0 km/h
1157 07-08-2008 08:28:02 19.9 C 12.2 g/m*3 19.9 C 0 km/h
1158 07-08-2008 08:40:02 20.3 C 12.14 g/m*3 20.3 C 0 km/h
1159 07-08-2008 08:52:02 20.9 C 12.38 g/m*3 20.9 C 0 km/h
1160 07-08-2008 09:04:02 21.6 C 12.52 g/m*3 21.6 C 0 km/h
1161 07-08-2008 09:16:02 22.5 C 12.58 g/m*3 22.5 C 0 km/h
1162 07-08-2008 09:28:02 23 C 12.33 g/m*3 23 C 0 km/h
1163 07-08-2008 09:40:02 23.7 C 12.62 g/m*3 23.7 C 0 km/h
1164 07-08-2008 09:52:03 24.2 C 12.54 g/m*3 24.2 C 0 km/h
1165 07-08-2008 10:04:02 24.7 C 12.22 g/m*3 24.7 C 0 km/h
1166 07-08-2008 10:16:02 25.3 C 11.47 g/m*3 25.3 C 0 km/h
1167 07-08-2008 10:28:02 26.2 C 11.32 g/m*3 26.2 C 0 km/h
1168 07-08-2008 10:40:02 26.8 C 11.45 g/m*3 26.8 C 0 km/h
1169 07-08-2008 10:52:02 27.2 C 11.19 g/m*3 27.2 C 0 km/h
1170 07-08-2008 11:04:02 27.4 C 11.31 g/m*3 27.4 C 0 km/h
1171 07-08-2008 11:16:02 28 C 11.42 g/m*3 28 C 0 km/h
1172 07-08-2008 11:28:02 28.3 C 11.06 g/m*3 28.3 C 0 km/h
1173 07-08-2008 11:40:02 28.3 C 11.33 g/m*3 28.3 C 0 km/h
1174 07-08-2008 11:52:02 28.7 C 10.74 g/m*3 28.7 C 0 km/h
1175 07-08-2008 12:04:02 29.1 C 10.69 g/m*3 29.1 C 0 km/h
Sensor: Nr:Datum:Temp:Abs-Feuchte:Windchill:Wind:
Aussen-T/F 1176 07-08-2008 12:16:02 29.1 C 10.69 g/m*3 29.1 C 0 km/h
1177 07-08-2008 12:28:02 28.7 C 10.74 g/m*3 28.7 C 0 km/h
1178 07-08-2008 12:40:02 29.3 C 10.51 g/m*3 29.3 C 0 km/h
1179 07-08-2008 12:52:02 29.9 C 10.56 g/m*3 29.9 C 0 km/h
1180 07-08-2008 13:04:02 30.4 C 10.54 g/m*3 30.4 C 0 km/h
1181 07-08-2008 13:16:02 30.6 C 10.02 g/m*3 30.6 C 0 km/h
1182 07-08-2008 13:28:02 30.4 C 10.23 g/m*3 30.4 C 0 km/h
1183 07-08-2008 13:40:02 29.6 C 10.09 g/m*3 29.6 C 0 km/h
1184 07-08-2008 13:52:01 29.8 C 10.5 g/m*3 29.8 C 0 km/h
1185 07-08-2008 14:04:02 29.4 C 10.57 g/m*3 29.4 C 0 km/h
1186 07-08-2008 14:16:01 29.8 C 10.5 g/m*3 29.8 C 0 km/h
1187 07-08-2008 14:28:01 28.8 C 10.51 g/m*3 28.8 C 0 km/h
1188 07-08-2008 14:40:02 28.1 C 10.39 g/m*3 28.1 C 0 km/h
1189 07-08-2008 14:52:02 28.4 C 10.56 g/m*3 28.4 C 0 km/h
1190 07-08-2008 15:04:02 28 C 10.33 g/m*3 28 C 0 km/h
1191 07-08-2008 15:16:02 28.2 C 10.72 g/m*3 28.2 C 0 km/h
1192 07-08-2008 15:28:02 28.5 C 10.34 g/m*3 28.5 C 0 km/h
1193 07-08-2008 15:40:02 29.2 C 9.87 g/m*3 29.2 C 0 km/h
1194 07-08-2008 15:52:01 29.1 C 9.24 g/m*3 29.1 C 0 km/h
1195 07-08-2008 16:04:02 29.3 C 9.63 g/m*3 29.3 C 0 km/h
1196 07-08-2008 16:16:01 28.7 C 9.89 g/m*3 28.7 C 0 km/h
1197 07-08-2008 16:28:01 29.3 C 9.63 g/m*3 29.3 C 0 km/h
1198 07-08-2008 16:40:02 29.4 C 9.39 g/m*3 29.4 C 0 km/h
1199 07-08-2008 16:52:02 30.4 C 9.3 g/m*3 30.4 C 0 km/h
1200 07-08-2008 17:04:01 30.7 C 9.13 g/m*3 30.7 C 0 km/h
Sensor: Nr:Datum:Temp:Abs-Feuchte:Windchill:Wind:
Aussen-T/F 1201 07-08-2008 17:16:02 30.1 C 8.84 g/m*3 30.1 C 0 km/h
1202 07-08-2008 17:28:02 29.4 C 8.81 g/m*3 29.4 C 0 km/h
1203 07-08-2008 17:40:01 29.4 C 8.81 g/m*3 29.4 C 0 km/h
1204 07-08-2008 17:52:02 28.7 C 8.48 g/m*3 28.7 C 0 km/h
1205 07-08-2008 18:04:01 30.1 C 8.54 g/m*3 30.1 C 0 km/h
1206 07-08-2008 18:16:02 29.9 C 8.14 g/m*3 29.9 C 0 km/h
1207 07-08-2008 18:28:03 28.8 C 8.52 g/m*3 28.8 C 0 km/h
1208 07-08-2008 18:40:01 28.6 C 8.71 g/m*3 28.6 C 0 km/h
1209 07-08-2008 18:52:02 28.5 C 8.66 g/m*3 28.5 C 0 km/h
1210 07-08-2008 19:04:01 28.3 C 8.57 g/m*3 28.3 C 0 km/h
1211 07-08-2008 19:16:02 27.7 C 8.56 g/m*3 27.7 C 0 km/h
1212 07-08-2008 19:28:02 27.1 C 8.54 g/m*3 27.1 C 0 km/h
1213 07-08-2008 19:40:01 26.9 C 8.96 g/m*3 26.9 C 0 km/h
1214 07-08-2008 19:52:02 26.6 C 9.06 g/m*3 26.6 C 0 km/h
1215 07-08-2008 20:04:02 26.7 C 9.11 g/m*3 26.7 C 0 km/h
1216 07-08-2008 20:16:02 27.2 C 8.85 g/m*3 27.2 C 0 km/h
1217 07-08-2008 20:28:02 26.1 C 8.81 g/m*3 26.1 C 0 km/h
1218 07-08-2008 20:40:02 25.4 C 8.71 g/m*3 25.4 C 0 km/h
1219 07-08-2008 20:52:02 24.8 C 8.42 g/m*3 24.8 C 0 km/h
1220 07-08-2008 21:04:02 24.6 C 8.33 g/m*3 24.6 C 0 km/h
1221 07-08-2008 21:16:02 24.3 C 8.41 g/m*3 24.3 C 0 km/h
1222 07-08-2008 21:28:02 24 C 8.49 g/m*3 24 C 0 km/h
1223 07-08-2008 21:40:02 23.7 C 8.77 g/m*3 23.7 C 0 km/h
1224 07-08-2008 21:52:02 23.4 C 8.83 g/m*3 23.4 C 0 km/h
1225 07-08-2008 22:04:02 23.3 C 8.78 g/m*3 23.3 C 0 km/h
Sensor: Nr:Datum:Temp:Abs-Feuchte:Windchill:Wind:
Aussen-T/F 1226 07-08-2008 22:17:02 23.3 C 8.57 g/m*3 23.3 C 0 km/h
1227 07-08-2008 22:29:02 23.1 C 8.27 g/m*3 23.1 C 0 km/h
1228 07-08-2008 22:41:02 23 C 8.43 g/m*3 23 C 0 km/h
1229 07-08-2008 22:53:02 20.4 C 10.79 g/m*3 20.4 C 0 km/h
1230 07-08-2008 23:05:02 19.2 C 12.7 g/m*3 19.2 C 0 km/h
1231 07-08-2008 23:17:02 18.5 C 12.82 g/m*3 18.5 C 0 km/h
1232 07-08-2008 23:29:01 17.9 C 12.67 g/m*3 17.9 C 0 km/h
1233 07-08-2008 23:41:01 17.8 C 12.9 g/m*3 17.8 C 0 km/h
1234 07-08-2008 23:53:02 17.9 C 12.98 g/m*3 17.9 C 0 km/h
1235 08-08-2008 00:05:02 18.2 C 13.06 g/m*3 18.2 C 0 km/h
1236 08-08-2008 00:17:02 18.2 C 12.9 g/m*3 18.2 C 0 km/h
1237 08-08-2008 00:29:02 17.9 C 12.67 g/m*3 17.9 C 0 km/h
1238 08-08-2008 00:41:02 17.8 C 12.6 g/m*3 17.8 C 0 km/h
1239 08-08-2008 00:53:03 17.7 C 12.52 g/m*3 17.7 C 0 km/h
1240 08-08-2008 01:05:03 17.6 C 12.45 g/m*3 17.6 C 0 km/h
1241 08-08-2008 01:17:03 17.6 C 12.45 g/m*3 17.6 C 0 km/h
1242 08-08-2008 01:41:03 17.7 C 12.37 g/m*3 17.7 C 0 km/h
1243 08-08-2008 01:53:03 17.7 C 12.37 g/m*3 17.7 C 0 km/h
1244 08-08-2008 02:05:03 17.7 C 12.22 g/m*3 17.7 C 0 km/h
1245 08-08-2008 02:29:03 17.8 C 12.45 g/m*3 17.8 C 0 km/h
1246 08-08-2008 02:41:04 17.7 C 12.37 g/m*3 17.7 C 0 km/h
1247 08-08-2008 02:53:04 17.7 C 12.37 g/m*3 17.7 C 0 km/h
1248 08-08-2008 03:05:34 17.6 C 12.3 g/m*3 17.6 C 0 km/h
1249 08-08-2008 03:17:34 17.7 C 12.37 g/m*3 17.7 C 0 km/h
1250 08-08-2008 03:29:34 17.7 C 12.37 g/m*3 17.7 C 0 km/h
Sensor: Nr:Datum:Temp:Abs-Feuchte:Windchill:Wind:
Aussen-T/F 1251 08-08-2008 03:41:04 17.7 C 12.37 g/m*3 17.7 C 0 km/h
1252 08-08-2008 03:53:05 17.8 C 12.29 g/m*3 17.8 C 0 km/h
1253 08-08-2008 04:05:05 18.1 C 12.05 g/m*3 18.1 C 0 km/h
1254 08-08-2008 04:17:35 18 C 11.83 g/m*3 18 C 0 km/h
1255 08-08-2008 04:29:35 17.9 C 11.76 g/m*3 17.9 C 0 km/h
1256 08-08-2008 04:41:02 17.9 C 11.6 g/m*3 17.9 C 0 km/h
1257 08-08-2008 04:53:02 17.7 C 11.47 g/m*3 17.7 C 0 km/h
1258 08-08-2008 05:05:02 17.7 C 11.47 g/m*3 17.7 C 0 km/h
1259 08-08-2008 05:17:02 17.7 C 11.47 g/m*3 17.7 C 0 km/h
1260 08-08-2008 05:29:01 17.6 C 11.55 g/m*3 17.6 C 0 km/h
1261 08-08-2008 05:41:01 17.7 C 11.47 g/m*3 17.7 C 0 km/h
1262 08-08-2008 05:53:02 17.7 C 11.32 g/m*3 17.7 C 0 km/h
1263 08-08-2008 06:05:02 17.6 C 11.25 g/m*3 17.6 C 0 km/h
1264 08-08-2008 06:17:02 17.7 C 11.16 g/m*3 17.7 C 0 km/h
1265 08-08-2008 06:29:02 17.8 C 11.23 g/m*3 17.8 C 0 km/h
1266 08-08-2008 06:41:02 17.7 C 11.47 g/m*3 17.7 C 0 km/h
1267 08-08-2008 06:53:33 17.1 C 11.65 g/m*3 17.1 C 0 km/h
1268 08-08-2008 07:05:33 17.2 C 11.72 g/m*3 17.2 C 0 km/h
1269 08-08-2008 07:17:33 17.7 C 11.62 g/m*3 17.7 C 0 km/h
1270 08-08-2008 07:29:33 18 C 11.21 g/m*3 18 C 0 km/h
1271 08-08-2008 07:41:33 17.7 C 11.16 g/m*3 17.7 C 0 km/h
1272 08-08-2008 07:53:33 16.6 C 11.72 g/m*3 16.6 C 0 km/h
1273 08-08-2008 08:17:34 16.3 C 11.93 g/m*3 16.3 C 0 km/h
1274 08-08-2008 08:29:34 16.6 C 12.29 g/m*3 16.6 C 0 km/h
1275 08-08-2008 08:41:34 16.9 C 12.37 g/m*3 16.9 C 0 km/h
Sensor: Nr:Datum:Temp:Abs-Feuchte:Windchill:Wind:
Aussen-T/F 1276 08-08-2008 09:05:34 17 C 11.72 g/m*3 17 C 0 km/h
1277 08-08-2008 09:17:34 17 C 11.87 g/m*3 17 C 0 km/h
1278 08-08-2008 09:29:34 16.8 C 11.87 g/m*3 16.8 C 0 km/h
1279 08-08-2008 09:41:03 17.2 C 12.15 g/m*3 17.2 C 0 km/h
1280 08-08-2008 09:53:03 17.5 C 12.08 g/m*3 17.5 C 0 km/h
1281 08-08-2008 10:05:03 17.7 C 11.92 g/m*3 17.7 C 0 km/h
1282 08-08-2008 10:17:02 17.7 C 11.62 g/m*3 17.7 C 0 km/h
1283 08-08-2008 10:29:02 17.8 C 11.84 g/m*3 17.8 C 0 km/h
1284 08-08-2008 10:41:02 18.2 C 11.81 g/m*3 18.2 C 0 km/h
1285 08-08-2008 10:53:02 18.5 C 11.55 g/m*3 18.5 C 0 km/h
1286 08-08-2008 11:05:02 18.8 C 11.76 g/m*3 18.8 C 0 km/h
1287 08-08-2008 11:17:03 19.4 C 11.85 g/m*3 19.4 C 0 km/h
1288 08-08-2008 11:29:03 20.3 C 11.78 g/m*3 20.3 C 0 km/h
1289 08-08-2008 11:41:02 20.9 C 11.47 g/m*3 20.9 C 0 km/h
1290 08-08-2008 11:53:02 21.9 C 11 g/m*3 21.9 C 0 km/h
1291 08-08-2008 12:05:02 21.7 C 10.68 g/m*3 21.7 C 0 km/h
1292 08-08-2008 12:17:03 21.4 C 10.87 g/m*3 21.4 C 0 km/h
1293 08-08-2008 12:29:03 21.7 C 11.06 g/m*3 21.7 C 0 km/h
1294 08-08-2008 12:41:02 16.9 C 10.64 g/m*3 16.9 C 0 km/h
1295 08-08-2008 12:53:02 16 C 11.44 g/m*3 16 C 0 km/h
1296 08-08-2008 13:05:02 17.8 C 13.2 g/m*3 17.8 C 0 km/h
1297 08-08-2008 13:17:02 19.2 C 13.85 g/m*3 19.2 C 0 km/h
1298 08-08-2008 13:29:02 20.9 C 13.11 g/m*3 20.9 C 0 km/h
1299 08-08-2008 13:41:02 21.8 C 12.28 g/m*3 21.8 C 0 km/h
1300 08-08-2008 13:53:01 20.8 C 13.04 g/m*3 20.8 C 0 km/h
Sensor: Nr:Datum:Temp:Abs-Feuchte:Windchill:Wind:
Aussen-T/F 1301 08-08-2008 14:05:02 20.4 C 13.27 g/m*3 20.4 C 0 km/h
1302 08-08-2008 14:17:02 20.3 C 14.07 g/m*3 20.3 C 0 km/h
1303 08-08-2008 14:29:02 21.1 C 13.82 g/m*3 21.1 C 0 km/h
1304 08-08-2008 14:41:02 22 C 13.78 g/m*3 22 C 0 km/h
1305 08-08-2008 14:53:02 22.7 C 12.73 g/m*3 22.7 C 0 km/h
1306 08-08-2008 15:05:02 21.7 C 12.02 g/m*3 21.7 C 0 km/h
1307 08-08-2008 15:17:02 19.2 C 11.71 g/m*3 19.2 C 0 km/h
1308 08-08-2008 15:29:03 20 C 12.96 g/m*3 20 C 0 km/h
1309 08-08-2008 15:41:03 21.9 C 11.77 g/m*3 21.9 C 0 km/h
1310 08-08-2008 15:53:03 22.1 C 11.52 g/m*3 22.1 C 0 km/h
1311 08-08-2008 16:05:03 21.1 C 9.58 g/m*3 21.1 C 0 km/h
1312 08-08-2008 16:17:02 21.1 C 9.95 g/m*3 21.1 C 0 km/h
1313 08-08-2008 16:29:02 22.7 C 9.7 g/m*3 22.7 C 0 km/h
1314 08-08-2008 16:41:02 22.1 C 9.17 g/m*3 22.1 C 0 km/h
1315 08-08-2008 16:53:01 21.6 C 9.48 g/m*3 21.6 C 0 km/h
1316 08-08-2008 17:05:01 21.8 C 9.21 g/m*3 21.8 C 0 km/h
1317 08-08-2008 17:17:01 21.8 C 9.4 g/m*3 21.8 C 0 km/h
1318 08-08-2008 17:29:01 21.4 C 9.19 g/m*3 21.4 C 0 km/h
1319 08-08-2008 17:41:01 19.7 C 9.85 g/m*3 19.7 C 0 km/h
1320 08-08-2008 17:53:02 18.7 C 11.05 g/m*3 18.7 C 0 km/h
1321 08-08-2008 18:05:02 18.9 C 11.66 g/m*3 18.9 C 0 km/h
1322 08-08-2008 18:17:02 19.5 C 11.24 g/m*3 19.5 C 0 km/h
1323 08-08-2008 18:29:02 19.5 C 10.74 g/m*3 19.5 C 0 km/h
1324 08-08-2008 18:41:02 19.4 C 10.51 g/m*3 19.4 C 0 km/h
1325 08-08-2008 18:53:28 19.3 C 10.28 g/m*3 19.3 C 0 km/h
Sensor: Nr:Datum:Temp:Abs-Feuchte:Windchill:Wind:
Aussen-T/F 1326 08-08-2008 19:05:02 19.4 C 10.34 g/m*3 19.4 C 0 km/h
1327 08-08-2008 19:17:03 19.4 C 10.34 g/m*3 19.4 C 0 km/h
1328 08-08-2008 19:29:03 19.3 C 10.28 g/m*3 19.3 C 0 km/h
1329 08-08-2008 19:41:03 19.3 C 10.12 g/m*3 19.3 C 0 km/h
1330 08-08-2008 19:53:02 19.3 C 10.12 g/m*3 19.3 C 0 km/h
1331 08-08-2008 20:05:03 19 C 10.27 g/m*3 19 C 0 km/h
1332 08-08-2008 20:17:02 17.8 C 11.08 g/m*3 17.8 C 0 km/h
1333 08-08-2008 20:29:02 17.5 C 11.18 g/m*3 17.5 C 0 km/h
1334 08-08-2008 20:41:03 16.8 C 11.58 g/m*3 16.8 C 0 km/h
1335 08-08-2008 20:53:02 16.5 C 11.8 g/m*3 16.5 C 0 km/h
1336 08-08-2008 21:05:02 16.4 C 12 g/m*3 16.4 C 0 km/h
1337 08-08-2008 21:17:02 16.3 C 12.07 g/m*3 16.3 C 0 km/h
1338 08-08-2008 21:29:01 16.3 C 12.21 g/m*3 16.3 C 0 km/h
1339 08-08-2008 21:41:01 16.5 C 12.22 g/m*3 16.5 C 0 km/h
1340 08-08-2008 21:54:01 16.6 C 12.15 g/m*3 16.6 C 0 km/h
1341 08-08-2008 22:06:01 16.7 C 12.08 g/m*3 16.7 C 0 km/h
1342 08-08-2008 22:18:01 16.7 C 11.94 g/m*3 16.7 C 0 km/h
1343 08-08-2008 22:30:01 16.8 C 11.87 g/m*3 16.8 C 0 km/h
1344 08-08-2008 22:42:01 16.4 C 11.58 g/m*3 16.4 C 0 km/h
1345 08-08-2008 22:54:01 16.1 C 11.93 g/m*3 16.1 C 0 km/h
1346 08-08-2008 23:06:01 16 C 11.99 g/m*3 16 C 0 km/h
1347 08-08-2008 23:18:01 16 C 12.13 g/m*3 16 C 0 km/h
1348 08-08-2008 23:30:02 16.1 C 12.34 g/m*3 16.1 C 0 km/h
1349 08-08-2008 23:42:02 16.2 C 12.41 g/m*3 16.2 C 0 km/h
1350 08-08-2008 23:54:02 16.1 C 12.2 g/m*3 16.1 C 0 km/h
Sensor: Nr:Datum:Temp:Abs-Feuchte:Windchill:Wind:
Aussen-T/F 1351 09-08-2008 00:06:02 16 C 11.99 g/m*3 16 C 0 km/h
1352 09-08-2008 00:18:02 16.1 C 12.06 g/m*3 16.1 C 0 km/h
1353 09-08-2008 00:30:02 16.2 C 12 g/m*3 16.2 C 0 km/h
1354 09-08-2008 00:42:02 16.2 C 11.86 g/m*3 16.2 C 0 km/h
1355 09-08-2008 00:54:02 16.1 C 11.65 g/m*3 16.1 C 0 km/h
1356 09-08-2008 01:06:02 15.9 C 11.51 g/m*3 15.9 C 0 km/h
1357 09-08-2008 01:18:02 15.7 C 11.37 g/m*3 15.7 C 0 km/h
1358 09-08-2008 01:30:02 15.4 C 11.3 g/m*3 15.4 C 0 km/h
1359 09-08-2008 01:42:02 15.1 C 11.09 g/m*3 15.1 C 0 km/h
1360 09-08-2008 01:54:02 14.9 C 11.22 g/m*3 14.9 C 0 km/h
1361 09-08-2008 02:06:02 14.9 C 11.22 g/m*3 14.9 C 0 km/h
1362 09-08-2008 02:18:02 14.7 C 11.08 g/m*3 14.7 C 0 km/h
1363 09-08-2008 02:30:02 14.5 C 10.94 g/m*3 14.5 C 0 km/h
1364 09-08-2008 02:42:02 14.5 C 10.94 g/m*3 14.5 C 0 km/h
1365 09-08-2008 02:54:02 14.4 C 10.88 g/m*3 14.4 C 0 km/h
1366 09-08-2008 03:06:02 14.4 C 10.88 g/m*3 14.4 C 0 km/h
1367 09-08-2008 03:18:03 14.5 C 10.7 g/m*3 14.5 C 0 km/h
1368 09-08-2008 03:30:03 14.5 C 10.32 g/m*3 14.5 C 0 km/h
1369 09-08-2008 03:42:03 14.4 C 10.26 g/m*3 14.4 C 0 km/h
1370 09-08-2008 03:54:03 14.4 C 10.26 g/m*3 14.4 C 0 km/h
1371 09-08-2008 04:06:03 14.5 C 10.45 g/m*3 14.5 C 0 km/h
1372 09-08-2008 04:18:03 14.5 C 10.45 g/m*3 14.5 C 0 km/h
1373 09-08-2008 04:30:03 14.5 C 10.57 g/m*3 14.5 C 0 km/h
1374 09-08-2008 04:42:03 14.6 C 10.64 g/m*3 14.6 C 0 km/h
1375 09-08-2008 04:54:03 14.6 C 10.64 g/m*3 14.6 C 0 km/h
Sensor: Nr:Datum:Temp:Abs-Feuchte:Windchill:Wind:
Aussen-T/F 1376 09-08-2008 05:06:03 14.7 C 10.58 g/m*3 14.7 C 0 km/h
1377 09-08-2008 05:18:03 14.6 C 10.51 g/m*3 14.6 C 0 km/h
1378 09-08-2008 05:30:03 14.6 C 10.51 g/m*3 14.6 C 0 km/h
1379 09-08-2008 05:42:03 14.6 C 10.39 g/m*3 14.6 C 0 km/h
1380 09-08-2008 05:54:03 14.7 C 10.2 g/m*3 14.7 C 0 km/h
1381 09-08-2008 06:06:03 14.7 C 10.07 g/m*3 14.7 C 0 km/h
1382 09-08-2008 06:18:03 14.9 C 9.81 g/m*3 14.9 C 0 km/h
1383 09-08-2008 06:30:03 14.9 C 9.69 g/m*3 14.9 C 0 km/h
1384 09-08-2008 06:42:03 14.9 C 9.69 g/m*3 14.9 C 0 km/h
1385 09-08-2008 06:54:03 15 C 9.87 g/m*3 15 C 0 km/h
1386 09-08-2008 07:06:03 15 C 9.75 g/m*3 15 C 0 km/h
1387 09-08-2008 07:18:04 14.9 C 9.43 g/m*3 14.9 C 0 km/h
1388 09-08-2008 07:30:04 14.8 C 9.37 g/m*3 14.8 C 0 km/h
1389 09-08-2008 07:42:04 15 C 9.36 g/m*3 15 C 0 km/h
1390 09-08-2008 07:54:04 15.1 C 9.29 g/m*3 15.1 C 0 km/h
1391 09-08-2008 08:06:02 14.7 C 9.19 g/m*3 14.7 C 0 km/h
1392 09-08-2008 08:18:02 14.7 C 9.44 g/m*3 14.7 C 0 km/h
1393 09-08-2008 08:30:02 15.1 C 9.42 g/m*3 15.1 C 0 km/h
1394 09-08-2008 08:42:01 15.7 C 9.1 g/m*3 15.7 C 0 km/h
1395 09-08-2008 08:54:02 16.2 C 9.38 g/m*3 16.2 C 0 km/h
1396 09-08-2008 09:06:02 16.3 C 9.02 g/m*3 16.3 C 0 km/h
1397 09-08-2008 09:18:02 16.3 C 9.43 g/m*3 16.3 C 0 km/h
1398 09-08-2008 09:30:02 16.8 C 9.72 g/m*3 16.8 C 0 km/h
1399 09-08-2008 09:42:02 17.1 C 9.17 g/m*3 17.1 C 0 km/h
1400 09-08-2008 09:54:02 16.6 C 9.04 g/m*3 16.6 C 0 km/h
Sensor: Nr:Datum:Temp:Abs-Feuchte:Windchill:Wind:
Aussen-T/F 1401 09-08-2008 10:06:02 17.6 C 8.85 g/m*3 17.6 C 0 km/h
1402 09-08-2008 10:18:01 17.9 C 8.09 g/m*3 17.9 C 0 km/h
1403 09-08-2008 10:30:01 18.1 C 7.73 g/m*3 18.1 C 0 km/h
1404 09-08-2008 10:42:02 18.5 C 7.91 g/m*3 18.5 C 0 km/h
1405 09-08-2008 10:54:02 18.6 C 6.84 g/m*3 18.6 C 0 km/h
1406 09-08-2008 11:06:02 19 C 7.66 g/m*3 19 C 0 km/h
1407 09-08-2008 11:18:02 20.2 C 6.64 g/m*3 20.2 C 0 km/h
1408 09-08-2008 11:30:02 19.9 C 7.22 g/m*3 19.9 C 0 km/h
1409 09-08-2008 11:42:02 20.4 C 6.72 g/m*3 20.4 C 0 km/h
1410 09-08-2008 11:54:02 20.7 C 6.48 g/m*3 20.7 C 0 km/h
1411 09-08-2008 12:06:01 20.9 C 6.19 g/m*3 20.9 C 0 km/h
1412 09-08-2008 12:18:02 21.9 C 6.18 g/m*3 21.9 C 0 km/h
1413 09-08-2008 12:30:02 22.5 C 6.19 g/m*3 22.5 C 0 km/h
1414 09-08-2008 12:42:01 21.5 C 6.03 g/m*3 21.5 C 0 km/h
1415 09-08-2008 12:54:02 22.3 C 5.73 g/m*3 22.3 C 0 km/h
1416 09-08-2008 13:06:01 22.4 C 5.56 g/m*3 22.4 C 0 km/h
1417 09-08-2008 13:18:02 23.1 C 5.37 g/m*3 23.1 C 0 km/h
1418 09-08-2008 13:30:02 23.5 C 5.29 g/m*3 23.5 C 0 km/h
1419 09-08-2008 13:42:01 23.5 C 5.5 g/m*3 23.5 C 0 km/h
1420 09-08-2008 13:54:03 22.9 C 5.11 g/m*3 22.9 C 0 km/h
1421 09-08-2008 14:06:02 23.2 C 5.61 g/m*3 23.2 C 0 km/h
1422 09-08-2008 14:18:03 23 C 5.34 g/m*3 23 C 0 km/h
1423 09-08-2008 14:30:03 23.2 C 5.2 g/m*3 23.2 C 0 km/h
1424 09-08-2008 14:42:02 24.4 C 5.56 g/m*3 24.4 C 0 km/h
1425 09-08-2008 14:54:02 25.2 C 5.12 g/m*3 25.2 C 0 km/h
Sensor: Nr:Datum:Temp:Abs-Feuchte:Windchill:Wind:
Aussen-T/F 1426 09-08-2008 15:06:03 24.3 C 5.53 g/m*3 24.3 C 0 km/h
1427 09-08-2008 15:18:03 24.9 C 5.72 g/m*3 24.9 C 0 km/h
1428 09-08-2008 15:30:03 25.6 C 5.48 g/m*3 25.6 C 0 km/h
1429 09-08-2008 15:42:03 26.1 C 5.63 g/m*3 26.1 C 0 km/h
1430 09-08-2008 15:54:02 26.1 C 5.39 g/m*3 26.1 C 0 km/h
1431 09-08-2008 16:06:03 25.9 C 5.33 g/m*3 25.9 C 0 km/h
1432 09-08-2008 16:18:02 25.9 C 6.05 g/m*3 25.9 C 0 km/h
1433 09-08-2008 16:30:02 25.4 C 5.65 g/m*3 25.4 C 0 km/h
1434 09-08-2008 16:42:03 24.8 C 5.92 g/m*3 24.8 C 0 km/h
1435 09-08-2008 16:54:03 24.8 C 5.92 g/m*3 24.8 C 0 km/h
1436 09-08-2008 17:06:02 26.3 C 5.94 g/m*3 26.3 C 0 km/h
1437 09-08-2008 17:18:02 26.4 C 5.48 g/m*3 26.4 C 0 km/h
1438 09-08-2008 17:30:02 25.4 C 5.89 g/m*3 25.4 C 0 km/h
1439 09-08-2008 17:42:02 24.9 C 5.95 g/m*3 24.9 C 0 km/h
1440 09-08-2008 17:54:01 26 C 6.09 g/m*3 26 C 0 km/h
1441 09-08-2008 18:06:02 26.2 C 6.15 g/m*3 26.2 C 0 km/h
1442 09-08-2008 18:18:01 25.2 C 6.05 g/m*3 25.2 C 0 km/h
1443 09-08-2008 18:30:01 25 C 6.22 g/m*3 25 C 0 km/h
1444 09-08-2008 18:42:02 25.9 C 6.29 g/m*3 25.9 C 0 km/h
1445 09-08-2008 18:54:01 25.8 C 6.74 g/m*3 25.8 C 0 km/h
1446 09-08-2008 19:06:02 25.3 C 6.79 g/m*3 25.3 C 0 km/h
1447 09-08-2008 19:18:02 24.9 C 7.1 g/m*3 24.9 C 0 km/h
1448 09-08-2008 19:30:02 23.9 C 7.14 g/m*3 23.9 C 0 km/h
1449 09-08-2008 19:42:01 23.8 C 7.1 g/m*3 23.8 C 0 km/h
1450 09-08-2008 19:54:01 23.3 C 7.32 g/m*3 23.3 C 0 km/h
Sensor: Nr:Datum:Temp:Abs-Feuchte:Windchill:Wind:
Aussen-T/F 1451 09-08-2008 20:06:02 22.9 C 7.56 g/m*3 22.9 C 0 km/h
1452 09-08-2008 20:18:01 22.3 C 7.7 g/m*3 22.3 C 0 km/h
1453 09-08-2008 20:30:01 21.6 C 7.78 g/m*3 21.6 C 0 km/h
1454 09-08-2008 20:42:02 21 C 7.69 g/m*3 21 C 0 km/h
1455 09-08-2008 20:54:02 20.7 C 8.1 g/m*3 20.7 C 0 km/h
1456 09-08-2008 21:06:02 20 C 7.95 g/m*3 20 C 0 km/h
1457 09-08-2008 21:18:02 19.9 C 8.25 g/m*3 19.9 C 0 km/h
1458 09-08-2008 21:30:02 19.8 C 8.2 g/m*3 19.8 C 0 km/h
1459 09-08-2008 21:42:02 19.6 C 8.27 g/m*3 19.6 C 0 km/h
1460 09-08-2008 21:54:02 19.5 C 8.39 g/m*3 19.5 C 0 km/h
1461 09-08-2008 22:06:01 19.3 C 8.63 g/m*3 19.3 C 0 km/h
1462 09-08-2008 22:18:02 19 C 8.8 g/m*3 19 C 0 km/h
1463 09-08-2008 22:30:02 19 C 8.8 g/m*3 19 C 0 km/h
1464 09-08-2008 22:42:01 18.9 C 9.23 g/m*3 18.9 C 0 km/h
1465 09-08-2008 22:54:02 18.9 C 9.23 g/m*3 18.9 C 0 km/h
1466 09-08-2008 23:06:01 18.8 C 9.34 g/m*3 18.8 C 0 km/h
1467 09-08-2008 23:18:02 18.7 C 9.13 g/m*3 18.7 C 0 km/h
1468 09-08-2008 23:30:02 18.4 C 9.28 g/m*3 18.4 C 0 km/h
1469 09-08-2008 23:43:02 18.2 C 9.33 g/m*3 18.2 C 0 km/h
1470 09-08-2008 23:55:02 18 C 9.37 g/m*3 18 C 0 km/h
1471 10-08-2008 00:07:02 17.8 C 9.56 g/m*3 17.8 C 0 km/h
1472 10-08-2008 00:19:02 17.7 C 9.51 g/m*3 17.7 C 0 km/h
1473 10-08-2008 00:31:02 17.7 C 9.51 g/m*3 17.7 C 0 km/h
1474 10-08-2008 00:43:02 17.9 C 9.77 g/m*3 17.9 C 0 km/h
1475 10-08-2008 00:55:02 17.9 C 9.77 g/m*3 17.9 C 0 km/h
Sensor: Nr:Datum:Temp:Abs-Feuchte:Windchill:Wind:
Aussen-T/F 1476 10-08-2008 01:07:02 18 C 9.68 g/m*3 18 C 0 km/h
1477 10-08-2008 01:19:02 18.1 C 9.73 g/m*3 18.1 C 0 km/h
1478 10-08-2008 01:31:02 17.9 C 9.77 g/m*3 17.9 C 0 km/h
1479 10-08-2008 01:43:02 17.9 C 9.92 g/m*3 17.9 C 0 km/h
1480 10-08-2008 01:55:02 18 C 9.83 g/m*3 18 C 0 km/h
1481 10-08-2008 02:07:02 17.9 C 10.08 g/m*3 17.9 C 0 km/h
1482 10-08-2008 02:19:02 17.7 C 10.11 g/m*3 17.7 C 0 km/h
1483 10-08-2008 02:31:02 18 C 10.14 g/m*3 18 C 0 km/h
1484 10-08-2008 02:43:02 18.1 C 9.73 g/m*3 18.1 C 0 km/h
1485 10-08-2008 02:55:02 18.3 C 9.85 g/m*3 18.3 C 0 km/h
1486 10-08-2008 03:07:02 18.3 C 9.69 g/m*3 18.3 C 0 km/h
1487 10-08-2008 03:19:03 18.2 C 9.79 g/m*3 18.2 C 0 km/h
1488 10-08-2008 03:31:03 18.2 C 9.79 g/m*3 18.2 C 0 km/h
1489 10-08-2008 03:43:03 18.2 C 9.64 g/m*3 18.2 C 0 km/h
1490 10-08-2008 03:55:03 17.7 C 10.11 g/m*3 17.7 C 0 km/h
1491 10-08-2008 04:07:03 17.6 C 10.2 g/m*3 17.6 C 0 km/h
1492 10-08-2008 04:19:03 18 C 9.68 g/m*3 18 C 0 km/h
1493 10-08-2008 04:31:03 17.9 C 9.77 g/m*3 17.9 C 0 km/h
1494 10-08-2008 04:43:03 18 C 9.68 g/m*3 18 C 0 km/h
1495 10-08-2008 04:55:03 18 C 9.68 g/m*3 18 C 0 km/h
1496 10-08-2008 05:07:03 18 C 9.68 g/m*3 18 C 0 km/h
1497 10-08-2008 05:19:03 17.9 C 9.47 g/m*3 17.9 C 0 km/h
1498 10-08-2008 05:31:03 17.9 C 9.47 g/m*3 17.9 C 0 km/h
1499 10-08-2008 05:43:03 17.9 C 9.47 g/m*3 17.9 C 0 km/h
1500 10-08-2008 05:55:03 18.2 C 9.33 g/m*3 18.2 C 0 km/h
Sensor: Nr:Datum:Temp:Abs-Feuchte:Windchill:Wind:
Aussen-T/F 1501 10-08-2008 06:07:03 18.2 C 9.33 g/m*3 18.2 C 0 km/h
1502 10-08-2008 06:19:03 18.2 C 9.17 g/m*3 18.2 C 0 km/h
1503 10-08-2008 06:31:03 18.1 C 9.27 g/m*3 18.1 C 0 km/h
1504 10-08-2008 06:43:03 17.5 C 9.99 g/m*3 17.5 C 0 km/h
1505 10-08-2008 06:55:03 17.7 C 10.26 g/m*3 17.7 C 0 km/h
1506 10-08-2008 07:07:04 17.9 C 10.08 g/m*3 17.9 C 0 km/h
1507 10-08-2008 07:19:04 18.1 C 9.89 g/m*3 18.1 C 0 km/h
1508 10-08-2008 07:31:04 18.1 C 9.89 g/m*3 18.1 C 0 km/h
1509 10-08-2008 07:43:04 18.4 C 9.75 g/m*3 18.4 C 0 km/h
1510 10-08-2008 07:55:04 18.8 C 9.66 g/m*3 18.8 C 0 km/h
1511 10-08-2008 08:07:04 19.2 C 9.07 g/m*3 19.2 C 0 km/h
1512 10-08-2008 08:19:04 19.4 C 9.01 g/m*3 19.4 C 0 km/h
1513 10-08-2008 08:31:04 19.5 C 9.06 g/m*3 19.5 C 0 km/h
1514 10-08-2008 08:43:04 19.7 C 9 g/m*3 19.7 C 0 km/h
1515 10-08-2008 08:55:04 19.9 C 8.93 g/m*3 19.9 C 0 km/h
1516 10-08-2008 09:07:02 19.9 C 9.11 g/m*3 19.9 C 0 km/h
1517 10-08-2008 09:19:02 20.2 C 9.09 g/m*3 20.2 C 0 km/h
1518 10-08-2008 09:31:02 20.2 C 8.92 g/m*3 20.2 C 0 km/h
1519 10-08-2008 09:43:02 20.3 C 8.97 g/m*3 20.3 C 0 km/h
1520 10-08-2008 09:55:02 20.1 C 9.04 g/m*3 20.1 C 0 km/h
1521 10-08-2008 10:07:02 20 C 9.16 g/m*3 20 C 0 km/h
1522 10-08-2008 10:19:02 19.9 C 9.79 g/m*3 19.9 C 0 km/h
1523 10-08-2008 10:31:02 19.5 C 9.9 g/m*3 19.5 C 0 km/h
1524 10-08-2008 10:43:02 19.6 C 10.13 g/m*3 19.6 C 0 km/h
1525 10-08-2008 10:55:02 20 C 10.02 g/m*3 20 C 0 km/h
Sensor: Nr:Datum:Temp:Abs-Feuchte:Windchill:Wind:
Aussen-T/F 1526 10-08-2008 11:07:02 20 C 9.68 g/m*3 20 C 0 km/h
1527 10-08-2008 11:19:02 19 C 10.27 g/m*3 19 C 0 km/h
1528 10-08-2008 11:31:02 18.8 C 10.79 g/m*3 18.8 C 0 km/h
1529 10-08-2008 11:43:02 18.5 C 10.44 g/m*3 18.5 C 0 km/h
1530 10-08-2008 11:58:02 19.3 C 10.12 g/m*3 19.3 C 0 km/h
1531 10-08-2008 12:10:01 19.6 C 9.96 g/m*3 19.6 C 0 km/h
1532 10-08-2008 12:22:02 20 C 9.68 g/m*3 20 C 0 km/h
1533 10-08-2008 12:34:01 20.7 C 9.9 g/m*3 20.7 C 0 km/h
1534 10-08-2008 12:46:02 20.9 C 9.29 g/m*3 20.9 C 0 km/h
1535 10-08-2008 12:58:02 21.2 C 9.27 g/m*3 21.2 C 0 km/h
1536 10-08-2008 13:10:02 21.5 C 8.86 g/m*3 21.5 C 0 km/h
1537 10-08-2008 13:22:02 21.1 C 9.03 g/m*3 21.1 C 0 km/h
1538 10-08-2008 13:34:02 21.5 C 9.05 g/m*3 21.5 C 0 km/h
1539 10-08-2008 13:46:02 22.3 C 8.49 g/m*3 22.3 C 0 km/h
1540 10-08-2008 13:58:02 22.8 C 8.33 g/m*3 22.8 C 0 km/h
1541 10-08-2008 14:10:02 22.6 C 8.24 g/m*3 22.6 C 0 km/h
1542 10-08-2008 14:22:02 22.4 C 8.14 g/m*3 22.4 C 0 km/h
1543 10-08-2008 14:34:02 21.6 C 8.91 g/m*3 21.6 C 0 km/h
1544 10-08-2008 14:46:02 20.7 C 9.54 g/m*3 20.7 C 0 km/h
1545 10-08-2008 14:58:02 21.5 C 10.18 g/m*3 21.5 C 0 km/h
1546 10-08-2008 15:10:01 22.6 C 9.24 g/m*3 22.6 C 0 km/h
1547 10-08-2008 15:22:02 22.7 C 9.5 g/m*3 22.7 C 0 km/h
1548 10-08-2008 15:34:01 22.6 C 9.84 g/m*3 22.6 C 0 km/h
1549 10-08-2008 15:46:02 22.2 C 8.83 g/m*3 22.2 C 0 km/h
1550 10-08-2008 15:58:02 22.6 C 8.24 g/m*3 22.6 C 0 km/h
Sensor: Nr:Datum:Temp:Abs-Feuchte:Windchill:Wind:
Aussen-T/F 1551 10-08-2008 16:10:02 23.2 C 8.11 g/m*3 23.2 C 0 km/h
1552 10-08-2008 16:22:02 24.5 C 8.06 g/m*3 24.5 C 0 km/h
1553 10-08-2008 16:34:02 24 C 7.61 g/m*3 24 C 0 km/h
1554 10-08-2008 16:46:02 23.8 C 7.74 g/m*3 23.8 C 0 km/h
1555 10-08-2008 16:58:02 24 C 7.4 g/m*3 24 C 0 km/h
1556 10-08-2008 17:10:02 23.8 C 7.74 g/m*3 23.8 C 0 km/h
1557 10-08-2008 17:22:02 23.9 C 7.79 g/m*3 23.9 C 0 km/h
1558 10-08-2008 17:34:01 24 C 7.4 g/m*3 24 C 0 km/h
1559 10-08-2008 17:46:02 23.8 C 7.53 g/m*3 23.8 C 0 km/h
1560 10-08-2008 17:58:02 23.7 C 7.91 g/m*3 23.7 C 0 km/h
1561 10-08-2008 18:10:02 23.5 C 7.61 g/m*3 23.5 C 0 km/h
1562 10-08-2008 18:22:01 23.7 C 7.91 g/m*3 23.7 C 0 km/h
1563 10-08-2008 18:34:03 23.9 C 7.79 g/m*3 23.9 C 0 km/h
1564 10-08-2008 18:46:03 23.6 C 7.87 g/m*3 23.6 C 0 km/h
1565 10-08-2008 18:58:03 23.3 C 8.36 g/m*3 23.3 C 0 km/h
1566 10-08-2008 19:10:02 23.3 C 8.36 g/m*3 23.3 C 0 km/h
1567 10-08-2008 19:22:03 22.9 C 8.58 g/m*3 22.9 C 0 km/h
1568 10-08-2008 19:34:02 22.5 C 8.39 g/m*3 22.5 C 0 km/h
1569 10-08-2008 19:46:02 22.2 C 8.44 g/m*3 22.2 C 0 km/h
1570 10-08-2008 19:58:02 21.9 C 9.07 g/m*3 21.9 C 0 km/h
1571 10-08-2008 20:10:02 21.7 C 8.97 g/m*3 21.7 C 0 km/h
1572 10-08-2008 20:22:02 21.3 C 9.13 g/m*3 21.3 C 0 km/h
1573 10-08-2008 20:34:02 21 C 8.98 g/m*3 21 C 0 km/h
1574 10-08-2008 20:46:02 21 C 9.16 g/m*3 21 C 0 km/h
1575 10-08-2008 20:58:02 20.8 C 9.42 g/m*3 20.8 C 0 km/h
Sensor: Nr:Datum:Temp:Abs-Feuchte:Windchill:Wind:
Aussen-T/F 1576 10-08-2008 21:10:03 20.6 C 9.31 g/m*3 20.6 C 0 km/h
1577 10-08-2008 21:22:02 20.6 C 9.31 g/m*3 20.6 C 0 km/h
1578 10-08-2008 21:34:03 20.4 C 9.55 g/m*3 20.4 C 0 km/h
1579 10-08-2008 21:46:02 20.2 C 9.44 g/m*3 20.2 C 0 km/h
1580 10-08-2008 21:58:03 20 C 9.51 g/m*3 20 C 0 km/h
1581 10-08-2008 22:10:01 19.6 C 9.79 g/m*3 19.6 C 0 km/h
1582 10-08-2008 22:23:02 19.4 C 9.84 g/m*3 19.4 C 0 km/h
1583 10-08-2008 22:35:02 19.1 C 9.84 g/m*3 19.1 C 0 km/h
1584 10-08-2008 22:47:02 19.1 C 10 g/m*3 19.1 C 0 km/h
1585 10-08-2008 22:59:02 19 C 9.78 g/m*3 19 C 0 km/h
1586 10-08-2008 23:11:02 18.8 C 9.82 g/m*3 18.8 C 0 km/h
1587 10-08-2008 23:23:02 18.7 C 9.77 g/m*3 18.7 C 0 km/h
1588 10-08-2008 23:35:03 18.5 C 9.65 g/m*3 18.5 C 0 km/h
1589 10-08-2008 23:47:03 18.4 C 9.44 g/m*3 18.4 C 0 km/h
1590 10-08-2008 23:59:03 18.3 C 9.07 g/m*3 18.3 C 0 km/h
1591 11-08-2008 00:11:03 18.1 C 9.12 g/m*3 18.1 C 0 km/h
1592 11-08-2008 00:23:03 18.1 C 9.27 g/m*3 18.1 C 0 km/h
1593 11-08-2008 00:35:03 18.1 C 9.27 g/m*3 18.1 C 0 km/h
1594 11-08-2008 00:47:03 18.1 C 9.27 g/m*3 18.1 C 0 km/h
1595 11-08-2008 00:59:03 18.2 C 9.33 g/m*3 18.2 C 0 km/h
1596 11-08-2008 01:11:03 18.4 C 9.28 g/m*3 18.4 C 0 km/h
1597 11-08-2008 01:23:03 18.6 C 9.39 g/m*3 18.6 C 0 km/h
1598 11-08-2008 01:35:03 18.7 C 9.45 g/m*3 18.7 C 0 km/h
1599 11-08-2008 01:47:03 18.5 C 9.65 g/m*3 18.5 C 0 km/h
1600 11-08-2008 01:59:03 18.3 C 9.69 g/m*3 18.3 C 0 km/h
Sensor: Nr:Datum:Temp:Abs-Feuchte:Windchill:Wind:
Aussen-T/F 1601 11-08-2008 02:11:03 18 C 9.68 g/m*3 18 C 0 km/h
1602 11-08-2008 02:23:03 17.6 C 9.9 g/m*3 17.6 C 0 km/h
1603 11-08-2008 02:35:03 17.3 C 10.02 g/m*3 17.3 C 0 km/h
1604 11-08-2008 02:47:03 17.4 C 10.23 g/m*3 17.4 C 0 km/h
1605 11-08-2008 02:59:03 17.5 C 10.44 g/m*3 17.5 C 0 km/h
1606 11-08-2008 03:11:03 17.5 C 10.59 g/m*3 17.5 C 0 km/h
1607 11-08-2008 03:23:03 17.5 C 10.59 g/m*3 17.5 C 0 km/h
1608 11-08-2008 03:35:04 17.7 C 10.56 g/m*3 17.7 C 0 km/h
1609 11-08-2008 03:47:04 17.7 C 10.56 g/m*3 17.7 C 0 km/h
1610 11-08-2008 03:59:04 17.5 C 10.44 g/m*3 17.5 C 0 km/h
1611 11-08-2008 04:11:04 17.4 C 10.37 g/m*3 17.4 C 0 km/h
1612 11-08-2008 04:23:04 17.1 C 10.19 g/m*3 17.1 C 0 km/h
1613 11-08-2008 04:35:04 16.8 C 10.15 g/m*3 16.8 C 0 km/h
1614 11-08-2008 04:47:04 16.6 C 10.03 g/m*3 16.6 C 0 km/h
1615 11-08-2008 04:59:04 16 C 9.67 g/m*3 16 C 0 km/h
1616 11-08-2008 05:11:04 15.7 C 9.63 g/m*3 15.7 C 0 km/h
1617 11-08-2008 05:23:04 15.6 C 9.71 g/m*3 15.6 C 0 km/h
1618 11-08-2008 05:35:04 15.9 C 9.62 g/m*3 15.9 C 0 km/h
1619 11-08-2008 05:47:04 15.8 C 9.69 g/m*3 15.8 C 0 km/h
1620 11-08-2008 05:59:04 15.4 C 9.59 g/m*3 15.4 C 0 km/h
1621 11-08-2008 06:11:02 15.1 C 9.68 g/m*3 15.1 C 0 km/h
1622 11-08-2008 06:23:02 14.8 C 9.88 g/m*3 14.8 C 0 km/h
1623 11-08-2008 06:35:02 15 C 10.13 g/m*3 15 C 0 km/h
1624 11-08-2008 06:47:02 15.2 C 10.12 g/m*3 15.2 C 0 km/h
1625 11-08-2008 06:59:02 15 C 10 g/m*3 15 C 0 km/h
Sensor: Nr:Datum:Temp:Abs-Feuchte:Windchill:Wind:
Aussen-T/F 1626 11-08-2008 07:11:02 14.9 C 10.2 g/m*3 14.9 C 0 km/h
1627 11-08-2008 07:23:02 14.9 C 10.2 g/m*3 14.9 C 0 km/h
1628 11-08-2008 07:35:02 15 C 10.26 g/m*3 15 C 0 km/h
1629 11-08-2008 07:47:02 15.4 C 10.51 g/m*3 15.4 C 0 km/h
1630 11-08-2008 07:59:02 15.6 C 10.37 g/m*3 15.6 C 0 km/h
1631 11-08-2008 08:11:01 15.5 C 10.31 g/m*3 15.5 C 0 km/h
1632 11-08-2008 08:23:02 15.9 C 10.56 g/m*3 15.9 C 0 km/h
1633 11-08-2008 08:35:01 16.3 C 10.41 g/m*3 16.3 C 0 km/h
1634 11-08-2008 08:47:02 16.7 C 10.37 g/m*3 16.7 C 0 km/h
1635 11-08-2008 08:59:02 17.5 C 10.14 g/m*3 17.5 C 0 km/h
1636 11-08-2008 09:11:01 18.2 C 10.41 g/m*3 18.2 C 0 km/h
1637 11-08-2008 09:23:02 19.1 C 10.16 g/m*3 19.1 C 0 km/h
1638 11-08-2008 09:35:02 19.6 C 10.13 g/m*3 19.6 C 0 km/h
1639 11-08-2008 09:47:02 20.2 C 9.97 g/m*3 20.2 C 0 km/h
1640 11-08-2008 09:59:03 20.8 C 9.78 g/m*3 20.8 C 0 km/h
1641 11-08-2008 10:11:02 20.9 C 9.47 g/m*3 20.9 C 0 km/h
1642 11-08-2008 10:23:02 21 C 9.53 g/m*3 21 C 0 km/h
1643 11-08-2008 10:35:01 21.3 C 9.51 g/m*3 21.3 C 0 km/h
1644 11-08-2008 10:47:02 21.6 C 8.72 g/m*3 21.6 C 0 km/h
1645 11-08-2008 10:59:02 21.9 C 8.1 g/m*3 21.9 C 0 km/h
1646 11-08-2008 11:11:01 22.4 C 8.14 g/m*3 22.4 C 0 km/h
1647 11-08-2008 11:23:02 22.5 C 7.99 g/m*3 22.5 C 0 km/h
1648 11-08-2008 11:35:01 22.1 C 8.2 g/m*3 22.1 C 0 km/h
1649 11-08-2008 11:47:01 22.6 C 8.84 g/m*3 22.6 C 0 km/h
1650 11-08-2008 11:59:01 22 C 8.73 g/m*3 22 C 0 km/h
Sensor: Nr:Datum:Temp:Abs-Feuchte:Windchill:Wind:
Aussen-T/F 1651 11-08-2008 12:11:02 22.7 C 8.49 g/m*3 22.7 C 0 km/h
1652 11-08-2008 12:23:01 23.4 C 8.41 g/m*3 23.4 C 0 km/h
1653 11-08-2008 12:35:02 23.7 C 7.91 g/m*3 23.7 C 0 km/h
1654 11-08-2008 12:47:02 24.2 C 7.26 g/m*3 24.2 C 0 km/h
1655 11-08-2008 12:59:02 24.1 C 7 g/m*3 24.1 C 0 km/h
1656 11-08-2008 13:11:03 25.2 C 7.22 g/m*3 25.2 C 0 km/h
1657 11-08-2008 13:23:02 25.9 C 6.78 g/m*3 25.9 C 0 km/h
1658 11-08-2008 13:35:02 26 C 6.33 g/m*3 26 C 0 km/h
1659 11-08-2008 13:47:02 25.8 C 6.5 g/m*3 25.8 C 0 km/h
1660 11-08-2008 13:59:02 26.4 C 6.22 g/m*3 26.4 C 0 km/h
1661 11-08-2008 14:11:02 26.2 C 5.91 g/m*3 26.2 C 0 km/h
1662 11-08-2008 14:23:02 26.5 C 6.26 g/m*3 26.5 C 0 km/h
1663 11-08-2008 14:35:02 27.1 C 6.47 g/m*3 27.1 C 0 km/h
1664 11-08-2008 14:47:01 27.2 C 6.25 g/m*3 27.2 C 0 km/h
1665 11-08-2008 14:59:01 27 C 5.66 g/m*3 27 C 0 km/h
1666 11-08-2008 15:11:02 27.8 C 6.72 g/m*3 27.8 C 0 km/h
1667 11-08-2008 15:23:01 27.4 C 5.26 g/m*3 27.4 C 0 km/h
1668 11-08-2008 15:35:02 26.7 C 5.32 g/m*3 26.7 C 0 km/h
1669 11-08-2008 15:47:02 26.7 C 5.82 g/m*3 26.7 C 0 km/h
1670 11-08-2008 15:59:02 26.8 C 5.85 g/m*3 26.8 C 0 km/h
1671 11-08-2008 16:11:01 26.8 C 5.85 g/m*3 26.8 C 0 km/h
1672 11-08-2008 16:23:02 26.2 C 5.91 g/m*3 26.2 C 0 km/h
1673 11-08-2008 16:35:02 26.2 C 6.15 g/m*3 26.2 C 0 km/h
1674 11-08-2008 16:47:02 25.7 C 6.46 g/m*3 25.7 C 0 km/h
1675 11-08-2008 16:59:02 25 C 6.22 g/m*3 25 C 0 km/h
Sensor: Nr:Datum:Temp:Abs-Feuchte:Windchill:Wind:
Aussen-T/F 1676 11-08-2008 17:11:01 25 C 6.22 g/m*3 25 C 0 km/h
1677 11-08-2008 17:23:02 24.5 C 6.49 g/m*3 24.5 C 0 km/h
1678 11-08-2008 17:35:01 24.3 C 6.86 g/m*3 24.3 C 0 km/h
1679 11-08-2008 17:47:02 23.9 C 6.71 g/m*3 23.9 C 0 km/h
1680 11-08-2008 17:59:03 23.9 C 6.49 g/m*3 23.9 C 0 km/h
1681 11-08-2008 18:11:02 23.9 C 6.92 g/m*3 23.9 C 0 km/h
1682 11-08-2008 18:23:02 22.9 C 7.97 g/m*3 22.9 C 0 km/h
1683 11-08-2008 18:35:02 23.3 C 7.95 g/m*3 23.3 C 0 km/h
1684 11-08-2008 18:47:02 23.2 C 8.11 g/m*3 23.2 C 0 km/h
1685 11-08-2008 18:59:02 22.6 C 8.64 g/m*3 22.6 C 0 km/h
1686 11-08-2008 19:11:02 22.7 C 8.28 g/m*3 22.7 C 0 km/h
1687 11-08-2008 19:23:02 22.9 C 8.79 g/m*3 22.9 C 0 km/h
1688 11-08-2008 19:35:01 22.9 C 8.79 g/m*3 22.9 C 0 km/h
1689 11-08-2008 19:47:02 22.5 C 9.19 g/m*3 22.5 C 0 km/h
1690 11-08-2008 19:59:02 22.1 C 8.98 g/m*3 22.1 C 0 km/h
1691 11-08-2008 20:11:02 21.9 C 9.46 g/m*3 21.9 C 0 km/h
1692 11-08-2008 20:23:01 21.5 C 9.43 g/m*3 21.5 C 0 km/h
1693 11-08-2008 20:35:02 21.2 C 9.45 g/m*3 21.2 C 0 km/h
1694 11-08-2008 20:47:02 21.1 C 9.4 g/m*3 21.1 C 0 km/h
1695 11-08-2008 20:59:02 20.6 C 9.84 g/m*3 20.6 C 0 km/h
1696 11-08-2008 21:11:02 20.1 C 9.91 g/m*3 20.1 C 0 km/h
1697 11-08-2008 21:23:02 19.9 C 10.31 g/m*3 19.9 C 0 km/h
1698 11-08-2008 21:35:02 19.7 C 10.19 g/m*3 19.7 C 0 km/h
1699 11-08-2008 21:47:02 19.9 C 10.14 g/m*3 19.9 C 0 km/h
1700 11-08-2008 21:59:02 20.1 C 10.08 g/m*3 20.1 C 0 km/h
Sensor: Nr:Datum:Temp:Abs-Feuchte:Windchill:Wind:
Aussen-T/F 1701 11-08-2008 22:11:03 19.8 C 10.25 g/m*3 19.8 C 0 km/h
1702 11-08-2008 22:24:33 19.9 C 10.65 g/m*3 19.9 C 0 km/h
1703 11-08-2008 22:36:33 20 C 10.71 g/m*3 20 C 0 km/h
1704 11-08-2008 22:48:33 20 C 10.89 g/m*3 20 C 0 km/h
1705 11-08-2008 23:00:33 19.8 C 10.93 g/m*3 19.8 C 0 km/h
1706 11-08-2008 23:12:33 19.9 C 11.17 g/m*3 19.9 C 0 km/h
1707 11-08-2008 23:24:34 19.7 C 11.04 g/m*3 19.7 C 0 km/h
1708 11-08-2008 23:36:34 19.5 C 11.24 g/m*3 19.5 C 0 km/h
1709 11-08-2008 23:48:34 19.1 C 11.64 g/m*3 19.1 C 0 km/h
1710 12-08-2008 00:00:34 18.6 C 11.78 g/m*3 18.6 C 0 km/h
1711 12-08-2008 00:12:34 18.3 C 11.88 g/m*3 18.3 C 0 km/h
1712 12-08-2008 00:24:34 18.2 C 12.12 g/m*3 18.2 C 0 km/h
1713 12-08-2008 00:36:34 17.9 C 12.37 g/m*3 17.9 C 0 km/h
1714 12-08-2008 00:48:34 17.7 C 12.52 g/m*3 17.7 C 0 km/h
1715 12-08-2008 01:00:34 17.3 C 12.37 g/m*3 17.3 C 0 km/h
1716 12-08-2008 01:12:34 17 C 12.3 g/m*3 17 C 0 km/h
1717 12-08-2008 01:24:34 17.2 C 12.59 g/m*3 17.2 C 0 km/h
1718 12-08-2008 01:36:34 17.5 C 12.82 g/m*3 17.5 C 0 km/h
1719 12-08-2008 01:48:34 17.2 C 12.59 g/m*3 17.2 C 0 km/h
1720 12-08-2008 02:00:34 17.1 C 12.66 g/m*3 17.1 C 0 km/h
1721 12-08-2008 02:12:34 17 C 12.59 g/m*3 17 C 0 km/h
1722 12-08-2008 02:24:34 16.8 C 12.58 g/m*3 16.8 C 0 km/h
1723 12-08-2008 02:36:34 16.8 C 12.72 g/m*3 16.8 C 0 km/h
1724 12-08-2008 02:48:34 16.6 C 12.57 g/m*3 16.6 C 0 km/h
1725 12-08-2008 03:00:34 16.7 C 12.65 g/m*3 16.7 C 0 km/h
Sensor: Nr:Datum:Temp:Abs-Feuchte:Windchill:Wind:
Aussen-T/F 1726 12-08-2008 03:12:34 16.8 C 12.72 g/m*3 16.8 C 0 km/h
1727 12-08-2008 03:24:34 16.9 C 12.8 g/m*3 16.9 C 0 km/h
1728 12-08-2008 03:36:35 16.8 C 12.58 g/m*3 16.8 C 0 km/h
1729 12-08-2008 03:48:35 16.4 C 12.28 g/m*3 16.4 C 0 km/h
1730 12-08-2008 04:00:35 16.2 C 12.14 g/m*3 16.2 C 0 km/h
1731 12-08-2008 04:12:35 16 C 11.85 g/m*3 16 C 0 km/h
1732 12-08-2008 04:24:35 15.8 C 11.85 g/m*3 15.8 C 0 km/h
1733 12-08-2008 04:36:35 16 C 11.99 g/m*3 16 C 0 km/h
1734 12-08-2008 04:48:35 15.8 C 11.98 g/m*3 15.8 C 0 km/h
1735 12-08-2008 05:00:35 16 C 11.99 g/m*3 16 C 0 km/h
1736 12-08-2008 05:12:35 16.3 C 12.21 g/m*3 16.3 C 0 km/h
1737 12-08-2008 05:24:35 16.2 C 12.14 g/m*3 16.2 C 0 km/h
1738 12-08-2008 05:36:35 16.2 C 12 g/m*3 16.2 C 0 km/h
1739 12-08-2008 05:48:35 16.2 C 12 g/m*3 16.2 C 0 km/h
1740 12-08-2008 06:00:35 16.1 C 11.93 g/m*3 16.1 C 0 km/h
1741 12-08-2008 06:12:35 16 C 11.85 g/m*3 16 C 0 km/h
1742 12-08-2008 06:24:35 16 C 11.85 g/m*3 16 C 0 km/h
1743 12-08-2008 06:36:35 16.1 C 12.06 g/m*3 16.1 C 0 km/h
1744 12-08-2008 06:48:35 16 C 11.85 g/m*3 16 C 0 km/h
1745 12-08-2008 07:00:35 16.1 C 12.06 g/m*3 16.1 C 0 km/h
1746 12-08-2008 07:12:04 16.1 C 12.06 g/m*3 16.1 C 0 km/h
1747 12-08-2008 07:24:03 16.1 C 12.06 g/m*3 16.1 C 0 km/h
1748 12-08-2008 07:36:03 16.2 C 12.14 g/m*3 16.2 C 0 km/h
1749 12-08-2008 07:48:02 16.2 C 12.27 g/m*3 16.2 C 0 km/h
1750 12-08-2008 08:00:02 16.2 C 12.27 g/m*3 16.2 C 0 km/h
Sensor: Nr:Datum:Temp:Abs-Feuchte:Windchill:Wind:
Aussen-T/F 1751 12-08-2008 08:12:02 16.6 C 12.71 g/m*3 16.6 C 0 km/h
1752 12-08-2008 08:24:02 16.8 C 12.87 g/m*3 16.8 C 0 km/h
1753 12-08-2008 08:36:02 16.8 C 12.72 g/m*3 16.8 C 0 km/h
1754 12-08-2008 08:48:02 16.9 C 12.8 g/m*3 16.9 C 0 km/h
1755 12-08-2008 09:00:02 16.6 C 12.57 g/m*3 16.6 C 0 km/h
1756 12-08-2008 09:12:02 16.6 C 12.71 g/m*3 16.6 C 0 km/h
1757 12-08-2008 09:24:02 16.9 C 12.94 g/m*3 16.9 C 0 km/h
1758 12-08-2008 09:36:03 17 C 12.88 g/m*3 17 C 0 km/h
1759 12-08-2008 09:48:02 17.2 C 13.03 g/m*3 17.2 C 0 km/h
1760 12-08-2008 10:00:02 17.2 C 13.03 g/m*3 17.2 C 0 km/h
1761 12-08-2008 10:12:02 17.3 C 12.96 g/m*3 17.3 C 0 km/h
1762 12-08-2008 10:24:02 17.4 C 13.04 g/m*3 17.4 C 0 km/h
1763 12-08-2008 10:36:02 17.6 C 13.2 g/m*3 17.6 C 0 km/h
1764 12-08-2008 10:48:02 17.6 C 13.35 g/m*3 17.6 C 0 km/h
1765 12-08-2008 11:00:02 17.9 C 13.59 g/m*3 17.9 C 0 km/h
1766 12-08-2008 11:12:02 18 C 13.52 g/m*3 18 C 0 km/h
1767 12-08-2008 11:24:02 18.2 C 13.68 g/m*3 18.2 C 0 km/h
1768 12-08-2008 11:36:02 18.4 C 13.84 g/m*3 18.4 C 0 km/h
1769 12-08-2008 11:48:02 18.9 C 14.26 g/m*3 18.9 C 0 km/h
1770 12-08-2008 12:00:02 19.5 C 14.27 g/m*3 19.5 C 0 km/h
1771 12-08-2008 12:12:01 19.7 C 14.09 g/m*3 19.7 C 0 km/h
1772 12-08-2008 12:24:02 20.5 C 14.41 g/m*3 20.5 C 0 km/h
1773 12-08-2008 12:36:01 21.1 C 14.19 g/m*3 21.1 C 0 km/h
1774 12-08-2008 12:48:01 21.9 C 14.09 g/m*3 21.9 C 0 km/h
1775 12-08-2008 13:00:01 22.4 C 13.7 g/m*3 22.4 C 0 km/h
Sensor: Nr:Datum:Temp:Abs-Feuchte:Windchill:Wind:
Aussen-T/F 1776 12-08-2008 13:12:02 22.1 C 13.27 g/m*3 22.1 C 0 km/h
1777 12-08-2008 13:24:01 22.4 C 13.31 g/m*3 22.4 C 0 km/h
1778 12-08-2008 13:36:02 21.8 C 13.24 g/m*3 21.8 C 0 km/h
1779 12-08-2008 13:48:02 21.3 C 13.42 g/m*3 21.3 C 0 km/h
1780 12-08-2008 14:00:02 20.7 C 13.68 g/m*3 20.7 C 0 km/h
1781 12-08-2008 14:12:02 21.2 C 13.9 g/m*3 21.2 C 0 km/h
1782 12-08-2008 14:24:02 22.2 C 13.55 g/m*3 22.2 C 0 km/h
1783 12-08-2008 14:36:02 23.4 C 13.46 g/m*3 23.4 C 0 km/h
1784 12-08-2008 14:48:02 23.5 C 13.11 g/m*3 23.5 C 0 km/h
1785 12-08-2008 15:00:02 22.8 C 12.4 g/m*3 22.8 C 0 km/h
1786 12-08-2008 15:12:02 22.9 C 12.47 g/m*3 22.9 C 0 km/h
1787 12-08-2008 15:24:02 22.2 C 12.17 g/m*3 22.2 C 0 km/h
1788 12-08-2008 15:36:03 21.4 C 12.75 g/m*3 21.4 C 0 km/h
1789 12-08-2008 15:48:02 20.6 C 13.07 g/m*3 20.6 C 0 km/h
1790 12-08-2008 16:00:02 19.7 C 13.92 g/m*3 19.7 C 0 km/h
1791 12-08-2008 16:12:03 19.9 C 14.43 g/m*3 19.9 C 0 km/h
1792 12-08-2008 16:24:02 20.9 C 14.93 g/m*3 20.9 C 0 km/h
1793 12-08-2008 16:36:03 21.5 C 14.9 g/m*3 21.5 C 0 km/h
1794 12-08-2008 16:48:02 21.2 C 12.97 g/m*3 21.2 C 0 km/h
1795 12-08-2008 17:00:02 21.6 C 12.52 g/m*3 21.6 C 0 km/h
1796 12-08-2008 17:12:02 21.5 C 12.45 g/m*3 21.5 C 0 km/h
1797 12-08-2008 17:24:02 21.5 C 12.07 g/m*3 21.5 C 0 km/h
1798 12-08-2008 17:36:02 21.3 C 12.86 g/m*3 21.3 C 0 km/h
1799 12-08-2008 17:48:02 21.4 C 12.37 g/m*3 21.4 C 0 km/h
1800 12-08-2008 18:00:02 21.4 C 12 g/m*3 21.4 C 0 km/h
Sensor: Nr:Datum:Temp:Abs-Feuchte:Windchill:Wind:
Aussen-T/F 1801 12-08-2008 18:12:02 21.3 C 11.93 g/m*3 21.3 C 0 km/h
1802 12-08-2008 18:24:02 21.5 C 12.26 g/m*3 21.5 C 0 km/h
1803 12-08-2008 18:36:03 21.9 C 12.16 g/m*3 21.9 C 0 km/h
1804 12-08-2008 18:48:02 21.8 C 11.32 g/m*3 21.8 C 0 km/h
1805 12-08-2008 19:00:02 21.9 C 11.39 g/m*3 21.9 C 0 km/h
1806 12-08-2008 19:12:02 22.3 C 11.65 g/m*3 22.3 C 0 km/h
1807 12-08-2008 19:24:02 22.6 C 11.05 g/m*3 22.6 C 0 km/h
1808 12-08-2008 19:36:02 22.5 C 10.79 g/m*3 22.5 C 0 km/h
1809 12-08-2008 19:48:02 22.6 C 10.65 g/m*3 22.6 C 0 km/h
1810 12-08-2008 20:00:02 22.5 C 10.39 g/m*3 22.5 C 0 km/h
1811 12-08-2008 20:12:01 22.8 C 10.36 g/m*3 22.8 C 0 km/h
1812 12-08-2008 20:24:02 22.5 C 10.39 g/m*3 22.5 C 0 km/h
1813 12-08-2008 20:36:01 21.8 C 10.55 g/m*3 21.8 C 0 km/h
1814 12-08-2008 20:48:01 21.2 C 10.56 g/m*3 21.2 C 0 km/h
1815 12-08-2008 21:00:01 20.7 C 10.62 g/m*3 20.7 C 0 km/h
1816 12-08-2008 21:12:02 20.2 C 10.84 g/m*3 20.2 C 0 km/h
1817 12-08-2008 21:24:02 20 C 11.06 g/m*3 20 C 0 km/h
1818 12-08-2008 21:36:02 19.7 C 11.38 g/m*3 19.7 C 0 km/h
1819 12-08-2008 21:48:03 19.4 C 11.68 g/m*3 19.4 C 0 km/h
1820 12-08-2008 22:00:03 19.1 C 11.8 g/m*3 19.1 C 0 km/h
1821 12-08-2008 22:12:02 19 C 11.57 g/m*3 19 C 0 km/h
1822 12-08-2008 22:24:02 18.9 C 11.83 g/m*3 18.9 C 0 km/h
1823 12-08-2008 22:36:02 18.6 C 11.62 g/m*3 18.6 C 0 km/h
1824 12-08-2008 22:48:02 18.4 C 11.48 g/m*3 18.4 C 0 km/h
1825 12-08-2008 23:00:03 18.6 C 11.46 g/m*3 18.6 C 0 km/h
Sensor: Nr:Datum:Temp:Abs-Feuchte:Windchill:Wind:
Aussen-T/F 1826 12-08-2008 23:12:02 18.9 C 11.18 g/m*3 18.9 C 0 km/h
1827 12-08-2008 23:25:03 19.3 C 11.11 g/m*3 19.3 C 0 km/h
1828 12-08-2008 23:37:03 16.6 C 9.89 g/m*3 16.6 C 0 km/h
1829 12-08-2008 23:49:03 15.6 C 9.97 g/m*3 15.6 C 0 km/h
1830 13-08-2008 00:01:03 15.2 C 9.99 g/m*3 15.2 C 0 km/h
1831 13-08-2008 00:13:03 15 C 10.26 g/m*3 15 C 0 km/h
1832 13-08-2008 00:25:03 14.7 C 10.2 g/m*3 14.7 C 0 km/h
1833 13-08-2008 00:37:03 14.4 C 10.14 g/m*3 14.4 C 0 km/h
1834 13-08-2008 00:49:04 14.2 C 10.14 g/m*3 14.2 C 0 km/h
1835 13-08-2008 01:01:04 14.2 C 10.26 g/m*3 14.2 C 0 km/h
1836 13-08-2008 01:13:04 14.3 C 10.44 g/m*3 14.3 C 0 km/h
1837 13-08-2008 01:25:04 14.3 C 10.57 g/m*3 14.3 C 0 km/h
1838 13-08-2008 01:37:04 14.3 C 10.57 g/m*3 14.3 C 0 km/h
1839 13-08-2008 01:49:04 14.6 C 10.76 g/m*3 14.6 C 0 km/h
1840 13-08-2008 02:01:04 14.6 C 10.76 g/m*3 14.6 C 0 km/h
1841 13-08-2008 02:13:04 14.7 C 10.83 g/m*3 14.7 C 0 km/h
1842 13-08-2008 02:25:04 14.5 C 10.7 g/m*3 14.5 C 0 km/h
1843 13-08-2008 02:37:04 14.3 C 10.57 g/m*3 14.3 C 0 km/h
1844 13-08-2008 02:49:04 14.2 C 10.5 g/m*3 14.2 C 0 km/h
1845 13-08-2008 03:01:04 14.2 C 10.62 g/m*3 14.2 C 0 km/h
1846 13-08-2008 03:13:04 14.3 C 10.81 g/m*3 14.3 C 0 km/h
1847 13-08-2008 03:25:04 14.3 C 10.81 g/m*3 14.3 C 0 km/h
1848 13-08-2008 03:37:04 14.3 C 10.69 g/m*3 14.3 C 0 km/h
1849 13-08-2008 03:49:04 14.2 C 10.62 g/m*3 14.2 C 0 km/h
1850 13-08-2008 04:01:04 14.1 C 10.56 g/m*3 14.1 C 0 km/h
Sensor: Nr:Datum:Temp:Abs-Feuchte:Windchill:Wind:
Aussen-T/F 1851 13-08-2008 04:13:04 14.4 C 10.38 g/m*3 14.4 C 0 km/h
1852 13-08-2008 04:25:04 14.7 C 10.07 g/m*3 14.7 C 0 km/h
1853 13-08-2008 04:37:04 15 C 9.49 g/m*3 15 C 0 km/h
1854 13-08-2008 04:49:05 15.4 C 9.2 g/m*3 15.4 C 0 km/h
1855 13-08-2008 05:01:05 15.2 C 9.09 g/m*3 15.2 C 0 km/h
1856 13-08-2008 05:13:05 15.4 C 8.93 g/m*3 15.4 C 0 km/h
1857 13-08-2008 05:25:05 15.4 C 8.93 g/m*3 15.4 C 0 km/h
1858 13-08-2008 05:37:05 15.6 C 8.78 g/m*3 15.6 C 0 km/h
1859 13-08-2008 05:49:05 15.8 C 8.62 g/m*3 15.8 C 0 km/h
1860 13-08-2008 06:01:05 15.8 C 8.62 g/m*3 15.8 C 0 km/h
1861 13-08-2008 06:13:05 15.9 C 8.53 g/m*3 15.9 C 0 km/h
1862 13-08-2008 06:25:05 15.9 C 8.53 g/m*3 15.9 C 0 km/h
1863 13-08-2008 06:37:03 15.9 C 8.53 g/m*3 15.9 C 0 km/h
1864 13-08-2008 06:49:02 15.7 C 8.43 g/m*3 15.7 C 0 km/h
1865 13-08-2008 07:01:02 15.8 C 8.48 g/m*3 15.8 C 0 km/h
1866 13-08-2008 07:13:02 15.9 C 8.53 g/m*3 15.9 C 0 km/h
1867 13-08-2008 07:25:03 15.9 C 8.53 g/m*3 15.9 C 0 km/h
1868 13-08-2008 07:37:02 16.4 C 8.51 g/m*3 16.4 C 0 km/h
1869 13-08-2008 07:49:02 16.6 C 8.33 g/m*3 16.6 C 0 km/h
1870 13-08-2008 08:01:02 16.5 C 8.43 g/m*3 16.5 C 0 km/h
1871 13-08-2008 08:13:02 16.6 C 8.33 g/m*3 16.6 C 0 km/h
1872 13-08-2008 08:25:02 16.8 C 8.44 g/m*3 16.8 C 0 km/h
1873 13-08-2008 08:37:02 16.9 C 8.2 g/m*3 16.9 C 0 km/h
1874 13-08-2008 08:49:01 16.8 C 8.15 g/m*3 16.8 C 0 km/h
1875 13-08-2008 09:01:02 17.1 C 8.01 g/m*3 17.1 C 0 km/h
Sensor: Nr:Datum:Temp:Abs-Feuchte:Windchill:Wind:
Aussen-T/F 1876 13-08-2008 09:13:02 17.4 C 8.15 g/m*3 17.4 C 0 km/h
1877 13-08-2008 09:25:02 17.7 C 8 g/m*3 17.7 C 0 km/h
1878 13-08-2008 09:37:02 17.6 C 8.1 g/m*3 17.6 C 0 km/h
1879 13-08-2008 09:49:02 17.6 C 7.95 g/m*3 17.6 C 0 km/h
1880 13-08-2008 10:01:02 18.1 C 7.88 g/m*3 18.1 C 0 km/h
1881 13-08-2008 10:13:03 18.3 C 7.82 g/m*3 18.3 C 0 km/h
1882 13-08-2008 10:25:02 18.3 C 7.97 g/m*3 18.3 C 0 km/h
1883 13-08-2008 10:37:02 18.5 C 7.91 g/m*3 18.5 C 0 km/h
1884 13-08-2008 10:49:02 17 C 8.54 g/m*3 17 C 0 km/h
1885 13-08-2008 11:01:03 17.2 C 9.08 g/m*3 17.2 C 0 km/h
1886 13-08-2008 11:13:03 18.1 C 9.12 g/m*3 18.1 C 0 km/h
1887 13-08-2008 11:25:02 18.3 C 8.6 g/m*3 18.3 C 0 km/h
1888 13-08-2008 11:37:03 19.3 C 8.46 g/m*3 19.3 C 0 km/h
1889 13-08-2008 11:49:02 19.7 C 8.15 g/m*3 19.7 C 0 km/h
1890 13-08-2008 12:01:02 20 C 8.12 g/m*3 20 C 0 km/h
1891 13-08-2008 12:13:02 20 C 7.78 g/m*3 20 C 0 km/h
1892 13-08-2008 12:25:02 19.7 C 7.47 g/m*3 19.7 C 0 km/h
1893 13-08-2008 12:37:02 20.7 C 7.74 g/m*3 20.7 C 0 km/h
1894 13-08-2008 12:49:03 21.3 C 7.46 g/m*3 21.3 C 0 km/h
1895 13-08-2008 13:01:02 20.8 C 7.24 g/m*3 20.8 C 0 km/h
1896 13-08-2008 13:13:02 21.2 C 7.41 g/m*3 21.2 C 0 km/h
1897 13-08-2008 13:25:02 21.4 C 7.5 g/m*3 21.4 C 0 km/h
1898 13-08-2008 13:37:02 21.2 C 7.41 g/m*3 21.2 C 0 km/h
1899 13-08-2008 13:49:02 21.2 C 7.41 g/m*3 21.2 C 0 km/h
1900 13-08-2008 14:01:02 21.6 C 7.59 g/m*3 21.6 C 0 km/h
Sensor: Nr:Datum:Temp:Abs-Feuchte:Windchill:Wind:
Aussen-T/F 1901 13-08-2008 14:13:02 21.7 C 7.82 g/m*3 21.7 C 0 km/h
1902 13-08-2008 14:25:02 22.5 C 7.59 g/m*3 22.5 C 0 km/h
1903 13-08-2008 14:37:02 22 C 7.38 g/m*3 22 C 0 km/h
1904 13-08-2008 14:49:02 21.6 C 7.59 g/m*3 21.6 C 0 km/h
1905 13-08-2008 15:01:02 19.1 C 6.56 g/m*3 19.1 C 0 km/h
1906 13-08-2008 15:13:02 19.1 C 10.98 g/m*3 19.1 C 0 km/h
1907 13-08-2008 15:25:02 20.5 C 10.32 g/m*3 20.5 C 0 km/h
1908 13-08-2008 15:37:02 20.4 C 9.38 g/m*3 20.4 C 0 km/h
1909 13-08-2008 15:49:02 22.2 C 8.83 g/m*3 22.2 C 0 km/h
1910 13-08-2008 16:01:02 22.6 C 8.24 g/m*3 22.6 C 0 km/h
1911 13-08-2008 16:13:02 23.6 C 7.87 g/m*3 23.6 C 0 km/h
1912 13-08-2008 16:25:02 23.5 C 6.98 g/m*3 23.5 C 0 km/h
1913 13-08-2008 16:37:02 23.8 C 6.88 g/m*3 23.8 C 0 km/h
1914 13-08-2008 16:49:02 24.3 C 6.86 g/m*3 24.3 C 0 km/h
1915 13-08-2008 17:01:02 24.1 C 6.35 g/m*3 24.1 C 0 km/h
1916 13-08-2008 17:13:02 23.5 C 6.56 g/m*3 23.5 C 0 km/h
1917 13-08-2008 17:25:02 24.3 C 6.64 g/m*3 24.3 C 0 km/h
1918 13-08-2008 17:37:02 23.8 C 6.45 g/m*3 23.8 C 0 km/h
1919 13-08-2008 17:49:02 23.4 C 6.52 g/m*3 23.4 C 0 km/h
1920 13-08-2008 18:01:02 23.3 C 6.48 g/m*3 23.3 C 0 km/h
1921 13-08-2008 18:13:02 23.6 C 6.59 g/m*3 23.6 C 0 km/h
1922 13-08-2008 18:25:02 23.5 C 6.56 g/m*3 23.5 C 0 km/h
1923 13-08-2008 18:37:02 22.6 C 6.63 g/m*3 22.6 C 0 km/h
1924 13-08-2008 18:49:02 22 C 6.79 g/m*3 22 C 0 km/h
1925 13-08-2008 19:01:02 21.6 C 7.59 g/m*3 21.6 C 0 km/h
Sensor: Nr:Datum:Temp:Abs-Feuchte:Windchill:Wind:
Aussen-T/F 1926 13-08-2008 19:13:02 21.7 C 7.25 g/m*3 21.7 C 0 km/h
1927 13-08-2008 19:25:02 21.6 C 6.83 g/m*3 21.6 C 0 km/h
1928 13-08-2008 19:37:02 21.3 C 6.9 g/m*3 21.3 C 0 km/h
1929 13-08-2008 19:49:01 21.2 C 7.04 g/m*3 21.2 C 0 km/h
1930 13-08-2008 20:01:02 19.4 C 8.01 g/m*3 19.4 C 0 km/h
1931 13-08-2008 20:13:02 19.5 C 8.39 g/m*3 19.5 C 0 km/h
1932 13-08-2008 20:25:01 19.5 C 8.56 g/m*3 19.5 C 0 km/h
1933 13-08-2008 20:37:02 19.6 C 8.44 g/m*3 19.6 C 0 km/h
1934 13-08-2008 20:49:02 19.5 C 8.39 g/m*3 19.5 C 0 km/h
1935 13-08-2008 21:01:02 19.7 C 6.96 g/m*3 19.7 C 0 km/h
1936 13-08-2008 21:13:02 19.8 C 6.83 g/m*3 19.8 C 0 km/h
1937 13-08-2008 21:25:02 19.5 C 6.88 g/m*3 19.5 C 0 km/h
1938 13-08-2008 21:37:03 18.8 C 7.41 g/m*3 18.8 C 0 km/h
1939 13-08-2008 21:50:04 18.7 C 7.52 g/m*3 18.7 C 0 km/h
1940 13-08-2008 22:02:04 18.3 C 7.66 g/m*3 18.3 C 0 km/h
1941 13-08-2008 22:14:04 18.3 C 7.66 g/m*3 18.3 C 0 km/h
1942 13-08-2008 22:26:04 18.4 C 7.55 g/m*3 18.4 C 0 km/h
1943 13-08-2008 22:38:04 18 C 7.68 g/m*3 18 C 0 km/h
1944 13-08-2008 22:50:04 17.8 C 7.89 g/m*3 17.8 C 0 km/h
1945 13-08-2008 23:02:04 17.8 C 7.74 g/m*3 17.8 C 0 km/h
1946 13-08-2008 23:14:04 17.4 C 7.85 g/m*3 17.4 C 0 km/h
1947 13-08-2008 23:26:04 17.3 C 7.96 g/m*3 17.3 C 0 km/h
1948 13-08-2008 23:38:04 17.1 C 8.01 g/m*3 17.1 C 0 km/h
1949 13-08-2008 23:50:04 17 C 8.25 g/m*3 17 C 0 km/h
1950 14-08-2008 00:02:04 17.1 C 8.3 g/m*3 17.1 C 0 km/h
Sensor: Nr:Datum:Temp:Abs-Feuchte:Windchill:Wind:
Aussen-T/F 1951 14-08-2008 00:14:04 16.8 C 8.29 g/m*3 16.8 C 0 km/h
1952 14-08-2008 00:26:04 16.4 C 8.23 g/m*3 16.4 C 0 km/h
1953 14-08-2008 00:38:04 16.2 C 8.27 g/m*3 16.2 C 0 km/h
1954 14-08-2008 00:50:04 16.4 C 8.51 g/m*3 16.4 C 0 km/h
1955 14-08-2008 01:02:04 16.4 C 8.51 g/m*3 16.4 C 0 km/h
1956 14-08-2008 01:14:04 16.4 C 8.65 g/m*3 16.4 C 0 km/h
1957 14-08-2008 01:26:05 16.1 C 8.5 g/m*3 16.1 C 0 km/h
1958 14-08-2008 01:38:05 15.9 C 8.67 g/m*3 15.9 C 0 km/h
1959 14-08-2008 01:50:05 15.8 C 8.62 g/m*3 15.8 C 0 km/h
1960 14-08-2008 02:02:05 16 C 8.58 g/m*3 16 C 0 km/h
1961 14-08-2008 02:14:05 16 C 8.58 g/m*3 16 C 0 km/h
1962 14-08-2008 02:26:05 15.8 C 8.62 g/m*3 15.8 C 0 km/h
1963 14-08-2008 02:38:05 15.4 C 8.67 g/m*3 15.4 C 0 km/h
1964 14-08-2008 02:50:05 15.3 C 8.88 g/m*3 15.3 C 0 km/h
1965 14-08-2008 03:02:05 15.1 C 8.77 g/m*3 15.1 C 0 km/h
1966 14-08-2008 03:14:05 15 C 8.85 g/m*3 15 C 0 km/h
1967 14-08-2008 03:26:05 14.9 C 8.92 g/m*3 14.9 C 0 km/h
1968 14-08-2008 03:38:05 14.8 C 8.99 g/m*3 14.8 C 0 km/h
1969 14-08-2008 03:50:05 14.7 C 8.94 g/m*3 14.7 C 0 km/h
1970 14-08-2008 04:02:05 14.5 C 8.95 g/m*3 14.5 C 0 km/h
1971 14-08-2008 04:14:05 14.5 C 9.08 g/m*3 14.5 C 0 km/h
1972 14-08-2008 04:26:05 14.3 C 8.97 g/m*3 14.3 C 0 km/h
1973 14-08-2008 04:38:05 14.1 C 8.98 g/m*3 14.1 C 0 km/h
1974 14-08-2008 04:50:05 13.9 C 8.99 g/m*3 13.9 C 0 km/h
1975 14-08-2008 05:02:05 13.9 C 9.11 g/m*3 13.9 C 0 km/h
Sensor: Nr:Datum:Temp:Abs-Feuchte:Windchill:Wind:
Aussen-T/F 1976 14-08-2008 05:14:05 13.8 C 9.17 g/m*3 13.8 C 0 km/h
1977 14-08-2008 05:26:05 13.6 C 9.06 g/m*3 13.6 C 0 km/h
1978 14-08-2008 05:38:06 13.6 C 9.06 g/m*3 13.6 C 0 km/h
1979 14-08-2008 05:50:06 13.5 C 9.12 g/m*3 13.5 C 0 km/h
1980 14-08-2008 06:02:06 13.6 C 9.06 g/m*3 13.6 C 0 km/h
1981 14-08-2008 06:14:06 13.6 C 9.06 g/m*3 13.6 C 0 km/h
1982 14-08-2008 06:26:03 13.7 C 9.12 g/m*3 13.7 C 0 km/h
1983 14-08-2008 06:38:04 13.7 C 9.12 g/m*3 13.7 C 0 km/h
1984 14-08-2008 06:50:02 13.7 C 9.12 g/m*3 13.7 C 0 km/h
1985 14-08-2008 07:02:02 13.8 C 9.06 g/m*3 13.8 C 0 km/h
1986 14-08-2008 07:14:02 13.8 C 9.06 g/m*3 13.8 C 0 km/h
1987 14-08-2008 07:26:02 13.8 C 9.06 g/m*3 13.8 C 0 km/h
1988 14-08-2008 07:38:01 14 C 9.05 g/m*3 14 C 0 km/h
1989 14-08-2008 07:50:02 14.1 C 9.1 g/m*3 14.1 C 0 km/h
1990 14-08-2008 08:02:01 14.3 C 8.97 g/m*3 14.3 C 0 km/h
1991 14-08-2008 08:14:01 14.5 C 9.08 g/m*3 14.5 C 0 km/h
1992 14-08-2008 08:26:02 14.6 C 9.13 g/m*3 14.6 C 0 km/h
1993 14-08-2008 08:38:01 14.9 C 9.05 g/m*3 14.9 C 0 km/h
1994 14-08-2008 08:50:02 15.4 C 8.41 g/m*3 15.4 C 0 km/h
1995 14-08-2008 09:02:01 15.8 C 8.21 g/m*3 15.8 C 0 km/h
1996 14-08-2008 09:14:01 16.1 C 7.95 g/m*3 16.1 C 0 km/h
1997 14-08-2008 09:26:02 16.4 C 7.82 g/m*3 16.4 C 0 km/h
1998 14-08-2008 09:38:02 16.8 C 7.15 g/m*3 16.8 C 0 km/h
1999 14-08-2008 09:50:02 17.1 C 7.13 g/m*3 17.1 C 0 km/h
2000 14-08-2008 10:02:02 17.4 C 7.11 g/m*3 17.4 C 0 km/h
Sensor: Nr:Datum:Temp:Abs-Feuchte:Windchill:Wind:
Aussen-T/F 2001 14-08-2008 10:14:02 17.8 C 7.13 g/m*3 17.8 C 0 km/h
2002 14-08-2008 10:26:01 18.1 C 7.11 g/m*3 18.1 C 0 km/h
2003 14-08-2008 10:38:02 18.3 C 6.88 g/m*3 18.3 C 0 km/h
2004 14-08-2008 10:50:02 18.8 C 7.09 g/m*3 18.8 C 0 km/h
2005 14-08-2008 11:02:02 19.1 C 7.05 g/m*3 19.1 C 0 km/h
2006 14-08-2008 11:14:02 19.5 C 7.05 g/m*3 19.5 C 0 km/h
2007 14-08-2008 11:26:02 19.8 C 7 g/m*3 19.8 C 0 km/h
2008 14-08-2008 11:38:02 20.3 C 7.03 g/m*3 20.3 C 0 km/h
2009 14-08-2008 11:50:02 20.4 C 6.72 g/m*3 20.4 C 0 km/h
2010 14-08-2008 12:02:02 20.8 C 6.34 g/m*3 20.8 C 0 km/h
2011 14-08-2008 12:14:02 21.2 C 6.12 g/m*3 21.2 C 0 km/h
2012 14-08-2008 12:26:01 22 C 6.02 g/m*3 22 C 0 km/h
2013 14-08-2008 12:38:02 21.9 C 5.79 g/m*3 21.9 C 0 km/h
2014 14-08-2008 12:50:02 22 C 5.43 g/m*3 22 C 0 km/h
2015 14-08-2008 13:02:02 22.9 C 6.13 g/m*3 22.9 C 0 km/h
2016 14-08-2008 13:14:02 23.2 C 6.03 g/m*3 23.2 C 0 km/h
2017 14-08-2008 13:26:02 23.4 C 6.31 g/m*3 23.4 C 0 km/h
2018 14-08-2008 13:38:02 24 C 6.09 g/m*3 24 C 0 km/h
2019 14-08-2008 13:50:02 23.4 C 6.31 g/m*3 23.4 C 0 km/h
2020 14-08-2008 14:02:01 23.4 C 5.89 g/m*3 23.4 C 0 km/h
2021 14-08-2008 14:14:01 23.1 C 5.79 g/m*3 23.1 C 0 km/h
2022 14-08-2008 14:26:02 23 C 5.76 g/m*3 23 C 0 km/h
2023 14-08-2008 14:38:01 23.4 C 6.1 g/m*3 23.4 C 0 km/h
2024 14-08-2008 14:50:02 24.1 C 5.69 g/m*3 24.1 C 0 km/h
2025 14-08-2008 15:02:01 24.3 C 5.53 g/m*3 24.3 C 0 km/h
Sensor: Nr:Datum:Temp:Abs-Feuchte:Windchill:Wind:
Aussen-T/F 2026 14-08-2008 15:14:01 24.2 C 5.5 g/m*3 24.2 C 0 km/h
2027 14-08-2008 15:26:02 24.4 C 5.56 g/m*3 24.4 C 0 km/h
2028 14-08-2008 15:38:01 24.5 C 5.6 g/m*3 24.5 C 0 km/h
2029 14-08-2008 15:50:01 24.8 C 5.46 g/m*3 24.8 C 0 km/h
2030 14-08-2008 16:02:01 25.2 C 5.35 g/m*3 25.2 C 0 km/h
2031 14-08-2008 16:14:01 25.1 C 5.56 g/m*3 25.1 C 0 km/h
2032 14-08-2008 16:26:01 25.5 C 5.21 g/m*3 25.5 C 0 km/h
2033 14-08-2008 16:38:01 25.6 C 5 g/m*3 25.6 C 0 km/h
2034 14-08-2008 16:50:01 26.2 C 5.17 g/m*3 26.2 C 0 km/h
2035 14-08-2008 17:02:02 25.1 C 5.09 g/m*3 25.1 C 0 km/h
2036 14-08-2008 17:14:03 26.7 C 5.06 g/m*3 26.7 C 0 km/h
2037 14-08-2008 17:26:01 26.5 C 5.01 g/m*3 26.5 C 0 km/h
2038 14-08-2008 17:38:02 26.7 C 5.06 g/m*3 26.7 C 0 km/h
2039 14-08-2008 17:50:01 26.6 C 5.03 g/m*3 26.6 C 0 km/h
2040 14-08-2008 18:02:02 26.7 C 5.06 g/m*3 26.7 C 0 km/h
2041 14-08-2008 18:14:02 26.8 C 5.09 g/m*3 26.8 C 0 km/h
2042 14-08-2008 18:26:01 26.8 C 5.09 g/m*3 26.8 C 0 km/h
2043 14-08-2008 18:38:02 26.2 C 4.92 g/m*3 26.2 C 0 km/h
2044 14-08-2008 18:50:02 26.4 C 4.98 g/m*3 26.4 C 0 km/h
2045 14-08-2008 19:02:02 25.8 C 4.82 g/m*3 25.8 C 0 km/h
2046 14-08-2008 19:14:02 25.1 C 5.09 g/m*3 25.1 C 0 km/h
2047 14-08-2008 19:26:02 23.8 C 5.59 g/m*3 23.8 C 0 km/h
2048 14-08-2008 19:38:02 23.7 C 5.56 g/m*3 23.7 C 0 km/h
2049 14-08-2008 19:50:01 23.6 C 5.96 g/m*3 23.6 C 0 km/h
2050 14-08-2008 20:02:02 22.8 C 5.69 g/m*3 22.8 C 0 km/h
Sensor: Nr:Datum:Temp:Abs-Feuchte:Windchill:Wind:
Aussen-T/F 2051 14-08-2008 20:14:02 22.6 C 6.03 g/m*3 22.6 C 0 km/h
2052 14-08-2008 20:26:01 21.8 C 5.95 g/m*3 21.8 C 0 km/h
2053 14-08-2008 20:38:02 20.9 C 6.19 g/m*3 20.9 C 0 km/h
2054 14-08-2008 20:50:02 20.5 C 6.23 g/m*3 20.5 C 0 km/h
2055 14-08-2008 21:02:02 19.9 C 6.19 g/m*3 19.9 C 0 km/h
2056 14-08-2008 21:14:02 19.4 C 6.17 g/m*3 19.4 C 0 km/h
2057 14-08-2008 21:26:02 19 C 6.03 g/m*3 19 C 0 km/h
2058 14-08-2008 21:38:01 18.8 C 6.6 g/m*3 18.8 C 0 km/h
2059 14-08-2008 21:51:03 18.6 C 6.68 g/m*3 18.6 C 0 km/h
2060 14-08-2008 22:03:03 18.3 C 6.88 g/m*3 18.3 C 0 km/h
2061 14-08-2008 22:15:03 18.1 C 6.8 g/m*3 18.1 C 0 km/h
2062 14-08-2008 22:27:03 18.1 C 6.64 g/m*3 18.1 C 0 km/h
2063 14-08-2008 22:39:03 17.9 C 6.87 g/m*3 17.9 C 0 km/h
2064 14-08-2008 22:51:03 17.5 C 7.01 g/m*3 17.5 C 0 km/h
2065 14-08-2008 23:03:03 17.5 C 7.01 g/m*3 17.5 C 0 km/h
2066 14-08-2008 23:15:03 17.4 C 7.41 g/m*3 17.4 C 0 km/h
2067 14-08-2008 23:27:03 17.2 C 7.47 g/m*3 17.2 C 0 km/h
2068 14-08-2008 23:39:03 17 C 7.38 g/m*3 17 C 0 km/h
2069 14-08-2008 23:51:03 17.1 C 7.42 g/m*3 17.1 C 0 km/h
2070 15-08-2008 00:03:03 17 C 7.38 g/m*3 17 C 0 km/h
2071 15-08-2008 00:15:03 17 C 7.52 g/m*3 17 C 0 km/h
2072 15-08-2008 00:27:03 16.8 C 7.72 g/m*3 16.8 C 0 km/h
2073 15-08-2008 00:39:03 16.8 C 7.58 g/m*3 16.8 C 0 km/h
2074 15-08-2008 00:51:03 16.7 C 7.67 g/m*3 16.7 C 0 km/h
2075 15-08-2008 01:03:03 16.6 C 7.63 g/m*3 16.6 C 0 km/h
Sensor: Nr:Datum:Temp:Abs-Feuchte:Windchill:Wind:
Aussen-T/F 2076 15-08-2008 01:15:04 16.7 C 7.67 g/m*3 16.7 C 0 km/h
2077 15-08-2008 01:27:04 16.5 C 7.72 g/m*3 16.5 C 0 km/h
2078 15-08-2008 01:39:04 16.3 C 7.77 g/m*3 16.3 C 0 km/h
2079 15-08-2008 01:51:04 16.1 C 7.68 g/m*3 16.1 C 0 km/h
2080 15-08-2008 02:03:04 16.1 C 7.68 g/m*3 16.1 C 0 km/h
2081 15-08-2008 02:15:04 16 C 7.77 g/m*3 16 C 0 km/h
2082 15-08-2008 02:27:04 15.9 C 7.99 g/m*3 15.9 C 0 km/h
2083 15-08-2008 02:39:04 15.7 C 7.89 g/m*3 15.7 C 0 km/h
2084 15-08-2008 02:51:04 15.6 C 7.85 g/m*3 15.6 C 0 km/h
2085 15-08-2008 03:03:04 15.6 C 7.98 g/m*3 15.6 C 0 km/h
2086 15-08-2008 03:15:04 15.5 C 8.06 g/m*3 15.5 C 0 km/h
2087 15-08-2008 03:27:04 15.5 C 8.06 g/m*3 15.5 C 0 km/h
2088 15-08-2008 03:39:04 15.2 C 8.05 g/m*3 15.2 C 0 km/h
2089 15-08-2008 03:51:04 15.2 C 8.18 g/m*3 15.2 C 0 km/h
2090 15-08-2008 04:03:04 14.9 C 8.28 g/m*3 14.9 C 0 km/h
2091 15-08-2008 04:15:04 14.7 C 8.31 g/m*3 14.7 C 0 km/h
2092 15-08-2008 04:27:04 14.5 C 8.33 g/m*3 14.5 C 0 km/h
2093 15-08-2008 04:39:04 14.6 C 8.38 g/m*3 14.6 C 0 km/h
2094 15-08-2008 04:51:04 14.6 C 8.38 g/m*3 14.6 C 0 km/h
2095 15-08-2008 05:03:05 14.5 C 8.33 g/m*3 14.5 C 0 km/h
2096 15-08-2008 05:15:05 14.3 C 8.35 g/m*3 14.3 C 0 km/h
2097 15-08-2008 05:27:05 14 C 8.32 g/m*3 14 C 0 km/h
2098 15-08-2008 05:39:05 13.8 C 8.46 g/m*3 13.8 C 0 km/h
2099 15-08-2008 05:51:05 13.8 C 8.46 g/m*3 13.8 C 0 km/h
2100 15-08-2008 06:03:05 13.7 C 8.53 g/m*3 13.7 C 0 km/h
Sensor: Nr:Datum:Temp:Abs-Feuchte:Windchill:Wind:
Aussen-T/F 2101 15-08-2008 06:15:05 13.6 C 8.47 g/m*3 13.6 C 0 km/h
2102 15-08-2008 06:27:05 13.6 C 8.47 g/m*3 13.6 C 0 km/h
2103 15-08-2008 06:39:05 13.5 C 8.54 g/m*3 13.5 C 0 km/h
2104 15-08-2008 06:51:01 13.5 C 8.54 g/m*3 13.5 C 0 km/h
2105 15-08-2008 07:03:02 13.4 C 8.6 g/m*3 13.4 C 0 km/h
2106 15-08-2008 07:15:01 13.3 C 8.55 g/m*3 13.3 C 0 km/h
2107 15-08-2008 07:27:01 13 C 8.51 g/m*3 13 C 0 km/h
2108 15-08-2008 07:39:02 12.8 C 8.62 g/m*3 12.8 C 0 km/h
2109 15-08-2008 07:51:02 12.8 C 8.74 g/m*3 12.8 C 0 km/h
2110 15-08-2008 08:03:02 12.9 C 8.79 g/m*3 12.9 C 0 km/h
2111 15-08-2008 08:15:02 13 C 8.73 g/m*3 13 C 0 km/h
2112 15-08-2008 08:27:02 13.3 C 8.9 g/m*3 13.3 C 0 km/h
2113 15-08-2008 08:39:02 13.5 C 8.77 g/m*3 13.5 C 0 km/h
2114 15-08-2008 08:51:02 13.8 C 8.82 g/m*3 13.8 C 0 km/h
2115 15-08-2008 09:03:03 14.1 C 8.86 g/m*3 14.1 C 0 km/h
2116 15-08-2008 09:15:02 14.4 C 8.65 g/m*3 14.4 C 0 km/h
2117 15-08-2008 09:27:03 15 C 8.98 g/m*3 15 C 0 km/h
2118 15-08-2008 09:39:02 16 C 8.86 g/m*3 16 C 0 km/h
2119 15-08-2008 09:51:02 16.8 C 8.72 g/m*3 16.8 C 0 km/h
2120 15-08-2008 10:03:02 17.2 C 8.05 g/m*3 17.2 C 0 km/h
2121 15-08-2008 10:15:02 17.7 C 8.15 g/m*3 17.7 C 0 km/h
2122 15-08-2008 10:27:02 18.1 C 8.19 g/m*3 18.1 C 0 km/h
2123 15-08-2008 10:39:02 18.4 C 8.02 g/m*3 18.4 C 0 km/h
2124 15-08-2008 10:51:01 18.9 C 7.94 g/m*3 18.9 C 0 km/h
2125 15-08-2008 11:03:02 19.3 C 7.3 g/m*3 19.3 C 0 km/h
Sensor: Nr:Datum:Temp:Abs-Feuchte:Windchill:Wind:
Aussen-T/F 2126 15-08-2008 11:15:01 19.9 C 7.56 g/m*3 19.9 C 0 km/h
2127 15-08-2008 11:27:01 20.6 C 7.52 g/m*3 20.6 C 0 km/h
2128 15-08-2008 11:39:01 20.8 C 7.42 g/m*3 20.8 C 0 km/h
2129 15-08-2008 11:51:02 20.5 C 7.3 g/m*3 20.5 C 0 km/h
2130 15-08-2008 12:03:02 21.2 C 7.23 g/m*3 21.2 C 0 km/h
2131 15-08-2008 12:15:02 22.1 C 7.22 g/m*3 22.1 C 0 km/h
2132 15-08-2008 12:27:02 22.8 C 7.52 g/m*3 22.8 C 0 km/h
2133 15-08-2008 12:39:02 23 C 6.99 g/m*3 23 C 0 km/h
2134 15-08-2008 12:51:02 22.7 C 7.07 g/m*3 22.7 C 0 km/h
2135 15-08-2008 13:03:03 21.6 C 7.21 g/m*3 21.6 C 0 km/h
2136 15-08-2008 13:15:02 22 C 6.79 g/m*3 22 C 0 km/h
2137 15-08-2008 13:27:02 21.7 C 6.87 g/m*3 21.7 C 0 km/h
2138 15-08-2008 13:39:03 22.1 C 6.83 g/m*3 22.1 C 0 km/h
2139 15-08-2008 13:51:02 22.7 C 6.67 g/m*3 22.7 C 0 km/h
2140 15-08-2008 14:03:01 22.3 C 7.7 g/m*3 22.3 C 0 km/h
2141 15-08-2008 14:15:02 19.6 C 8.61 g/m*3 19.6 C 0 km/h
2142 15-08-2008 14:27:02 19.2 C 8.08 g/m*3 19.2 C 0 km/h
2143 15-08-2008 14:39:01 19.7 C 7.81 g/m*3 19.7 C 0 km/h
2144 15-08-2008 14:51:02 20.5 C 8.36 g/m*3 20.5 C 0 km/h
2145 15-08-2008 15:03:01 22.7 C 7.07 g/m*3 22.7 C 0 km/h
2146 15-08-2008 15:21:02 20.6 C 7.87 g/m*3 20.6 C 0 km/h
2147 15-08-2008 15:33:01 20.7 C 8.1 g/m*3 20.7 C 0 km/h
2148 15-08-2008 15:45:02 22 C 8.15 g/m*3 22 C 0 km/h
2149 15-08-2008 15:57:02 22.6 C 7.23 g/m*3 22.6 C 0 km/h
2150 15-08-2008 16:09:01 22.9 C 7.56 g/m*3 22.9 C 0 km/h
Sensor: Nr:Datum:Temp:Abs-Feuchte:Windchill:Wind:
Aussen-T/F 2151 15-08-2008 16:21:02 23.6 C 7.02 g/m*3 23.6 C 0 km/h
2152 15-08-2008 16:33:01 24.8 C 6.83 g/m*3 24.8 C 0 km/h
2153 15-08-2008 16:45:01 26.1 C 6.12 g/m*3 26.1 C 0 km/h
2154 15-08-2008 16:57:01 24.8 C 6.15 g/m*3 24.8 C 0 km/h
2155 15-08-2008 17:09:01 23.8 C 6.67 g/m*3 23.8 C 0 km/h
2156 15-08-2008 17:21:01 24.4 C 6.9 g/m*3 24.4 C 0 km/h
2157 15-08-2008 17:33:01 25.3 C 6.55 g/m*3 25.3 C 0 km/h
2158 15-08-2008 17:45:01 24.3 C 7.08 g/m*3 24.3 C 0 km/h
2159 15-08-2008 17:57:01 23.6 C 7.44 g/m*3 23.6 C 0 km/h
2160 15-08-2008 18:09:02 24 C 6.74 g/m*3 24 C 0 km/h
2161 15-08-2008 18:21:01 24 C 6.96 g/m*3 24 C 0 km/h
2162 15-08-2008 18:33:02 23.4 C 6.94 g/m*3 23.4 C 0 km/h
2163 15-08-2008 18:45:03 23.8 C 6.88 g/m*3 23.8 C 0 km/h
2164 15-08-2008 18:57:03 24.1 C 7 g/m*3 24.1 C 0 km/h
2165 15-08-2008 19:09:02 24.6 C 6.98 g/m*3 24.6 C 0 km/h
2166 15-08-2008 19:21:02 24.6 C 6.75 g/m*3 24.6 C 0 km/h
2167 15-08-2008 19:33:02 24.7 C 7.02 g/m*3 24.7 C 0 km/h
2168 15-08-2008 19:45:01 24.2 C 7.26 g/m*3 24.2 C 0 km/h
2169 15-08-2008 19:57:01 22 C 7.38 g/m*3 22 C 0 km/h
2170 15-08-2008 20:09:02 20.6 C 7.52 g/m*3 20.6 C 0 km/h
2171 15-08-2008 20:21:01 19.9 C 7.56 g/m*3 19.9 C 0 km/h
2172 15-08-2008 20:33:02 19.4 C 7.51 g/m*3 19.4 C 0 km/h
2173 15-08-2008 20:45:03 19.1 C 7.54 g/m*3 19.1 C 0 km/h
2174 15-08-2008 20:57:03 18.9 C 7.78 g/m*3 18.9 C 0 km/h
2175 15-08-2008 21:09:02 18.4 C 7.86 g/m*3 18.4 C 0 km/h
Sensor: Nr:Datum:Temp:Abs-Feuchte:Windchill:Wind:
Aussen-T/F 2176 15-08-2008 21:21:02 18.1 C 7.57 g/m*3 18.1 C 0 km/h
2177 15-08-2008 21:33:02 18.2 C 8.08 g/m*3 18.2 C 0 km/h
2178 15-08-2008 21:45:01 18 C 7.99 g/m*3 18 C 0 km/h
2179 15-08-2008 21:57:01 17.7 C 8.6 g/m*3 17.7 C 0 km/h
2180 15-08-2008 22:10:03 17.1 C 9.03 g/m*3 17.1 C 0 km/h
2181 15-08-2008 22:22:03 17.1 C 8.88 g/m*3 17.1 C 0 km/h
2182 15-08-2008 22:34:03 16.8 C 8.72 g/m*3 16.8 C 0 km/h
2183 15-08-2008 22:46:03 16.7 C 8.67 g/m*3 16.7 C 0 km/h
2184 15-08-2008 22:58:03 17 C 8.25 g/m*3 17 C 0 km/h
2185 15-08-2008 23:10:03 17 C 8.25 g/m*3 17 C 0 km/h
2186 15-08-2008 23:22:03 16.7 C 8.38 g/m*3 16.7 C 0 km/h
2187 15-08-2008 23:34:03 16.3 C 8.32 g/m*3 16.3 C 0 km/h
2188 15-08-2008 23:46:04 16 C 8.31 g/m*3 16 C 0 km/h
2189 15-08-2008 23:58:04 15.8 C 8.35 g/m*3 15.8 C 0 km/h
2190 16-08-2008 00:10:04 15.4 C 8.41 g/m*3 15.4 C 0 km/h
2191 16-08-2008 00:22:04 15.4 C 8.41 g/m*3 15.4 C 0 km/h
2192 16-08-2008 00:34:04 15.1 C 8.51 g/m*3 15.1 C 0 km/h
2193 16-08-2008 00:46:04 14.8 C 8.36 g/m*3 14.8 C 0 km/h
2194 16-08-2008 00:58:04 14.7 C 8.56 g/m*3 14.7 C 0 km/h
2195 16-08-2008 01:10:04 14.4 C 8.65 g/m*3 14.4 C 0 km/h
2196 16-08-2008 01:22:04 14.1 C 8.5 g/m*3 14.1 C 0 km/h
2197 16-08-2008 01:34:04 14.1 C 8.62 g/m*3 14.1 C 0 km/h
2198 16-08-2008 01:46:04 13.9 C 8.63 g/m*3 13.9 C 0 km/h
2199 16-08-2008 01:58:04 13.9 C 8.75 g/m*3 13.9 C 0 km/h
2200 16-08-2008 02:10:04 13.7 C 8.64 g/m*3 13.7 C 0 km/h
Sensor: Nr:Datum:Temp:Abs-Feuchte:Windchill:Wind:
Aussen-T/F 2201 16-08-2008 02:22:04 13.5 C 8.66 g/m*3 13.5 C 0 km/h
2202 16-08-2008 02:34:04 13.4 C 8.6 g/m*3 13.4 C 0 km/h
2203 16-08-2008 02:46:04 13.2 C 8.5 g/m*3 13.2 C 0 km/h
2204 16-08-2008 02:58:04 13.1 C 8.56 g/m*3 13.1 C 0 km/h
2205 16-08-2008 03:10:04 12.9 C 8.57 g/m*3 12.9 C 0 km/h
2206 16-08-2008 03:22:04 12.7 C 8.68 g/m*3 12.7 C 0 km/h
2207 16-08-2008 03:34:04 12.5 C 8.58 g/m*3 12.5 C 0 km/h
2208 16-08-2008 03:46:04 12.4 C 8.52 g/m*3 12.4 C 0 km/h
2209 16-08-2008 03:58:05 12.4 C 8.63 g/m*3 12.4 C 0 km/h
2210 16-08-2008 04:10:05 12.1 C 8.47 g/m*3 12.1 C 0 km/h
2211 16-08-2008 04:22:05 12 C 8.63 g/m*3 12 C 0 km/h
2212 16-08-2008 04:34:05 11.8 C 8.63 g/m*3 11.8 C 0 km/h
2213 16-08-2008 04:46:05 11.6 C 8.63 g/m*3 11.6 C 0 km/h
2214 16-08-2008 04:58:05 11.5 C 8.57 g/m*3 11.5 C 0 km/h
2215 16-08-2008 05:10:05 11.4 C 8.52 g/m*3 11.4 C 0 km/h
2216 16-08-2008 05:22:05 11.2 C 8.41 g/m*3 11.2 C 0 km/h
2217 16-08-2008 05:34:05 11.1 C 8.36 g/m*3 11.1 C 0 km/h
2218 16-08-2008 05:46:05 11 C 8.41 g/m*3 11 C 0 km/h
2219 16-08-2008 05:58:05 10.8 C 8.3 g/m*3 10.8 C 0 km/h
2220 16-08-2008 06:10:05 10.8 C 8.3 g/m*3 10.8 C 0 km/h
2221 16-08-2008 06:22:05 10.7 C 8.25 g/m*3 10.7 C 0 km/h
2222 16-08-2008 06:34:05 10.6 C 8.2 g/m*3 10.6 C 0 km/h
2223 16-08-2008 06:46:05 10.5 C 8.24 g/m*3 10.5 C 0 km/h
2224 16-08-2008 06:58:05 10.5 C 8.24 g/m*3 10.5 C 0 km/h
2225 16-08-2008 07:10:05 10.6 C 8.3 g/m*3 10.6 C 0 km/h
Sensor: Nr:Datum:Temp:Abs-Feuchte:Windchill:Wind:
Aussen-T/F 2226 16-08-2008 07:22:02 10.7 C 8.25 g/m*3 10.7 C 0 km/h
2227 16-08-2008 07:34:03 10.8 C 8.3 g/m*3 10.8 C 0 km/h
2228 16-08-2008 07:46:02 10.9 C 8.36 g/m*3 10.9 C 0 km/h
2229 16-08-2008 07:58:02 11 C 8.41 g/m*3 11 C 0 km/h
2230 16-08-2008 08:10:02 11.1 C 8.46 g/m*3 11.1 C 0 km/h
2231 16-08-2008 08:22:02 11.4 C 8.62 g/m*3 11.4 C 0 km/h
2232 16-08-2008 08:34:02 11.6 C 8.73 g/m*3 11.6 C 0 km/h
2233 16-08-2008 08:46:03 12 C 8.74 g/m*3 12 C 0 km/h
2234 16-08-2008 08:58:03 12.2 C 8.63 g/m*3 12.2 C 0 km/h
2235 16-08-2008 09:10:02 12.6 C 8.74 g/m*3 12.6 C 0 km/h
2236 16-08-2008 09:22:03 13 C 8.62 g/m*3 13 C 0 km/h
2237 16-08-2008 09:34:02 13.5 C 8.77 g/m*3 13.5 C 0 km/h
2238 16-08-2008 09:46:02 14.1 C 8.74 g/m*3 14.1 C 0 km/h
2239 16-08-2008 09:58:02 14.7 C 8.69 g/m*3 14.7 C 0 km/h
2240 16-08-2008 10:10:02 15.3 C 8.75 g/m*3 15.3 C 0 km/h
2241 16-08-2008 10:22:02 16.1 C 8.77 g/m*3 16.1 C 0 km/h
2242 16-08-2008 10:34:02 16.7 C 8.81 g/m*3 16.7 C 0 km/h
2243 16-08-2008 10:46:02 17.4 C 8.74 g/m*3 17.4 C 0 km/h
2244 16-08-2008 10:58:02 18.1 C 8.5 g/m*3 18.1 C 0 km/h
2245 16-08-2008 11:10:01 18.9 C 8.59 g/m*3 18.9 C 0 km/h
2246 16-08-2008 11:22:02 20 C 8.64 g/m*3 20 C 0 km/h
2247 16-08-2008 11:34:01 20.7 C 8.28 g/m*3 20.7 C 0 km/h
2248 16-08-2008 11:46:01 20.4 C 7.78 g/m*3 20.4 C 0 km/h
2249 16-08-2008 11:58:01 20.8 C 7.97 g/m*3 20.8 C 0 km/h
2250 16-08-2008 12:10:01 21.4 C 7.31 g/m*3 21.4 C 0 km/h
Sensor: Nr:Datum:Temp:Abs-Feuchte:Windchill:Wind:
Aussen-T/F 2251 16-08-2008 12:22:01 22.1 C 6.83 g/m*3 22.1 C 0 km/h
2252 16-08-2008 12:34:01 22.5 C 6.99 g/m*3 22.5 C 0 km/h
2253 16-08-2008 12:46:01 22.4 C 6.16 g/m*3 22.4 C 0 km/h
2254 16-08-2008 12:58:01 22.5 C 5.79 g/m*3 22.5 C 0 km/h
2255 16-08-2008 13:10:02 22.7 C 5.66 g/m*3 22.7 C 0 km/h
2256 16-08-2008 13:22:01 23.5 C 5.5 g/m*3 23.5 C 0 km/h
2257 16-08-2008 13:34:02 24.8 C 5.92 g/m*3 24.8 C 0 km/h
2258 16-08-2008 13:46:02 25.1 C 5.32 g/m*3 25.1 C 0 km/h
2259 16-08-2008 13:58:03 25.2 C 4.89 g/m*3 25.2 C 0 km/h
2260 16-08-2008 14:10:02 24.8 C 5.01 g/m*3 24.8 C 0 km/h
2261 16-08-2008 14:22:02 25.7 C 5.51 g/m*3 25.7 C 0 km/h
2262 16-08-2008 14:34:01 26.7 C 5.06 g/m*3 26.7 C 0 km/h
2263 16-08-2008 14:46:02 26.8 C 5.09 g/m*3 26.8 C 0 km/h
2264 16-08-2008 14:58:02 27.2 C 5.2 g/m*3 27.2 C 0 km/h
2265 16-08-2008 15:10:02 27.8 C 5.38 g/m*3 27.8 C 0 km/h
2266 16-08-2008 15:22:02 28.3 C 5.53 g/m*3 28.3 C 0 km/h
2267 16-08-2008 15:34:02 28.8 C 5.68 g/m*3 28.8 C 0 km/h
2268 16-08-2008 15:46:01 29.4 C 5.87 g/m*3 29.4 C 0 km/h
2269 16-08-2008 15:58:01 29.9 C 6.03 g/m*3 29.9 C 0 km/h
2270 16-08-2008 16:10:02 30.2 C 6.13 g/m*3 30.2 C 0 km/h
2271 16-08-2008 16:22:01 29.8 C 6 g/m*3 29.8 C 0 km/h
2272 16-08-2008 16:34:02 29.8 C 6 g/m*3 29.8 C 0 km/h
2273 16-08-2008 16:46:02 30.2 C 6.13 g/m*3 30.2 C 0 km/h
2274 16-08-2008 16:58:02 30.6 C 6.26 g/m*3 30.6 C 0 km/h
2275 16-08-2008 17:10:02 30.9 C 6.37 g/m*3 30.9 C 0 km/h
Sensor: Nr:Datum:Temp:Abs-Feuchte:Windchill:Wind:
Aussen-T/F 2276 16-08-2008 17:22:02 29.2 C 5.81 g/m*3 29.2 C 0 km/h
2277 16-08-2008 17:34:02 28.6 C 5.62 g/m*3 28.6 C 0 km/h
2278 16-08-2008 17:46:02 29 C 5.74 g/m*3 29 C 0 km/h
2279 16-08-2008 17:58:02 29.5 C 5.9 g/m*3 29.5 C 0 km/h
2280 16-08-2008 18:10:01 30.3 C 6.16 g/m*3 30.3 C 0 km/h
2281 16-08-2008 18:22:02 30.3 C 6.16 g/m*3 30.3 C 0 km/h
2282 16-08-2008 18:34:01 30.3 C 6.16 g/m*3 30.3 C 0 km/h
2283 16-08-2008 18:46:01 30.1 C 6.1 g/m*3 30.1 C 0 km/h
2284 16-08-2008 18:58:01 29.7 C 5.97 g/m*3 29.7 C 0 km/h
2285 16-08-2008 19:10:02 28.4 C 5.56 g/m*3 28.4 C 0 km/h
2286 16-08-2008 19:22:01 26.5 C 6.26 g/m*3 26.5 C 0 km/h
2287 16-08-2008 19:34:02 24.9 C 6.18 g/m*3 24.9 C 0 km/h
2288 16-08-2008 19:46:01 23.6 C 6.38 g/m*3 23.6 C 0 km/h
2289 16-08-2008 19:58:01 22.8 C 6.3 g/m*3 22.8 C 0 km/h
2290 16-08-2008 20:10:02 22 C 6.4 g/m*3 22 C 0 km/h
2291 16-08-2008 20:22:02 21.3 C 6.52 g/m*3 21.3 C 0 km/h
2292 16-08-2008 20:34:02 20.8 C 6.7 g/m*3 20.8 C 0 km/h
2293 16-08-2008 20:46:02 20.6 C 6.8 g/m*3 20.6 C 0 km/h
2294 16-08-2008 20:58:02 19.6 C 6.92 g/m*3 19.6 C 0 km/h
2295 16-08-2008 21:10:02 19.2 C 6.76 g/m*3 19.2 C 0 km/h
2296 16-08-2008 21:22:01 19 C 6.84 g/m*3 19 C 0 km/h
2297 16-08-2008 21:34:02 18.9 C 6.97 g/m*3 18.9 C 0 km/h
2298 16-08-2008 21:46:02 18.7 C 7.04 g/m*3 18.7 C 0 km/h
2299 16-08-2008 21:58:02 18.6 C 7.16 g/m*3 18.6 C 0 km/h
2300 16-08-2008 22:10:02 18.5 C 7.28 g/m*3 18.5 C 0 km/h
Sensor: Nr:Datum:Temp:Abs-Feuchte:Windchill:Wind:
Aussen-T/F 2301 16-08-2008 22:23:02 18.5 C 7.28 g/m*3 18.5 C 0 km/h
2302 16-08-2008 22:35:02 18.2 C 7.15 g/m*3 18.2 C 0 km/h
2303 16-08-2008 22:47:02 18.2 C 7.15 g/m*3 18.2 C 0 km/h
2304 16-08-2008 22:59:02 18 C 7.07 g/m*3 18 C 0 km/h
2305 16-08-2008 23:11:02 17.8 C 7.59 g/m*3 17.8 C 0 km/h
2306 16-08-2008 23:23:02 17.5 C 7.75 g/m*3 17.5 C 0 km/h
2307 16-08-2008 23:35:02 17.3 C 7.37 g/m*3 17.3 C 0 km/h
2308 16-08-2008 23:47:02 17.1 C 7.42 g/m*3 17.1 C 0 km/h
2309 16-08-2008 23:59:03 16.9 C 7.19 g/m*3 16.9 C 0 km/h
2310 17-08-2008 00:11:03 16.6 C 7.06 g/m*3 16.6 C 0 km/h
2311 17-08-2008 00:23:03 16.2 C 7.03 g/m*3 16.2 C 0 km/h
2312 17-08-2008 00:35:03 16.1 C 7.26 g/m*3 16.1 C 0 km/h
2313 17-08-2008 00:47:03 15.9 C 7.31 g/m*3 15.9 C 0 km/h
2314 17-08-2008 00:59:03 15.8 C 7.4 g/m*3 15.8 C 0 km/h
2315 17-08-2008 01:11:03 15.6 C 7.45 g/m*3 15.6 C 0 km/h
2316 17-08-2008 01:23:03 15.3 C 7.44 g/m*3 15.3 C 0 km/h
2317 17-08-2008 01:35:03 15.1 C 7.48 g/m*3 15.1 C 0 km/h
2318 17-08-2008 01:47:03 14.9 C 7.52 g/m*3 14.9 C 0 km/h
2319 17-08-2008 01:59:03 14.8 C 7.6 g/m*3 14.8 C 0 km/h
2320 17-08-2008 02:11:03 14.7 C 7.55 g/m*3 14.7 C 0 km/h
2321 17-08-2008 02:23:03 14.4 C 7.54 g/m*3 14.4 C 0 km/h
2322 17-08-2008 02:35:03 14.4 C 7.66 g/m*3 14.4 C 0 km/h
2323 17-08-2008 02:47:03 14.3 C 7.62 g/m*3 14.3 C 0 km/h
2324 17-08-2008 02:59:03 14.1 C 7.65 g/m*3 14.1 C 0 km/h
2325 17-08-2008 03:11:03 13.8 C 7.86 g/m*3 13.8 C 0 km/h
Sensor: Nr:Datum:Temp:Abs-Feuchte:Windchill:Wind:
Aussen-T/F 2326 17-08-2008 03:23:03 13.7 C 7.82 g/m*3 13.7 C 0 km/h
2327 17-08-2008 03:35:03 13.7 C 7.82 g/m*3 13.7 C 0 km/h
2328 17-08-2008 03:47:03 13.5 C 7.72 g/m*3 13.5 C 0 km/h
2329 17-08-2008 03:59:03 13.6 C 7.77 g/m*3 13.6 C 0 km/h
2330 17-08-2008 04:11:04 13.4 C 7.79 g/m*3 13.4 C 0 km/h
2331 17-08-2008 04:23:04 13.1 C 7.76 g/m*3 13.1 C 0 km/h
2332 17-08-2008 04:35:04 13.1 C 7.87 g/m*3 13.1 C 0 km/h
2333 17-08-2008 04:47:04 12.9 C 7.89 g/m*3 12.9 C 0 km/h
2334 17-08-2008 04:59:04 12.9 C 7.89 g/m*3 12.9 C 0 km/h
2335 17-08-2008 05:11:04 12.8 C 7.95 g/m*3 12.8 C 0 km/h
2336 17-08-2008 05:23:04 12.7 C 7.9 g/m*3 12.7 C 0 km/h
2337 17-08-2008 05:35:04 12.5 C 7.92 g/m*3 12.5 C 0 km/h
2338 17-08-2008 05:47:04 12.3 C 7.82 g/m*3 12.3 C 0 km/h
2339 17-08-2008 05:59:04 12.4 C 7.98 g/m*3 12.4 C 0 km/h
2340 17-08-2008 06:11:04 12.2 C 7.88 g/m*3 12.2 C 0 km/h
2341 17-08-2008 06:23:04 12.1 C 7.94 g/m*3 12.1 C 0 km/h
2342 17-08-2008 06:35:04 11.9 C 8.05 g/m*3 11.9 C 0 km/h
2343 17-08-2008 06:47:04 11.9 C 8.05 g/m*3 11.9 C 0 km/h
2344 17-08-2008 06:59:04 12 C 7.99 g/m*3 12 C 0 km/h
2345 17-08-2008 07:11:04 12 C 7.99 g/m*3 12 C 0 km/h
2346 17-08-2008 07:23:04 12 C 8.1 g/m*3 12 C 0 km/h
2347 17-08-2008 07:35:04 12 C 8.1 g/m*3 12 C 0 km/h
2348 17-08-2008 07:47:04 12.1 C 8.15 g/m*3 12.1 C 0 km/h
2349 17-08-2008 07:59:04 12.5 C 8.36 g/m*3 12.5 C 0 km/h
2350 17-08-2008 08:11:05 12.5 C 8.36 g/m*3 12.5 C 0 km/h
Sensor: Nr:Datum:Temp:Abs-Feuchte:Windchill:Wind:
Aussen-T/F 2351 17-08-2008 08:23:05 12.6 C 8.3 g/m*3 12.6 C 0 km/h
2352 17-08-2008 08:35:05 12.9 C 8.45 g/m*3 12.9 C 0 km/h
2353 17-08-2008 08:47:05 13.2 C 8.38 g/m*3 13.2 C 0 km/h
2354 17-08-2008 08:59:05 13.6 C 8.47 g/m*3 13.6 C 0 km/h
2355 17-08-2008 09:11:02 13.9 C 8.51 g/m*3 13.9 C 0 km/h
2356 17-08-2008 09:23:03 14.6 C 8.51 g/m*3 14.6 C 0 km/h
2357 17-08-2008 09:35:03 15.1 C 8.39 g/m*3 15.1 C 0 km/h
2358 17-08-2008 09:47:01 15.5 C 8.46 g/m*3 15.5 C 0 km/h
2359 17-08-2008 09:59:01 16.2 C 8.69 g/m*3 16.2 C 0 km/h
2360 17-08-2008 10:11:03 17.1 C 8.88 g/m*3 17.1 C 0 km/h
2361 17-08-2008 10:23:02 17.8 C 8.95 g/m*3 17.8 C 0 km/h
2362 17-08-2008 10:35:02 18.7 C 9.13 g/m*3 18.7 C 0 km/h
2363 17-08-2008 10:47:02 19.6 C 8.95 g/m*3 19.6 C 0 km/h
2364 17-08-2008 10:59:02 20.2 C 8.92 g/m*3 20.2 C 0 km/h
2365 17-08-2008 11:11:03 21 C 8.61 g/m*3 21 C 0 km/h
2366 17-08-2008 11:23:03 21.8 C 8.83 g/m*3 21.8 C 0 km/h
2367 17-08-2008 11:35:03 22.5 C 8.19 g/m*3 22.5 C 0 km/h
2368 17-08-2008 11:47:02 22.9 C 7.77 g/m*3 22.9 C 0 km/h
2369 17-08-2008 11:59:02 23.1 C 7.23 g/m*3 23.1 C 0 km/h
2370 17-08-2008 12:11:02 23.7 C 6.84 g/m*3 23.7 C 0 km/h
2371 17-08-2008 12:23:02 24.3 C 6.64 g/m*3 24.3 C 0 km/h
2372 17-08-2008 12:35:02 24.1 C 5.69 g/m*3 24.1 C 0 km/h
2373 17-08-2008 12:47:03 24.5 C 5.6 g/m*3 24.5 C 0 km/h
2374 17-08-2008 12:59:03 24.5 C 4.7 g/m*3 24.5 C 0 km/h
2375 17-08-2008 13:11:02 25 C 4.83 g/m*3 25 C 0 km/h
Sensor: Nr:Datum:Temp:Abs-Feuchte:Windchill:Wind:
Aussen-T/F 2376 17-08-2008 13:23:02 25.5 C 4.73 g/m*3 25.5 C 0 km/h
2377 17-08-2008 13:35:02 26.4 C 4.98 g/m*3 26.4 C 0 km/h
2378 17-08-2008 13:47:02 26.1 C 4.9 g/m*3 26.1 C 0 km/h
2379 17-08-2008 13:59:02 26.6 C 5.03 g/m*3 26.6 C 0 km/h
2380 17-08-2008 14:11:02 26.3 C 4.95 g/m*3 26.3 C 0 km/h
2381 17-08-2008 14:23:01 26.2 C 5.17 g/m*3 26.2 C 0 km/h
2382 17-08-2008 14:35:01 26.8 C 5.35 g/m*3 26.8 C 0 km/h
2383 17-08-2008 14:47:01 26.8 C 5.6 g/m*3 26.8 C 0 km/h
2384 17-08-2008 14:59:01 25.9 C 5.57 g/m*3 25.9 C 0 km/h
2385 17-08-2008 15:11:02 25.1 C 5.56 g/m*3 25.1 C 0 km/h
2386 17-08-2008 15:23:01 25.3 C 5.62 g/m*3 25.3 C 0 km/h
2387 17-08-2008 15:35:01 25.7 C 5.99 g/m*3 25.7 C 0 km/h
2388 17-08-2008 15:47:02 27.6 C 5.59 g/m*3 27.6 C 0 km/h
2389 17-08-2008 15:59:02 28.5 C 5.87 g/m*3 28.5 C 0 km/h
2390 17-08-2008 16:11:02 27.9 C 5.68 g/m*3 27.9 C 0 km/h
2391 17-08-2008 16:23:02 27.1 C 5.69 g/m*3 27.1 C 0 km/h
2392 17-08-2008 16:35:01 27.1 C 5.43 g/m*3 27.1 C 0 km/h
2393 17-08-2008 16:47:02 26.3 C 5.45 g/m*3 26.3 C 0 km/h
2394 17-08-2008 16:59:02 26.6 C 5.54 g/m*3 26.6 C 0 km/h
2395 17-08-2008 17:11:01 26.3 C 5.69 g/m*3 26.3 C 0 km/h
2396 17-08-2008 17:23:02 26 C 5.84 g/m*3 26 C 0 km/h
2397 17-08-2008 17:35:01 25.9 C 6.54 g/m*3 25.9 C 0 km/h
2398 17-08-2008 17:47:01 25.4 C 6.12 g/m*3 25.4 C 0 km/h
2399 17-08-2008 17:59:01 25.4 C 6.83 g/m*3 25.4 C 0 km/h
2400 17-08-2008 18:11:02 25.2 C 6.98 g/m*3 25.2 C 0 km/h
Sensor: Nr:Datum:Temp:Abs-Feuchte:Windchill:Wind:
Aussen-T/F 2401 17-08-2008 18:23:01 25.2 C 6.52 g/m*3 25.2 C 0 km/h
2402 17-08-2008 18:35:02 24.9 C 6.87 g/m*3 24.9 C 0 km/h
2403 17-08-2008 18:47:02 24.6 C 6.75 g/m*3 24.6 C 0 km/h
2404 17-08-2008 18:59:02 24.6 C 6.98 g/m*3 24.6 C 0 km/h
2405 17-08-2008 19:11:02 25.4 C 7.06 g/m*3 25.4 C 0 km/h
2406 17-08-2008 19:23:02 24.8 C 7.28 g/m*3 24.8 C 0 km/h
2407 17-08-2008 19:35:02 23.9 C 7.79 g/m*3 23.9 C 0 km/h
2408 17-08-2008 19:47:01 23.7 C 7.7 g/m*3 23.7 C 0 km/h
2409 17-08-2008 19:59:01 24.1 C 7.88 g/m*3 24.1 C 0 km/h
2410 17-08-2008 20:11:01 23.3 C 7.95 g/m*3 23.3 C 0 km/h
2411 17-08-2008 20:23:01 22.1 C 7.81 g/m*3 22.1 C 0 km/h
2412 17-08-2008 20:35:02 21.4 C 8.06 g/m*3 21.4 C 0 km/h
2413 17-08-2008 20:47:02 21.1 C 7.92 g/m*3 21.1 C 0 km/h
2414 17-08-2008 20:59:02 20.8 C 8.33 g/m*3 20.8 C 0 km/h
2415 17-08-2008 21:11:02 20.8 C 8.15 g/m*3 20.8 C 0 km/h
2416 17-08-2008 21:23:02 21 C 8.06 g/m*3 21 C 0 km/h
2417 17-08-2008 21:35:02 20.1 C 9.56 g/m*3 20.1 C 0 km/h
2418 17-08-2008 21:47:02 17.7 C 11.32 g/m*3 17.7 C 0 km/h
2419 17-08-2008 21:59:02 17.3 C 11.93 g/m*3 17.3 C 0 km/h
2420 17-08-2008 22:11:01 17.4 C 12.3 g/m*3 17.4 C 0 km/h
2421 17-08-2008 22:23:02 17.6 C 12.6 g/m*3 17.6 C 0 km/h
2422 17-08-2008 22:36:02 17.3 C 12.08 g/m*3 17.3 C 0 km/h
2423 17-08-2008 22:48:02 17.2 C 11.86 g/m*3 17.2 C 0 km/h
2424 17-08-2008 23:00:02 17 C 11.72 g/m*3 17 C 0 km/h
2425 17-08-2008 23:12:02 16.8 C 11.58 g/m*3 16.8 C 0 km/h
Sensor: Nr:Datum:Temp:Abs-Feuchte:Windchill:Wind:
Aussen-T/F 2426 17-08-2008 23:24:02 16.5 C 11.37 g/m*3 16.5 C 0 km/h
2427 17-08-2008 23:36:02 16.3 C 11.38 g/m*3 16.3 C 0 km/h
2428 17-08-2008 23:48:02 16.1 C 11.24 g/m*3 16.1 C 0 km/h
2429 18-08-2008 00:00:02 16.1 C 11.24 g/m*3 16.1 C 0 km/h
2430 18-08-2008 00:12:02 16 C 11.17 g/m*3 16 C 0 km/h
2431 18-08-2008 00:24:02 16.1 C 11.24 g/m*3 16.1 C 0 km/h
2432 18-08-2008 00:36:03 16.1 C 11.24 g/m*3 16.1 C 0 km/h
2433 18-08-2008 00:48:03 16.4 C 11.45 g/m*3 16.4 C 0 km/h
2434 18-08-2008 01:00:03 16.5 C 11.37 g/m*3 16.5 C 0 km/h
2435 18-08-2008 01:12:03 16.5 C 11.37 g/m*3 16.5 C 0 km/h
2436 18-08-2008 01:24:03 16.6 C 11.44 g/m*3 16.6 C 0 km/h
2437 18-08-2008 01:36:03 16.5 C 11.37 g/m*3 16.5 C 0 km/h
2438 18-08-2008 01:48:03 16.6 C 11.44 g/m*3 16.6 C 0 km/h
2439 18-08-2008 02:00:03 16.6 C 11.44 g/m*3 16.6 C 0 km/h
2440 18-08-2008 02:12:03 16.6 C 11.44 g/m*3 16.6 C 0 km/h
2441 18-08-2008 02:24:03 16.6 C 11.44 g/m*3 16.6 C 0 km/h
2442 18-08-2008 02:36:03 16.7 C 11.51 g/m*3 16.7 C 0 km/h
2443 18-08-2008 02:48:03 16.4 C 11.31 g/m*3 16.4 C 0 km/h
2444 18-08-2008 03:00:03 16.3 C 11.38 g/m*3 16.3 C 0 km/h
2445 18-08-2008 03:12:03 16.2 C 11.31 g/m*3 16.2 C 0 km/h
2446 18-08-2008 03:24:03 16 C 11.17 g/m*3 16 C 0 km/h
2447 18-08-2008 03:36:03 15.8 C 11.31 g/m*3 15.8 C 0 km/h
2448 18-08-2008 03:48:03 15.5 C 11.1 g/m*3 15.5 C 0 km/h
2449 18-08-2008 04:00:03 15.4 C 11.04 g/m*3 15.4 C 0 km/h
2450 18-08-2008 04:12:03 15.4 C 11.17 g/m*3 15.4 C 0 km/h
Sensor: Nr:Datum:Temp:Abs-Feuchte:Windchill:Wind:
Aussen-T/F 2451 18-08-2008 04:24:03 15.4 C 11.17 g/m*3 15.4 C 0 km/h
2452 18-08-2008 04:36:03 15.4 C 11.17 g/m*3 15.4 C 0 km/h
2453 18-08-2008 04:48:04 15.5 C 11.24 g/m*3 15.5 C 0 km/h
2454 18-08-2008 05:00:04 15.5 C 11.24 g/m*3 15.5 C 0 km/h
2455 18-08-2008 05:12:04 15.7 C 11.51 g/m*3 15.7 C 0 km/h
2456 18-08-2008 05:24:04 15.8 C 11.44 g/m*3 15.8 C 0 km/h
2457 18-08-2008 05:36:04 15.7 C 11.24 g/m*3 15.7 C 0 km/h
2458 18-08-2008 05:48:04 15.8 C 11.44 g/m*3 15.8 C 0 km/h
2459 18-08-2008 06:00:04 15.9 C 11.38 g/m*3 15.9 C 0 km/h
2460 18-08-2008 06:12:04 15.9 C 11.38 g/m*3 15.9 C 0 km/h
2461 18-08-2008 06:24:04 15.5 C 11.1 g/m*3 15.5 C 0 km/h
2462 18-08-2008 06:36:04 15.3 C 10.97 g/m*3 15.3 C 0 km/h
2463 18-08-2008 06:48:02 15.2 C 11.03 g/m*3 15.2 C 0 km/h
2464 18-08-2008 07:00:03 15.2 C 11.03 g/m*3 15.2 C 0 km/h
2465 18-08-2008 07:12:02 15.2 C 11.16 g/m*3 15.2 C 0 km/h
2466 18-08-2008 07:24:02 15.2 C 11.16 g/m*3 15.2 C 0 km/h
2467 18-08-2008 07:36:02 15.2 C 11.29 g/m*3 15.2 C 0 km/h
2468 18-08-2008 07:48:02 15.3 C 11.36 g/m*3 15.3 C 0 km/h
2469 18-08-2008 08:00:02 15.5 C 11.5 g/m*3 15.5 C 0 km/h
2470 18-08-2008 08:12:01 15.9 C 11.65 g/m*3 15.9 C 0 km/h
2471 18-08-2008 08:24:02 16.4 C 11.72 g/m*3 16.4 C 0 km/h
2472 18-08-2008 08:36:01 16.8 C 11.72 g/m*3 16.8 C 0 km/h
2473 18-08-2008 08:48:02 17.1 C 11.5 g/m*3 17.1 C 0 km/h
2474 18-08-2008 09:00:02 17.9 C 11.76 g/m*3 17.9 C 0 km/h
2475 18-08-2008 09:12:01 18.3 C 11.57 g/m*3 18.3 C 0 km/h
Sensor: Nr:Datum:Temp:Abs-Feuchte:Windchill:Wind:
Aussen-T/F 2476 18-08-2008 09:24:01 18.8 C 11.76 g/m*3 18.8 C 0 km/h
2477 18-08-2008 09:36:01 19.6 C 11.65 g/m*3 19.6 C 0 km/h
2478 18-08-2008 09:48:02 20 C 10.89 g/m*3 20 C 0 km/h
2479 18-08-2008 10:00:02 20.1 C 10.95 g/m*3 20.1 C 0 km/h
2480 18-08-2008 10:12:02 20.4 C 10.79 g/m*3 20.4 C 0 km/h
2481 18-08-2008 10:24:02 20.6 C 11.1 g/m*3 20.6 C 0 km/h
2482 18-08-2008 10:36:02 21 C 10.62 g/m*3 21 C 0 km/h
2483 18-08-2008 10:48:02 21.3 C 10.44 g/m*3 21.3 C 0 km/h
2484 18-08-2008 11:00:02 21.6 C 10.24 g/m*3 21.6 C 0 km/h
2485 18-08-2008 11:12:02 22 C 10.48 g/m*3 22 C 0 km/h
2486 18-08-2008 11:24:03 22.5 C 10.39 g/m*3 22.5 C 0 km/h
2487 18-08-2008 11:36:02 22.7 C 9.7 g/m*3 22.7 C 0 km/h
2488 18-08-2008 11:48:02 23.2 C 9.77 g/m*3 23.2 C 0 km/h
2489 18-08-2008 12:00:02 23.8 C 9.46 g/m*3 23.8 C 0 km/h
2490 18-08-2008 12:12:02 23.9 C 9.52 g/m*3 23.9 C 0 km/h
2491 18-08-2008 12:24:02 23.5 C 9.52 g/m*3 23.5 C 0 km/h
2492 18-08-2008 12:36:02 23.6 C 9.36 g/m*3 23.6 C 0 km/h
2493 18-08-2008 12:48:01 23.5 C 9.31 g/m*3 23.5 C 0 km/h
2494 18-08-2008 13:00:01 23.7 C 9.41 g/m*3 23.7 C 0 km/h
2495 18-08-2008 13:12:02 24.1 C 9.41 g/m*3 24.1 C 0 km/h
2496 18-08-2008 13:24:01 24.8 C 9.1 g/m*3 24.8 C 0 km/h
2497 18-08-2008 13:36:02 25.5 C 9 g/m*3 25.5 C 0 km/h
2498 18-08-2008 13:48:02 25.9 C 8.72 g/m*3 25.9 C 0 km/h
2499 18-08-2008 14:00:02 24.7 C 8.6 g/m*3 24.7 C 0 km/h
2500 18-08-2008 14:12:02 24.6 C 8.78 g/m*3 24.6 C 0 km/h
Sensor: Nr:Datum:Temp:Abs-Feuchte:Windchill:Wind:
Aussen-T/F 2501 18-08-2008 14:24:02 23.9 C 9.3 g/m*3 23.9 C 0 km/h
2502 18-08-2008 14:36:02 24.7 C 9.05 g/m*3 24.7 C 0 km/h
2503 18-08-2008 14:48:01 25.3 C 8.66 g/m*3 25.3 C 0 km/h
2504 18-08-2008 15:00:01 25.4 C 8.48 g/m*3 25.4 C 0 km/h
2505 18-08-2008 15:12:01 25.5 C 8.29 g/m*3 25.5 C 0 km/h
2506 18-08-2008 15:24:01 25.3 C 8.19 g/m*3 25.3 C 0 km/h
2507 18-08-2008 15:36:02 25.2 C 8.15 g/m*3 25.2 C 0 km/h
2508 18-08-2008 15:48:02 25.1 C 8.1 g/m*3 25.1 C 0 km/h
2509 18-08-2008 16:00:02 25.4 C 8.71 g/m*3 25.4 C 0 km/h
2510 18-08-2008 16:12:02 25.7 C 9.1 g/m*3 25.7 C 0 km/h
2511 18-08-2008 16:24:02 26.2 C 8.62 g/m*3 26.2 C 0 km/h
2512 18-08-2008 16:36:02 26.4 C 8.46 g/m*3 26.4 C 0 km/h
2513 18-08-2008 16:48:02 27.9 C 8.11 g/m*3 27.9 C 0 km/h
2514 18-08-2008 17:00:02 29 C 7.76 g/m*3 29 C 0 km/h
2515 18-08-2008 17:12:02 29.8 C 7.2 g/m*3 29.8 C 0 km/h
2516 18-08-2008 17:24:02 29.4 C 7.34 g/m*3 29.4 C 0 km/h
2517 18-08-2008 17:36:02 28.6 C 7.03 g/m*3 28.6 C 0 km/h
2518 18-08-2008 17:48:02 29.7 C 6.86 g/m*3 29.7 C 0 km/h
2519 18-08-2008 18:00:02 30 C 6.97 g/m*3 30 C 0 km/h
2520 18-08-2008 18:12:03 29.6 C 6.83 g/m*3 29.6 C 0 km/h
2521 18-08-2008 18:24:02 28.5 C 6.99 g/m*3 28.5 C 0 km/h
2522 18-08-2008 18:36:03 28.9 C 7.14 g/m*3 28.9 C 0 km/h
2523 18-08-2008 18:48:02 28 C 7.07 g/m*3 28 C 0 km/h
2524 18-08-2008 19:00:03 28 C 7.34 g/m*3 28 C 0 km/h
2525 18-08-2008 19:12:01 28 C 7.34 g/m*3 28 C 0 km/h
Sensor: Nr:Datum:Temp:Abs-Feuchte:Windchill:Wind:
Aussen-T/F 2526 18-08-2008 19:24:02 27.5 C 7.67 g/m*3 27.5 C 0 km/h
2527 18-08-2008 19:36:01 27.6 C 7.71 g/m*3 27.6 C 0 km/h
2528 18-08-2008 19:48:02 28.2 C 8.25 g/m*3 28.2 C 0 km/h
2529 18-08-2008 20:00:02 27.5 C 8.2 g/m*3 27.5 C 0 km/h
2530 18-08-2008 20:12:01 26.3 C 8.66 g/m*3 26.3 C 0 km/h
2531 18-08-2008 20:24:02 25.3 C 8.9 g/m*3 25.3 C 0 km/h
2532 18-08-2008 20:36:01 24.6 C 9.23 g/m*3 24.6 C 0 km/h
2533 18-08-2008 20:48:03 24.1 C 9.19 g/m*3 24.1 C 0 km/h
2534 18-08-2008 21:00:03 23.7 C 9.63 g/m*3 23.7 C 0 km/h
2535 18-08-2008 21:12:02 23.4 C 9.25 g/m*3 23.4 C 0 km/h
2536 18-08-2008 21:24:03 23 C 9.45 g/m*3 23 C 0 km/h
2537 18-08-2008 21:36:02 22.8 C 9.35 g/m*3 22.8 C 0 km/h
2538 18-08-2008 21:48:02 22.6 C 9.64 g/m*3 22.6 C 0 km/h
2539 18-08-2008 22:00:02 22.4 C 9.33 g/m*3 22.4 C 0 km/h
2540 18-08-2008 22:13:01 22.4 C 9.33 g/m*3 22.4 C 0 km/h
2541 18-08-2008 22:25:01 22.3 C 9.48 g/m*3 22.3 C 0 km/h
2542 18-08-2008 22:37:01 22.1 C 9.56 g/m*3 22.1 C 0 km/h
2543 18-08-2008 22:49:01 22 C 9.32 g/m*3 22 C 0 km/h
2544 18-08-2008 23:01:01 21.9 C 9.46 g/m*3 21.9 C 0 km/h
2545 18-08-2008 23:13:01 22 C 9.12 g/m*3 22 C 0 km/h
2546 18-08-2008 23:25:01 21.8 C 9.78 g/m*3 21.8 C 0 km/h
2547 18-08-2008 23:37:01 21.7 C 9.92 g/m*3 21.7 C 0 km/h
2548 18-08-2008 23:49:01 21.6 C 9.86 g/m*3 21.6 C 0 km/h
2549 19-08-2008 00:01:01 21.8 C 9.98 g/m*3 21.8 C 0 km/h
2550 19-08-2008 00:13:01 22 C 10.29 g/m*3 22 C 0 km/h
Sensor: Nr:Datum:Temp:Abs-Feuchte:Windchill:Wind:
Aussen-T/F 2551 19-08-2008 00:25:02 20.7 C 11.34 g/m*3 20.7 C 0 km/h
2552 19-08-2008 00:37:02 20.5 C 11.74 g/m*3 20.5 C 0 km/h
2553 19-08-2008 00:49:02 20.5 C 11.92 g/m*3 20.5 C 0 km/h
2554 19-08-2008 01:01:02 20.6 C 12.17 g/m*3 20.6 C 0 km/h
2555 19-08-2008 01:13:02 20.2 C 11.89 g/m*3 20.2 C 0 km/h
2556 19-08-2008 01:25:02 19.8 C 11.79 g/m*3 19.8 C 0 km/h
2557 19-08-2008 01:37:02 19.7 C 11.72 g/m*3 19.7 C 0 km/h
2558 19-08-2008 01:49:02 19.5 C 11.75 g/m*3 19.5 C 0 km/h
2559 19-08-2008 02:01:02 19.5 C 11.75 g/m*3 19.5 C 0 km/h
2560 19-08-2008 02:13:02 19.2 C 11.54 g/m*3 19.2 C 0 km/h
2561 19-08-2008 02:25:02 19.3 C 11.78 g/m*3 19.3 C 0 km/h
2562 19-08-2008 02:37:02 19.1 C 11.64 g/m*3 19.1 C 0 km/h
2563 19-08-2008 02:49:02 18.9 C 11.83 g/m*3 18.9 C 0 km/h
2564 19-08-2008 03:01:02 18.7 C 11.69 g/m*3 18.7 C 0 km/h
2565 19-08-2008 03:13:02 18.8 C 11.92 g/m*3 18.8 C 0 km/h
2566 19-08-2008 03:25:02 19 C 11.9 g/m*3 19 C 0 km/h
2567 19-08-2008 03:37:02 18.9 C 11.83 g/m*3 18.9 C 0 km/h
2568 19-08-2008 03:49:02 18.7 C 11.69 g/m*3 18.7 C 0 km/h
2569 19-08-2008 04:01:02 18.6 C 11.78 g/m*3 18.6 C 0 km/h
2570 19-08-2008 04:13:02 18.5 C 11.71 g/m*3 18.5 C 0 km/h
2571 19-08-2008 04:25:03 18.5 C 11.71 g/m*3 18.5 C 0 km/h
2572 19-08-2008 04:37:03 18.9 C 11.34 g/m*3 18.9 C 0 km/h
2573 19-08-2008 04:49:03 19.1 C 10.66 g/m*3 19.1 C 0 km/h
2574 19-08-2008 05:01:03 19.2 C 10.72 g/m*3 19.2 C 0 km/h
2575 19-08-2008 05:13:03 19 C 10.59 g/m*3 19 C 0 km/h
Sensor: Nr:Datum:Temp:Abs-Feuchte:Windchill:Wind:
Aussen-T/F 2576 19-08-2008 05:25:03 18.8 C 10.79 g/m*3 18.8 C 0 km/h
2577 19-08-2008 05:37:03 18.6 C 10.82 g/m*3 18.6 C 0 km/h
2578 19-08-2008 05:49:03 18.3 C 10.79 g/m*3 18.3 C 0 km/h
2579 19-08-2008 06:01:03 18.3 C 10.79 g/m*3 18.3 C 0 km/h
2580 19-08-2008 06:13:03 18.3 C 10.32 g/m*3 18.3 C 0 km/h
2581 19-08-2008 06:25:03 18.5 C 9.97 g/m*3 18.5 C 0 km/h
2582 19-08-2008 06:37:03 18.7 C 9.77 g/m*3 18.7 C 0 km/h
2583 19-08-2008 06:49:03 18.5 C 9.65 g/m*3 18.5 C 0 km/h
2584 19-08-2008 07:01:02 18.5 C 9.49 g/m*3 18.5 C 0 km/h
2585 19-08-2008 07:13:02 18.4 C 9.59 g/m*3 18.4 C 0 km/h
2586 19-08-2008 07:25:02 18.2 C 9.64 g/m*3 18.2 C 0 km/h
2587 19-08-2008 07:37:02 18 C 9.68 g/m*3 18 C 0 km/h
2588 19-08-2008 07:49:02 18.5 C 9.49 g/m*3 18.5 C 0 km/h
2589 19-08-2008 08:01:03 19 C 9.29 g/m*3 19 C 0 km/h
2590 19-08-2008 08:13:03 19.4 C 8.84 g/m*3 19.4 C 0 km/h
2591 19-08-2008 08:25:02 19.5 C 8.89 g/m*3 19.5 C 0 km/h
2592 19-08-2008 08:37:02 19.7 C 8.83 g/m*3 19.7 C 0 km/h
2593 19-08-2008 08:49:02 19.9 C 8.59 g/m*3 19.9 C 0 km/h
2594 19-08-2008 09:01:02 20 C 8.47 g/m*3 20 C 0 km/h
2595 19-08-2008 09:13:02 20.2 C 8.57 g/m*3 20.2 C 0 km/h
2596 19-08-2008 09:25:02 20.1 C 8.52 g/m*3 20.1 C 0 km/h
2597 19-08-2008 09:37:02 20 C 8.47 g/m*3 20 C 0 km/h
2598 19-08-2008 09:49:02 20.2 C 8.74 g/m*3 20.2 C 0 km/h
2599 19-08-2008 10:01:02 20.3 C 8.62 g/m*3 20.3 C 0 km/h
2600 19-08-2008 10:13:02 20.7 C 8.82 g/m*3 20.7 C 0 km/h
Sensor: Nr:Datum:Temp:Abs-Feuchte:Windchill:Wind:
Aussen-T/F 2601 19-08-2008 10:25:02 21 C 8.61 g/m*3 21 C 0 km/h
2602 19-08-2008 10:37:02 20.8 C 8.87 g/m*3 20.8 C 0 km/h
2603 19-08-2008 10:49:02 21.2 C 8.9 g/m*3 21.2 C 0 km/h
2604 19-08-2008 11:01:02 21.3 C 8.95 g/m*3 21.3 C 0 km/h
2605 19-08-2008 11:13:02 21.6 C 8.91 g/m*3 21.6 C 0 km/h
2606 19-08-2008 11:25:02 21.5 C 8.86 g/m*3 21.5 C 0 km/h
2607 19-08-2008 11:37:02 22.2 C 8.83 g/m*3 22.2 C 0 km/h
2608 19-08-2008 11:49:02 21.9 C 8.68 g/m*3 21.9 C 0 km/h
2609 19-08-2008 12:01:03 22.6 C 8.84 g/m*3 22.6 C 0 km/h
2610 19-08-2008 12:13:03 22.7 C 8.49 g/m*3 22.7 C 0 km/h
2611 19-08-2008 12:25:02 22.5 C 8.39 g/m*3 22.5 C 0 km/h
2612 19-08-2008 12:37:03 22.7 C 8.28 g/m*3 22.7 C 0 km/h
2613 19-08-2008 12:49:02 22.8 C 8.13 g/m*3 22.8 C 0 km/h
2614 19-08-2008 13:01:01 23 C 8.02 g/m*3 23 C 0 km/h
2615 19-08-2008 13:13:01 23.5 C 8.04 g/m*3 23.5 C 0 km/h
2616 19-08-2008 13:25:02 23.9 C 8.22 g/m*3 23.9 C 0 km/h
2617 19-08-2008 13:37:01 23.7 C 7.91 g/m*3 23.7 C 0 km/h
2618 19-08-2008 13:49:02 23.7 C 8.13 g/m*3 23.7 C 0 km/h
2619 19-08-2008 14:01:01 24.3 C 7.97 g/m*3 24.3 C 0 km/h
2620 19-08-2008 14:13:01 24.5 C 7.83 g/m*3 24.5 C 0 km/h
2621 19-08-2008 14:25:02 24.2 C 7.7 g/m*3 24.2 C 0 km/h
2622 19-08-2008 14:37:01 23.6 C 7.87 g/m*3 23.6 C 0 km/h
2623 19-08-2008 14:49:02 23.1 C 7.86 g/m*3 23.1 C 0 km/h
2624 19-08-2008 15:01:01 23.1 C 7.86 g/m*3 23.1 C 0 km/h
2625 19-08-2008 15:13:01 23.9 C 8.22 g/m*3 23.9 C 0 km/h
Sensor: Nr:Datum:Temp:Abs-Feuchte:Windchill:Wind:
Aussen-T/F 2626 19-08-2008 15:25:02 24.1 C 7.88 g/m*3 24.1 C 0 km/h
2627 19-08-2008 15:37:01 24.5 C 8.06 g/m*3 24.5 C 0 km/h
2628 19-08-2008 15:49:01 24.4 C 8.01 g/m*3 24.4 C 0 km/h
2629 19-08-2008 16:01:01 23.6 C 8.08 g/m*3 23.6 C 0 km/h
2630 19-08-2008 16:13:01 23.5 C 8.25 g/m*3 23.5 C 0 km/h
2631 19-08-2008 16:25:02 23.6 C 8.08 g/m*3 23.6 C 0 km/h
2632 19-08-2008 16:37:01 24 C 7.83 g/m*3 24 C 0 km/h
2633 19-08-2008 16:49:01 24.1 C 7.88 g/m*3 24.1 C 0 km/h
2634 19-08-2008 17:01:01 23.9 C 8 g/m*3 23.9 C 0 km/h
2635 19-08-2008 17:13:01 23.6 C 8.08 g/m*3 23.6 C 0 km/h
2636 19-08-2008 17:25:01 23.5 C 8.25 g/m*3 23.5 C 0 km/h
2637 19-08-2008 17:37:01 23.2 C 8.32 g/m*3 23.2 C 0 km/h
2638 19-08-2008 17:49:01 22.8 C 8.33 g/m*3 22.8 C 0 km/h
2639 19-08-2008 18:01:02 22.9 C 8.79 g/m*3 22.9 C 0 km/h
2640 19-08-2008 18:13:02 22.8 C 8.53 g/m*3 22.8 C 0 km/h
2641 19-08-2008 18:25:01 22.6 C 8.44 g/m*3 22.6 C 0 km/h
2642 19-08-2008 18:37:02 22.5 C 8.59 g/m*3 22.5 C 0 km/h
2643 19-08-2008 18:49:02 22.3 C 8.49 g/m*3 22.3 C 0 km/h
2644 19-08-2008 19:01:02 22.2 C 8.64 g/m*3 22.2 C 0 km/h
2645 19-08-2008 19:13:02 21.8 C 8.83 g/m*3 21.8 C 0 km/h
2646 19-08-2008 19:25:02 21.5 C 8.86 g/m*3 21.5 C 0 km/h
2647 19-08-2008 19:37:02 21.4 C 9.19 g/m*3 21.4 C 0 km/h
2648 19-08-2008 19:49:01 21.3 C 9.32 g/m*3 21.3 C 0 km/h
2649 19-08-2008 20:01:01 21.3 C 9.32 g/m*3 21.3 C 0 km/h
2650 19-08-2008 20:13:01 21.5 C 9.24 g/m*3 21.5 C 0 km/h
Sensor: Nr:Datum:Temp:Abs-Feuchte:Windchill:Wind:
Aussen-T/F 2651 19-08-2008 20:25:01 21.2 C 9.27 g/m*3 21.2 C 0 km/h
2652 19-08-2008 20:37:02 20.8 C 9.42 g/m*3 20.8 C 0 km/h
2653 19-08-2008 20:49:02 20.4 C 9.38 g/m*3 20.4 C 0 km/h
2654 19-08-2008 21:01:02 20 C 9.33 g/m*3 20 C 0 km/h
2655 19-08-2008 21:13:02 19.8 C 9.39 g/m*3 19.8 C 0 km/h
2656 19-08-2008 21:25:02 19.5 C 9.4 g/m*3 19.5 C 0 km/h
2657 19-08-2008 21:37:02 19.4 C 9.51 g/m*3 19.4 C 0 km/h
2658 19-08-2008 21:50:02 19.2 C 9.56 g/m*3 19.2 C 0 km/h
2659 19-08-2008 22:02:02 19.1 C 9.51 g/m*3 19.1 C 0 km/h
2660 19-08-2008 22:14:02 19 C 9.61 g/m*3 19 C 0 km/h
2661 19-08-2008 22:26:02 18.9 C 9.72 g/m*3 18.9 C 0 km/h
2662 19-08-2008 22:38:02 18.9 C 9.72 g/m*3 18.9 C 0 km/h
2663 19-08-2008 22:50:02 18.9 C 9.72 g/m*3 18.9 C 0 km/h
2664 19-08-2008 23:02:02 18.8 C 9.82 g/m*3 18.8 C 0 km/h
2665 19-08-2008 23:14:02 18.5 C 9.81 g/m*3 18.5 C 0 km/h
2666 19-08-2008 23:26:02 18.6 C 9.87 g/m*3 18.6 C 0 km/h
2667 19-08-2008 23:38:03 18.3 C 10.01 g/m*3 18.3 C 0 km/h
2668 19-08-2008 23:50:03 17.8 C 10.47 g/m*3 17.8 C 0 km/h
2669 20-08-2008 00:02:03 17.7 C 10.41 g/m*3 17.7 C 0 km/h
2670 20-08-2008 00:14:03 18.1 C 10.2 g/m*3 18.1 C 0 km/h
2671 20-08-2008 00:26:03 18.2 C 10.1 g/m*3 18.2 C 0 km/h
2672 20-08-2008 00:38:03 18.1 C 10.2 g/m*3 18.1 C 0 km/h
2673 20-08-2008 00:50:03 17.9 C 10.69 g/m*3 17.9 C 0 km/h
2674 20-08-2008 01:02:03 17.8 C 10.62 g/m*3 17.8 C 0 km/h
2675 20-08-2008 01:14:03 18.1 C 10.35 g/m*3 18.1 C 0 km/h
Sensor: Nr:Datum:Temp:Abs-Feuchte:Windchill:Wind:
Aussen-T/F 2676 20-08-2008 01:26:03 17 C 11.29 g/m*3 17 C 0 km/h
2677 20-08-2008 01:38:03 16.7 C 11.65 g/m*3 16.7 C 0 km/h
2678 20-08-2008 01:50:03 16.6 C 11.72 g/m*3 16.6 C 0 km/h
2679 20-08-2008 02:02:03 16.8 C 11.72 g/m*3 16.8 C 0 km/h
2680 20-08-2008 02:14:03 16.8 C 11.44 g/m*3 16.8 C 0 km/h
2681 20-08-2008 02:26:03 16.9 C 11.36 g/m*3 16.9 C 0 km/h
2682 20-08-2008 02:38:03 16.7 C 11.23 g/m*3 16.7 C 0 km/h
2683 20-08-2008 02:50:03 16.7 C 11.08 g/m*3 16.7 C 0 km/h
2684 20-08-2008 03:02:03 16.7 C 10.94 g/m*3 16.7 C 0 km/h
2685 20-08-2008 03:14:03 16.6 C 10.74 g/m*3 16.6 C 0 km/h
2686 20-08-2008 03:26:04 16.5 C 10.67 g/m*3 16.5 C 0 km/h
2687 20-08-2008 03:38:04 16.4 C 10.75 g/m*3 16.4 C 0 km/h
2688 20-08-2008 03:50:04 16.3 C 10.82 g/m*3 16.3 C 0 km/h
2689 20-08-2008 04:02:04 16.5 C 10.81 g/m*3 16.5 C 0 km/h
2690 20-08-2008 04:14:04 16.6 C 10.74 g/m*3 16.6 C 0 km/h
2691 20-08-2008 04:26:04 16.5 C 10.67 g/m*3 16.5 C 0 km/h
2692 20-08-2008 04:38:04 16.4 C 10.61 g/m*3 16.4 C 0 km/h
2693 20-08-2008 04:50:04 16.3 C 10.54 g/m*3 16.3 C 0 km/h
2694 20-08-2008 05:02:04 16.4 C 10.61 g/m*3 16.4 C 0 km/h
2695 20-08-2008 05:14:04 16.4 C 10.61 g/m*3 16.4 C 0 km/h
2696 20-08-2008 05:26:04 16.2 C 10.48 g/m*3 16.2 C 0 km/h
2697 20-08-2008 05:38:04 16.2 C 10.48 g/m*3 16.2 C 0 km/h
2698 20-08-2008 05:50:04 16.1 C 10.28 g/m*3 16.1 C 0 km/h
2699 20-08-2008 06:02:04 16 C 10.22 g/m*3 16 C 0 km/h
2700 20-08-2008 06:14:04 16.1 C 10.42 g/m*3 16.1 C 0 km/h
Sensor: Nr:Datum:Temp:Abs-Feuchte:Windchill:Wind:
Aussen-T/F 2701 20-08-2008 06:26:04 16 C 10.35 g/m*3 16 C 0 km/h
2702 20-08-2008 06:38:04 15.8 C 10.36 g/m*3 15.8 C 0 km/h
2703 20-08-2008 06:50:04 15.8 C 10.36 g/m*3 15.8 C 0 km/h
2704 20-08-2008 07:02:02 15.8 C 10.36 g/m*3 15.8 C 0 km/h
2705 20-08-2008 07:14:02 16 C 10.22 g/m*3 16 C 0 km/h
2706 20-08-2008 07:26:02 16.2 C 10.2 g/m*3 16.2 C 0 km/h
2707 20-08-2008 07:38:02 16.2 C 10.07 g/m*3 16.2 C 0 km/h
2708 20-08-2008 07:50:02 16.2 C 9.79 g/m*3 16.2 C 0 km/h
2709 20-08-2008 08:02:03 16.2 C 9.93 g/m*3 16.2 C 0 km/h
2710 20-08-2008 08:14:03 16.3 C 9.85 g/m*3 16.3 C 0 km/h
2711 20-08-2008 08:26:02 16.5 C 9.69 g/m*3 16.5 C 0 km/h
2712 20-08-2008 08:38:02 16.6 C 9.61 g/m*3 16.6 C 0 km/h
2713 20-08-2008 08:50:02 16.7 C 9.52 g/m*3 16.7 C 0 km/h
2714 20-08-2008 09:02:02 16.9 C 9.35 g/m*3 16.9 C 0 km/h
2715 20-08-2008 09:14:02 17 C 8.97 g/m*3 17 C 0 km/h
2716 20-08-2008 09:26:02 17.5 C 9.24 g/m*3 17.5 C 0 km/h
2717 20-08-2008 09:38:02 18 C 9.22 g/m*3 18 C 0 km/h
2718 20-08-2008 09:50:02 18.2 C 9.01 g/m*3 18.2 C 0 km/h
2719 20-08-2008 10:02:03 18.9 C 9.23 g/m*3 18.9 C 0 km/h
2720 20-08-2008 10:14:03 18.8 C 9.18 g/m*3 18.8 C 0 km/h
2721 20-08-2008 10:26:02 18.7 C 9.13 g/m*3 18.7 C 0 km/h
2722 20-08-2008 10:38:02 19.4 C 9.01 g/m*3 19.4 C 0 km/h
2723 20-08-2008 10:50:02 19.4 C 9.01 g/m*3 19.4 C 0 km/h
2724 20-08-2008 11:02:02 19.7 C 9 g/m*3 19.7 C 0 km/h
2725 20-08-2008 11:14:02 19.5 C 8.73 g/m*3 19.5 C 0 km/h
Sensor: Nr:Datum:Temp:Abs-Feuchte:Windchill:Wind:
Aussen-T/F 2726 20-08-2008 11:26:02 19.5 C 9.06 g/m*3 19.5 C 0 km/h
2727 20-08-2008 11:38:02 20.4 C 8.67 g/m*3 20.4 C 0 km/h
2728 20-08-2008 11:50:02 19.8 C 8.37 g/m*3 19.8 C 0 km/h
2729 20-08-2008 12:02:02 20.2 C 8.57 g/m*3 20.2 C 0 km/h
2730 20-08-2008 12:14:02 21.1 C 8.48 g/m*3 21.1 C 0 km/h
2731 20-08-2008 12:26:02 21.1 C 8.11 g/m*3 21.1 C 0 km/h
2732 20-08-2008 12:38:02 20.8 C 8.33 g/m*3 20.8 C 0 km/h
2733 20-08-2008 12:50:02 20.9 C 8.2 g/m*3 20.9 C 0 km/h
2734 20-08-2008 13:02:02 20.9 C 8.38 g/m*3 20.9 C 0 km/h
2735 20-08-2008 13:14:03 20.3 C 8.44 g/m*3 20.3 C 0 km/h
2736 20-08-2008 13:26:02 20.5 C 8.54 g/m*3 20.5 C 0 km/h
2737 20-08-2008 13:38:02 21.1 C 8.29 g/m*3 21.1 C 0 km/h
2738 20-08-2008 13:50:01 21.1 C 8.29 g/m*3 21.1 C 0 km/h
2739 20-08-2008 14:02:02 21.2 C 8.34 g/m*3 21.2 C 0 km/h
2740 20-08-2008 14:14:02 22 C 7.96 g/m*3 22 C 0 km/h
2741 20-08-2008 14:26:01 22.1 C 7.61 g/m*3 22.1 C 0 km/h
2742 20-08-2008 14:38:02 22.5 C 7.99 g/m*3 22.5 C 0 km/h
2743 20-08-2008 14:50:02 22.5 C 7.99 g/m*3 22.5 C 0 km/h
2744 20-08-2008 15:02:02 22.4 C 8.14 g/m*3 22.4 C 0 km/h
2745 20-08-2008 15:14:02 21.7 C 7.82 g/m*3 21.7 C 0 km/h
2746 20-08-2008 15:26:02 22.5 C 7.99 g/m*3 22.5 C 0 km/h
2747 20-08-2008 15:38:01 23 C 7.4 g/m*3 23 C 0 km/h
2748 20-08-2008 15:50:02 21.9 C 7.53 g/m*3 21.9 C 0 km/h
2749 20-08-2008 16:02:01 22.2 C 7.66 g/m*3 22.2 C 0 km/h
2750 20-08-2008 16:14:01 22.5 C 7.79 g/m*3 22.5 C 0 km/h
Sensor: Nr:Datum:Temp:Abs-Feuchte:Windchill:Wind:
Aussen-T/F 2751 20-08-2008 16:26:02 20.3 C 8.09 g/m*3 20.3 C 0 km/h
2752 20-08-2008 16:38:01 20.4 C 7.78 g/m*3 20.4 C 0 km/h
2753 20-08-2008 16:50:02 20.9 C 7.83 g/m*3 20.9 C 0 km/h
2754 20-08-2008 17:02:01 22.7 C 7.68 g/m*3 22.7 C 0 km/h
2755 20-08-2008 17:14:01 22.9 C 7.56 g/m*3 22.9 C 0 km/h
2756 20-08-2008 17:26:02 23.2 C 7.48 g/m*3 23.2 C 0 km/h
2757 20-08-2008 17:38:01 23.4 C 7.57 g/m*3 23.4 C 0 km/h
2758 20-08-2008 17:50:01 24.1 C 7.66 g/m*3 24.1 C 0 km/h
2759 20-08-2008 18:02:02 22.7 C 7.27 g/m*3 22.7 C 0 km/h
2760 20-08-2008 18:14:03 22.2 C 7.07 g/m*3 22.2 C 0 km/h
2761 20-08-2008 18:26:01 21.6 C 7.21 g/m*3 21.6 C 0 km/h
2762 20-08-2008 18:38:02 21.3 C 7.46 g/m*3 21.3 C 0 km/h
2763 20-08-2008 18:50:02 20.6 C 7.16 g/m*3 20.6 C 0 km/h
2764 20-08-2008 19:02:02 20.6 C 7.34 g/m*3 20.6 C 0 km/h
2765 20-08-2008 19:14:02 20.5 C 7.47 g/m*3 20.5 C 0 km/h
2766 20-08-2008 19:26:02 20.3 C 7.56 g/m*3 20.3 C 0 km/h
2767 20-08-2008 19:38:02 20.1 C 7.65 g/m*3 20.1 C 0 km/h
2768 20-08-2008 19:50:02 20 C 7.78 g/m*3 20 C 0 km/h
2769 20-08-2008 20:02:03 19.8 C 7.69 g/m*3 19.8 C 0 km/h
2770 20-08-2008 20:14:03 19.7 C 7.81 g/m*3 19.7 C 0 km/h
2771 20-08-2008 20:26:02 19.4 C 7.84 g/m*3 19.4 C 0 km/h
2772 20-08-2008 20:38:03 19.2 C 7.91 g/m*3 19.2 C 0 km/h
2773 20-08-2008 20:50:02 18.9 C 8.42 g/m*3 18.9 C 0 km/h
2774 20-08-2008 21:02:01 18.6 C 8.59 g/m*3 18.6 C 0 km/h
2775 20-08-2008 21:14:01 18.6 C 8.59 g/m*3 18.6 C 0 km/h
Sensor: Nr:Datum:Temp:Abs-Feuchte:Windchill:Wind:
Aussen-T/F 2776 20-08-2008 21:26:02 18.4 C 8.65 g/m*3 18.4 C 0 km/h
2777 20-08-2008 21:38:02 18.2 C 8.86 g/m*3 18.2 C 0 km/h
2778 20-08-2008 21:50:02 17.9 C 9.01 g/m*3 17.9 C 0 km/h
2779 20-08-2008 22:02:01 17.7 C 9.05 g/m*3 17.7 C 0 km/h
2780 20-08-2008 22:14:01 17.7 C 9.05 g/m*3 17.7 C 0 km/h
2781 20-08-2008 22:26:02 17.8 C 9.11 g/m*3 17.8 C 0 km/h
2782 20-08-2008 22:38:01 17.8 C 8.95 g/m*3 17.8 C 0 km/h
2783 20-08-2008 22:51:01 17.8 C 8.95 g/m*3 17.8 C 0 km/h
2784 20-08-2008 23:03:01 17.8 C 8.95 g/m*3 17.8 C 0 km/h
2785 20-08-2008 23:15:01 17.7 C 9.05 g/m*3 17.7 C 0 km/h
2786 20-08-2008 23:27:01 17.7 C 9.05 g/m*3 17.7 C 0 km/h
2787 20-08-2008 23:39:01 17.6 C 9 g/m*3 17.6 C 0 km/h
2788 20-08-2008 23:51:01 17.5 C 9.09 g/m*3 17.5 C 0 km/h
2789 21-08-2008 00:03:01 17.4 C 9.04 g/m*3 17.4 C 0 km/h
2790 21-08-2008 00:15:01 17.5 C 9.24 g/m*3 17.5 C 0 km/h
2791 21-08-2008 00:27:02 17.3 C 9.13 g/m*3 17.3 C 0 km/h
2792 21-08-2008 00:39:02 17.2 C 8.93 g/m*3 17.2 C 0 km/h
2793 21-08-2008 00:51:02 17.1 C 8.88 g/m*3 17.1 C 0 km/h
2794 21-08-2008 01:03:02 17 C 8.97 g/m*3 17 C 0 km/h
2795 21-08-2008 01:15:02 16.8 C 9.01 g/m*3 16.8 C 0 km/h
2796 21-08-2008 01:27:02 16.7 C 8.95 g/m*3 16.7 C 0 km/h
2797 21-08-2008 01:39:02 16.4 C 8.93 g/m*3 16.4 C 0 km/h
2798 21-08-2008 01:51:02 16.2 C 8.96 g/m*3 16.2 C 0 km/h
2799 21-08-2008 02:03:02 16 C 8.99 g/m*3 16 C 0 km/h
2800 21-08-2008 02:15:02 15.9 C 9.07 g/m*3 15.9 C 0 km/h
Sensor: Nr:Datum:Temp:Abs-Feuchte:Windchill:Wind:
Aussen-T/F 2801 21-08-2008 02:27:02 15.6 C 9.04 g/m*3 15.6 C 0 km/h
2802 21-08-2008 02:39:02 15.3 C 9.01 g/m*3 15.3 C 0 km/h
2803 21-08-2008 02:51:02 14.9 C 9.05 g/m*3 14.9 C 0 km/h
2804 21-08-2008 03:03:02 14.8 C 9.12 g/m*3 14.8 C 0 km/h
2805 21-08-2008 03:15:02 14.4 C 9.02 g/m*3 14.4 C 0 km/h
2806 21-08-2008 03:27:02 14.4 C 9.15 g/m*3 14.4 C 0 km/h
2807 21-08-2008 03:39:02 14.3 C 9.09 g/m*3 14.3 C 0 km/h
2808 21-08-2008 03:51:02 14.1 C 9.1 g/m*3 14.1 C 0 km/h
2809 21-08-2008 04:03:02 13.9 C 9.11 g/m*3 13.9 C 0 km/h
2810 21-08-2008 04:15:03 13.7 C 9 g/m*3 13.7 C 0 km/h
2811 21-08-2008 04:27:03 13.5 C 9.01 g/m*3 13.5 C 0 km/h
2812 21-08-2008 04:39:03 13.5 C 9.01 g/m*3 13.5 C 0 km/h
2813 21-08-2008 04:51:03 13.3 C 9.01 g/m*3 13.3 C 0 km/h
2814 21-08-2008 05:03:03 13.2 C 9.07 g/m*3 13.2 C 0 km/h
2815 21-08-2008 05:15:03 13.1 C 9.01 g/m*3 13.1 C 0 km/h
2816 21-08-2008 05:27:03 13.1 C 9.13 g/m*3 13.1 C 0 km/h
2817 21-08-2008 05:39:03 13.1 C 9.01 g/m*3 13.1 C 0 km/h
2818 21-08-2008 05:51:03 13.1 C 9.01 g/m*3 13.1 C 0 km/h
2819 21-08-2008 06:03:03 13 C 8.96 g/m*3 13 C 0 km/h
2820 21-08-2008 06:15:03 12.9 C 9.02 g/m*3 12.9 C 0 km/h
2821 21-08-2008 06:27:03 12.9 C 9.13 g/m*3 12.9 C 0 km/h
2822 21-08-2008 06:39:02 13.2 C 9.19 g/m*3 13.2 C 0 km/h
2823 21-08-2008 06:51:02 13.4 C 9.3 g/m*3 13.4 C 0 km/h
2824 21-08-2008 07:03:02 13.6 C 9.3 g/m*3 13.6 C 0 km/h
2825 21-08-2008 07:15:02 13.7 C 9.35 g/m*3 13.7 C 0 km/h
Sensor: Nr:Datum:Temp:Abs-Feuchte:Windchill:Wind:
Aussen-T/F 2826 21-08-2008 07:27:02 14 C 9.41 g/m*3 14 C 0 km/h
2827 21-08-2008 07:39:02 14.2 C 9.4 g/m*3 14.2 C 0 km/h
2828 21-08-2008 07:51:02 14.6 C 9.51 g/m*3 14.6 C 0 km/h
2829 21-08-2008 08:03:02 14.6 C 9.26 g/m*3 14.6 C 0 km/h
2830 21-08-2008 08:15:02 14.5 C 9.33 g/m*3 14.5 C 0 km/h
2831 21-08-2008 08:27:02 14.8 C 9.5 g/m*3 14.8 C 0 km/h
2832 21-08-2008 08:39:02 15.4 C 9.2 g/m*3 15.4 C 0 km/h
2833 21-08-2008 08:51:02 16 C 9.13 g/m*3 16 C 0 km/h
2834 21-08-2008 09:03:02 15.9 C 9.07 g/m*3 15.9 C 0 km/h
2835 21-08-2008 09:15:02 15.8 C 9.15 g/m*3 15.8 C 0 km/h
2836 21-08-2008 09:27:02 15.9 C 9.21 g/m*3 15.9 C 0 km/h
2837 21-08-2008 09:39:02 16.3 C 9.43 g/m*3 16.3 C 0 km/h
2838 21-08-2008 09:51:02 16.8 C 9.58 g/m*3 16.8 C 0 km/h
2839 21-08-2008 10:03:01 17.3 C 9.43 g/m*3 17.3 C 0 km/h
2840 21-08-2008 10:15:02 17.8 C 9.26 g/m*3 17.8 C 0 km/h
2841 21-08-2008 10:27:02 18.4 C 9.28 g/m*3 18.4 C 0 km/h
2842 21-08-2008 10:39:01 19.1 C 9.02 g/m*3 19.1 C 0 km/h
2843 21-08-2008 10:51:02 20.6 C 8.59 g/m*3 20.6 C 0 km/h
2844 21-08-2008 11:03:01 20.3 C 8.27 g/m*3 20.3 C 0 km/h
2845 21-08-2008 11:15:02 20.8 C 8.15 g/m*3 20.8 C 0 km/h
2846 21-08-2008 11:27:02 20.7 C 8.28 g/m*3 20.7 C 0 km/h
2847 21-08-2008 11:39:01 21.3 C 7.83 g/m*3 21.3 C 0 km/h
2848 21-08-2008 11:51:01 21.5 C 8.11 g/m*3 21.5 C 0 km/h
2849 21-08-2008 12:03:01 21.5 C 8.3 g/m*3 21.5 C 0 km/h
2850 21-08-2008 12:15:02 22.7 C 7.88 g/m*3 22.7 C 0 km/h
Sensor: Nr:Datum:Temp:Abs-Feuchte:Windchill:Wind:
Aussen-T/F 2851 21-08-2008 12:27:02 22.5 C 7.99 g/m*3 22.5 C 0 km/h
2852 21-08-2008 12:39:01 23.5 C 7.82 g/m*3 23.5 C 0 km/h
2853 21-08-2008 12:51:01 23.3 C 7.32 g/m*3 23.3 C 0 km/h
2854 21-08-2008 13:03:02 23.4 C 7.36 g/m*3 23.4 C 0 km/h
2855 21-08-2008 13:15:01 24.2 C 7.26 g/m*3 24.2 C 0 km/h
2856 21-08-2008 13:27:01 24.6 C 6.98 g/m*3 24.6 C 0 km/h
2857 21-08-2008 13:39:02 24.7 C 7.24 g/m*3 24.7 C 0 km/h
2858 21-08-2008 13:51:02 24.5 C 7.16 g/m*3 24.5 C 0 km/h
2859 21-08-2008 14:03:02 25.1 C 6.94 g/m*3 25.1 C 0 km/h
2860 21-08-2008 14:15:02 25.1 C 6.94 g/m*3 25.1 C 0 km/h
2861 21-08-2008 14:27:02 25.1 C 6.94 g/m*3 25.1 C 0 km/h
2862 21-08-2008 14:39:02 25.6 C 6.67 g/m*3 25.6 C 0 km/h
2863 21-08-2008 14:51:02 25.6 C 6.9 g/m*3 25.6 C 0 km/h
2864 21-08-2008 15:03:03 25.5 C 6.87 g/m*3 25.5 C 0 km/h
2865 21-08-2008 15:15:02 25.8 C 6.98 g/m*3 25.8 C 0 km/h
2866 21-08-2008 15:27:02 25.8 C 6.74 g/m*3 25.8 C 0 km/h
2867 21-08-2008 15:39:02 25.9 C 7.02 g/m*3 25.9 C 0 km/h
2868 21-08-2008 15:51:02 25.7 C 7.18 g/m*3 25.7 C 0 km/h
2869 21-08-2008 16:03:01 25.4 C 7.06 g/m*3 25.4 C 0 km/h
2870 21-08-2008 16:15:02 25.5 C 7.34 g/m*3 25.5 C 0 km/h
2871 21-08-2008 16:27:02 25.3 C 7.26 g/m*3 25.3 C 0 km/h
2872 21-08-2008 16:39:02 25.9 C 7.26 g/m*3 25.9 C 0 km/h
2873 21-08-2008 16:51:02 25.7 C 7.42 g/m*3 25.7 C 0 km/h
2874 21-08-2008 17:03:01 25.4 C 7.53 g/m*3 25.4 C 0 km/h
2875 21-08-2008 17:15:01 25 C 7.37 g/m*3 25 C 0 km/h
Sensor: Nr:Datum:Temp:Abs-Feuchte:Windchill:Wind:
Aussen-T/F 2876 21-08-2008 17:27:01 25.4 C 7.3 g/m*3 25.4 C 0 km/h
2877 21-08-2008 17:39:01 25.3 C 7.26 g/m*3 25.3 C 0 km/h
2878 21-08-2008 17:51:03 26.1 C 7.34 g/m*3 26.1 C 0 km/h
2879 21-08-2008 18:03:02 25.8 C 7.46 g/m*3 25.8 C 0 km/h
2880 21-08-2008 18:15:02 25.4 C 7.53 g/m*3 25.4 C 0 km/h
2881 21-08-2008 18:27:02 25.4 C 7.53 g/m*3 25.4 C 0 km/h
2882 21-08-2008 18:39:02 24.5 C 7.83 g/m*3 24.5 C 0 km/h
2883 21-08-2008 18:51:02 24.1 C 7.88 g/m*3 24.1 C 0 km/h
2884 21-08-2008 19:03:02 23.7 C 7.91 g/m*3 23.7 C 0 km/h
2885 21-08-2008 19:15:03 23.3 C 8.15 g/m*3 23.3 C 0 km/h
2886 21-08-2008 19:27:03 22.9 C 8.17 g/m*3 22.9 C 0 km/h
2887 21-08-2008 19:39:02 22.8 C 8.33 g/m*3 22.8 C 0 km/h
2888 21-08-2008 19:51:01 22.9 C 8.38 g/m*3 22.9 C 0 km/h
2889 21-08-2008 20:03:01 22.8 C 8.53 g/m*3 22.8 C 0 km/h
2890 21-08-2008 20:15:01 22.6 C 8.44 g/m*3 22.6 C 0 km/h
2891 21-08-2008 20:27:01 22.5 C 8.59 g/m*3 22.5 C 0 km/h
2892 21-08-2008 20:39:01 22.3 C 8.49 g/m*3 22.3 C 0 km/h
2893 21-08-2008 20:51:01 22.2 C 8.44 g/m*3 22.2 C 0 km/h
2894 21-08-2008 21:03:02 22 C 8.54 g/m*3 22 C 0 km/h
2895 21-08-2008 21:15:01 21.9 C 8.68 g/m*3 21.9 C 0 km/h
2896 21-08-2008 21:27:01 21.9 C 8.68 g/m*3 21.9 C 0 km/h
2897 21-08-2008 21:39:02 21.7 C 8.77 g/m*3 21.7 C 0 km/h
2898 21-08-2008 21:51:02 21.6 C 8.72 g/m*3 21.6 C 0 km/h
2899 21-08-2008 22:04:03 21.3 C 8.76 g/m*3 21.3 C 0 km/h
2900 21-08-2008 22:16:03 21.1 C 8.66 g/m*3 21.1 C 0 km/h
Sensor: Nr:Datum:Temp:Abs-Feuchte:Windchill:Wind:
Aussen-T/F 2901 21-08-2008 22:28:03 21 C 8.79 g/m*3 21 C 0 km/h
2902 21-08-2008 22:40:03 20.7 C 9 g/m*3 20.7 C 0 km/h
2903 21-08-2008 22:52:03 20.7 C 9 g/m*3 20.7 C 0 km/h
2904 21-08-2008 23:04:03 20.6 C 9.13 g/m*3 20.6 C 0 km/h
2905 21-08-2008 23:16:04 20.6 C 9.13 g/m*3 20.6 C 0 km/h
2906 21-08-2008 23:28:04 20.4 C 9.2 g/m*3 20.4 C 0 km/h
2907 21-08-2008 23:40:04 20.4 C 9.2 g/m*3 20.4 C 0 km/h
2908 21-08-2008 23:52:04 20.2 C 9.27 g/m*3 20.2 C 0 km/h
2909 22-08-2008 00:04:04 20.1 C 9.21 g/m*3 20.1 C 0 km/h
2910 22-08-2008 00:16:04 20 C 9.33 g/m*3 20 C 0 km/h
2911 22-08-2008 00:28:04 20.1 C 9.21 g/m*3 20.1 C 0 km/h
2912 22-08-2008 00:40:04 20 C 9.33 g/m*3 20 C 0 km/h
2913 22-08-2008 00:52:04 19.9 C 9.28 g/m*3 19.9 C 0 km/h
2914 22-08-2008 01:04:04 20 C 9.33 g/m*3 20 C 0 km/h
2915 22-08-2008 01:16:04 20.3 C 9.67 g/m*3 20.3 C 0 km/h
2916 22-08-2008 01:28:04 19.6 C 9.62 g/m*3 19.6 C 0 km/h
2917 22-08-2008 01:40:04 19.5 C 9.57 g/m*3 19.5 C 0 km/h
2918 22-08-2008 01:52:04 19.3 C 9.45 g/m*3 19.3 C 0 km/h
2919 22-08-2008 02:04:04 19.1 C 9.51 g/m*3 19.1 C 0 km/h
2920 22-08-2008 02:16:04 18.9 C 9.56 g/m*3 18.9 C 0 km/h
2921 22-08-2008 02:28:04 18.7 C 9.45 g/m*3 18.7 C 0 km/h
2922 22-08-2008 02:40:04 18.5 C 9.33 g/m*3 18.5 C 0 km/h
2923 22-08-2008 02:52:04 18.4 C 9.44 g/m*3 18.4 C 0 km/h
2924 22-08-2008 03:04:05 18.5 C 9.33 g/m*3 18.5 C 0 km/h
2925 22-08-2008 03:16:05 18.5 C 9.49 g/m*3 18.5 C 0 km/h
Sensor: Nr:Datum:Temp:Abs-Feuchte:Windchill:Wind:
Aussen-T/F 2926 22-08-2008 03:28:05 18.4 C 9.44 g/m*3 18.4 C 0 km/h
2927 22-08-2008 03:40:05 18.5 C 9.49 g/m*3 18.5 C 0 km/h
2928 22-08-2008 03:52:05 18.5 C 9.49 g/m*3 18.5 C 0 km/h
2929 22-08-2008 04:04:05 18.5 C 9.49 g/m*3 18.5 C 0 km/h
2930 22-08-2008 04:16:05 18.4 C 9.44 g/m*3 18.4 C 0 km/h
2931 22-08-2008 04:28:05 18.4 C 9.59 g/m*3 18.4 C 0 km/h
2932 22-08-2008 04:40:05 18.3 C 9.54 g/m*3 18.3 C 0 km/h
2933 22-08-2008 04:52:05 18.2 C 9.64 g/m*3 18.2 C 0 km/h
2934 22-08-2008 05:04:05 18.2 C 9.64 g/m*3 18.2 C 0 km/h
2935 22-08-2008 05:16:05 18.1 C 9.58 g/m*3 18.1 C 0 km/h
2936 22-08-2008 05:28:05 18.2 C 9.64 g/m*3 18.2 C 0 km/h
2937 22-08-2008 05:40:05 18.1 C 9.73 g/m*3 18.1 C 0 km/h
2938 22-08-2008 05:52:05 18 C 9.68 g/m*3 18 C 0 km/h
2939 22-08-2008 06:04:05 17.9 C 9.77 g/m*3 17.9 C 0 km/h
2940 22-08-2008 06:16:05 17.5 C 9.69 g/m*3 17.5 C 0 km/h
2941 22-08-2008 06:28:05 17.3 C 9.72 g/m*3 17.3 C 0 km/h
2942 22-08-2008 06:40:05 17 C 9.69 g/m*3 17 C 0 km/h
2943 22-08-2008 06:52:06 16.8 C 9.87 g/m*3 16.8 C 0 km/h
2944 22-08-2008 07:04:06 16.9 C 9.92 g/m*3 16.9 C 0 km/h
2945 22-08-2008 07:16:02 16.8 C 10.01 g/m*3 16.8 C 0 km/h
2946 22-08-2008 07:28:02 17 C 10.13 g/m*3 17 C 0 km/h
2947 22-08-2008 07:40:03 17.2 C 10.1 g/m*3 17.2 C 0 km/h
2948 22-08-2008 07:52:01 17.6 C 10.35 g/m*3 17.6 C 0 km/h
2949 22-08-2008 08:04:01 17.7 C 10.26 g/m*3 17.7 C 0 km/h
2950 22-08-2008 08:16:01 17.8 C 10.32 g/m*3 17.8 C 0 km/h
Sensor: Nr:Datum:Temp:Abs-Feuchte:Windchill:Wind:
Aussen-T/F 2951 22-08-2008 08:28:01 18 C 9.98 g/m*3 18 C 0 km/h
2952 22-08-2008 08:40:01 17.9 C 9.92 g/m*3 17.9 C 0 km/h
2953 22-08-2008 08:52:02 17.7 C 9.96 g/m*3 17.7 C 0 km/h
2954 22-08-2008 09:04:02 17.8 C 10.02 g/m*3 17.8 C 0 km/h
2955 22-08-2008 09:16:02 18.1 C 9.89 g/m*3 18.1 C 0 km/h
2956 22-08-2008 09:28:02 18.7 C 10.09 g/m*3 18.7 C 0 km/h
2957 22-08-2008 09:40:02 19.3 C 10.12 g/m*3 19.3 C 0 km/h
2958 22-08-2008 09:52:02 20 C 10.02 g/m*3 20 C 0 km/h
2959 22-08-2008 10:04:02 20.6 C 10.02 g/m*3 20.6 C 0 km/h
2960 22-08-2008 10:16:02 21.2 C 9.82 g/m*3 21.2 C 0 km/h
2961 22-08-2008 10:28:02 22.2 C 9.82 g/m*3 22.2 C 0 km/h
2962 22-08-2008 10:40:02 22.9 C 9.61 g/m*3 22.9 C 0 km/h
2963 22-08-2008 10:52:02 23.3 C 9.41 g/m*3 23.3 C 0 km/h
2964 22-08-2008 11:04:02 23.6 C 9.36 g/m*3 23.6 C 0 km/h
2965 22-08-2008 11:16:02 24.4 C 9.12 g/m*3 24.4 C 0 km/h
2966 22-08-2008 11:28:02 24.9 C 8.93 g/m*3 24.9 C 0 km/h
2967 22-08-2008 11:40:02 24.5 C 9.4 g/m*3 24.5 C 0 km/h
2968 22-08-2008 11:52:02 24.9 C 9.16 g/m*3 24.9 C 0 km/h
2969 22-08-2008 12:04:02 24.8 C 8.88 g/m*3 24.8 C 0 km/h
2970 22-08-2008 12:16:02 24.8 C 9.1 g/m*3 24.8 C 0 km/h
2971 22-08-2008 12:28:02 24.8 C 8.88 g/m*3 24.8 C 0 km/h
2972 22-08-2008 12:40:02 24.5 C 8.95 g/m*3 24.5 C 0 km/h
2973 22-08-2008 12:52:02 24.5 C 9.18 g/m*3 24.5 C 0 km/h
2974 22-08-2008 13:04:02 24.3 C 9.07 g/m*3 24.3 C 0 km/h
2975 22-08-2008 13:16:02 24.2 C 9.24 g/m*3 24.2 C 0 km/h
Sensor: Nr:Datum:Temp:Abs-Feuchte:Windchill:Wind:
Aussen-T/F 2976 22-08-2008 13:28:02 23.4 C 9.88 g/m*3 23.4 C 0 km/h
2977 22-08-2008 13:40:02 22.9 C 10.22 g/m*3 22.9 C 0 km/h
2978 22-08-2008 13:52:02 21.5 C 10.94 g/m*3 21.5 C 0 km/h
2979 22-08-2008 14:04:01 19.1 C 11.31 g/m*3 19.1 C 0 km/h
2980 22-08-2008 14:16:02 18.1 C 12.05 g/m*3 18.1 C 0 km/h
2981 22-08-2008 14:28:02 17.9 C 12.67 g/m*3 17.9 C 0 km/h
2982 22-08-2008 14:40:01 18.2 C 12.9 g/m*3 18.2 C 0 km/h
2983 22-08-2008 14:52:02 18.1 C 12.82 g/m*3 18.1 C 0 km/h
2984 22-08-2008 15:04:01 18.4 C 13.21 g/m*3 18.4 C 0 km/h
2985 22-08-2008 15:16:02 18.5 C 13.29 g/m*3 18.5 C 0 km/h
2986 22-08-2008 15:28:02 18 C 13.21 g/m*3 18 C 0 km/h
2987 22-08-2008 15:40:01 17.9 C 13.44 g/m*3 17.9 C 0 km/h
2988 22-08-2008 15:52:03 18.3 C 13.76 g/m*3 18.3 C 0 km/h
2989 22-08-2008 16:04:02 18.5 C 13.92 g/m*3 18.5 C 0 km/h
2990 22-08-2008 16:16:03 18.3 C 13.76 g/m*3 18.3 C 0 km/h
2991 22-08-2008 16:28:03 18.5 C 13.92 g/m*3 18.5 C 0 km/h
2992 22-08-2008 16:40:03 18.2 C 13.68 g/m*3 18.2 C 0 km/h
2993 22-08-2008 16:52:02 17.9 C 13.59 g/m*3 17.9 C 0 km/h
2994 22-08-2008 17:04:02 17.8 C 13.36 g/m*3 17.8 C 0 km/h
2995 22-08-2008 17:16:01 17.8 C 13.36 g/m*3 17.8 C 0 km/h
2996 22-08-2008 17:28:01 17.7 C 13.28 g/m*3 17.7 C 0 km/h
2997 22-08-2008 17:40:02 17.5 C 13.12 g/m*3 17.5 C 0 km/h
2998 22-08-2008 17:52:02 17.5 C 13.12 g/m*3 17.5 C 0 km/h
2999 22-08-2008 18:04:02 17.5 C 13.12 g/m*3 17.5 C 0 km/h
3000 22-08-2008 18:16:02 16.1 C 11.79 g/m*3 16.1 C 0 km/h
Sensor: Nr:Datum:Temp:Abs-Feuchte:Windchill:Wind:
Aussen-T/F 3001 22-08-2008 18:28:02 15.7 C 11.51 g/m*3 15.7 C 0 km/h
3002 22-08-2008 18:40:02 15.5 C 11.5 g/m*3 15.5 C 0 km/h
3003 22-08-2008 18:52:02 15.6 C 11.84 g/m*3 15.6 C 0 km/h
3004 22-08-2008 19:04:02 15.4 C 11.69 g/m*3 15.4 C 0 km/h
3005 22-08-2008 19:16:02 15.2 C 11.68 g/m*3 15.2 C 0 km/h
3006 22-08-2008 19:28:02 15.2 C 11.81 g/m*3 15.2 C 0 km/h
3007 22-08-2008 19:40:02 15.4 C 11.96 g/m*3 15.4 C 0 km/h
3008 22-08-2008 19:52:02 15.4 C 12.09 g/m*3 15.4 C 0 km/h
3009 22-08-2008 20:04:01 15.4 C 12.09 g/m*3 15.4 C 0 km/h
3010 22-08-2008 20:16:02 15.3 C 12.01 g/m*3 15.3 C 0 km/h
3011 22-08-2008 20:28:02 15.3 C 12.01 g/m*3 15.3 C 0 km/h
3012 22-08-2008 20:40:01 15.4 C 12.22 g/m*3 15.4 C 0 km/h
3013 22-08-2008 20:52:02 15.4 C 12.22 g/m*3 15.4 C 0 km/h
3014 22-08-2008 21:04:01 15.4 C 12.22 g/m*3 15.4 C 0 km/h
3015 22-08-2008 21:16:02 15.5 C 12.29 g/m*3 15.5 C 0 km/h
3016 22-08-2008 21:28:02 15.3 C 12.14 g/m*3 15.3 C 0 km/h
3017 22-08-2008 21:40:01 15.1 C 12 g/m*3 15.1 C 0 km/h
3018 22-08-2008 21:52:03 14.9 C 11.98 g/m*3 14.9 C 0 km/h
3019 22-08-2008 22:04:02 14.8 C 11.91 g/m*3 14.8 C 0 km/h
3020 22-08-2008 22:16:03 14.8 C 11.91 g/m*3 14.8 C 0 km/h
3021 22-08-2008 22:28:03 14.8 C 11.91 g/m*3 14.8 C 0 km/h
3022 22-08-2008 22:40:02 15 C 12.05 g/m*3 15 C 0 km/h
3023 22-08-2008 22:52:01 15 C 12.05 g/m*3 15 C 0 km/h
3024 22-08-2008 23:05:02 14.7 C 11.83 g/m*3 14.7 C 0 km/h
3025 22-08-2008 23:17:02 14.6 C 11.76 g/m*3 14.6 C 0 km/h
Sensor: Nr:Datum:Temp:Abs-Feuchte:Windchill:Wind:
Aussen-T/F 3026 22-08-2008 23:29:02 14.7 C 11.83 g/m*3 14.7 C 0 km/h
3027 22-08-2008 23:41:02 14.8 C 12.03 g/m*3 14.8 C 0 km/h
3028 22-08-2008 23:53:02 14.6 C 11.76 g/m*3 14.6 C 0 km/h
3029 23-08-2008 00:05:02 14.5 C 11.69 g/m*3 14.5 C 0 km/h
3030 23-08-2008 00:17:02 14.3 C 11.55 g/m*3 14.3 C 0 km/h
3031 23-08-2008 00:29:02 14.1 C 11.53 g/m*3 14.1 C 0 km/h
3032 23-08-2008 00:41:02 14 C 11.34 g/m*3 14 C 0 km/h
3033 23-08-2008 00:53:02 14 C 11.34 g/m*3 14 C 0 km/h
3034 23-08-2008 01:05:02 14 C 11.34 g/m*3 14 C 0 km/h
3035 23-08-2008 01:17:02 13.8 C 11.32 g/m*3 13.8 C 0 km/h
3036 23-08-2008 01:29:02 13.8 C 11.32 g/m*3 13.8 C 0 km/h
3037 23-08-2008 01:41:03 13.7 C 11.13 g/m*3 13.7 C 0 km/h
3038 23-08-2008 01:53:03 13.8 C 11.2 g/m*3 13.8 C 0 km/h
3039 23-08-2008 02:05:03 13.8 C 11.2 g/m*3 13.8 C 0 km/h
3040 23-08-2008 02:17:03 13.7 C 11.13 g/m*3 13.7 C 0 km/h
3041 23-08-2008 02:29:03 13.7 C 11.01 g/m*3 13.7 C 0 km/h
3042 23-08-2008 02:41:03 13.7 C 11.01 g/m*3 13.7 C 0 km/h
3043 23-08-2008 02:53:03 13.6 C 10.95 g/m*3 13.6 C 0 km/h
3044 23-08-2008 03:05:03 13.6 C 10.95 g/m*3 13.6 C 0 km/h
3045 23-08-2008 03:17:03 13.3 C 10.4 g/m*3 13.3 C 0 km/h
3046 23-08-2008 03:29:03 13 C 9.75 g/m*3 13 C 0 km/h
3047 23-08-2008 03:41:03 12.6 C 9.4 g/m*3 12.6 C 0 km/h
3048 23-08-2008 03:53:03 12.2 C 9.28 g/m*3 12.2 C 0 km/h
3049 23-08-2008 04:05:03 11.9 C 9.32 g/m*3 11.9 C 0 km/h
3050 23-08-2008 04:17:03 11.7 C 9.31 g/m*3 11.7 C 0 km/h
Sensor: Nr:Datum:Temp:Abs-Feuchte:Windchill:Wind:
Aussen-T/F 3051 23-08-2008 04:29:03 11.5 C 9.3 g/m*3 11.5 C 0 km/h
3052 23-08-2008 04:41:03 11.4 C 9.34 g/m*3 11.4 C 0 km/h
3053 23-08-2008 04:53:03 11.2 C 9.22 g/m*3 11.2 C 0 km/h
3054 23-08-2008 05:05:03 11.1 C 9.17 g/m*3 11.1 C 0 km/h
3055 23-08-2008 05:17:03 10.9 C 9.15 g/m*3 10.9 C 0 km/h
3056 23-08-2008 05:29:04 10.8 C 9.09 g/m*3 10.8 C 0 km/h
3057 23-08-2008 05:41:04 10.8 C 9.09 g/m*3 10.8 C 0 km/h
3058 23-08-2008 05:53:04 11 C 9.21 g/m*3 11 C 0 km/h
3059 23-08-2008 06:05:04 11.2 C 9.43 g/m*3 11.2 C 0 km/h
3060 23-08-2008 06:17:04 11 C 9.21 g/m*3 11 C 0 km/h
3061 23-08-2008 06:29:04 10.9 C 9.25 g/m*3 10.9 C 0 km/h
3062 23-08-2008 06:41:04 10.8 C 9.19 g/m*3 10.8 C 0 km/h
3063 23-08-2008 06:53:04 10.7 C 9.13 g/m*3 10.7 C 0 km/h
3064 23-08-2008 07:05:04 10.7 C 9.13 g/m*3 10.7 C 0 km/h
3065 23-08-2008 07:17:04 10.7 C 9.13 g/m*3 10.7 C 0 km/h
3066 23-08-2008 07:29:04 10.8 C 9.19 g/m*3 10.8 C 0 km/h
3067 23-08-2008 07:41:04 11.1 C 9.27 g/m*3 11.1 C 0 km/h
3068 23-08-2008 07:53:01 11.6 C 9.56 g/m*3 11.6 C 0 km/h
3069 23-08-2008 08:05:02 12 C 9.7 g/m*3 12 C 0 km/h
3070 23-08-2008 08:17:02 12.1 C 9.65 g/m*3 12.1 C 0 km/h
3071 23-08-2008 08:29:02 12.7 C 9.8 g/m*3 12.7 C 0 km/h
3072 23-08-2008 08:41:01 12.5 C 9.24 g/m*3 12.5 C 0 km/h
3073 23-08-2008 08:53:01 12.6 C 9.07 g/m*3 12.6 C 0 km/h
3074 23-08-2008 09:05:02 12.8 C 8.96 g/m*3 12.8 C 0 km/h
3075 23-08-2008 09:17:01 13.2 C 8.96 g/m*3 13.2 C 0 km/h
Sensor: Nr:Datum:Temp:Abs-Feuchte:Windchill:Wind:
Aussen-T/F 3076 23-08-2008 09:29:01 13.3 C 8.78 g/m*3 13.3 C 0 km/h
3077 23-08-2008 09:41:01 13.4 C 9.07 g/m*3 13.4 C 0 km/h
3078 23-08-2008 09:53:02 14.5 C 9.58 g/m*3 14.5 C 0 km/h
3079 23-08-2008 10:05:01 14.4 C 8.78 g/m*3 14.4 C 0 km/h
3080 23-08-2008 10:17:02 14.8 C 8.99 g/m*3 14.8 C 0 km/h
3081 23-08-2008 10:29:02 15.1 C 8.9 g/m*3 15.1 C 0 km/h
3082 23-08-2008 10:41:01 15.7 C 8.7 g/m*3 15.7 C 0 km/h
3083 23-08-2008 10:53:02 16 C 8.72 g/m*3 16 C 0 km/h
3084 23-08-2008 11:05:02 16.3 C 8.6 g/m*3 16.3 C 0 km/h
3085 23-08-2008 11:17:03 16.6 C 8.62 g/m*3 16.6 C 0 km/h
3086 23-08-2008 11:29:03 17.1 C 8.44 g/m*3 17.1 C 0 km/h
3087 23-08-2008 11:41:02 17.4 C 8.3 g/m*3 17.4 C 0 km/h
3088 23-08-2008 11:53:01 17.7 C 8.3 g/m*3 17.7 C 0 km/h
3089 23-08-2008 12:05:02 17.9 C 8.4 g/m*3 17.9 C 0 km/h
3090 23-08-2008 12:17:01 18.5 C 7.59 g/m*3 18.5 C 0 km/h
3091 23-08-2008 12:29:01 17.5 C 7.6 g/m*3 17.5 C 0 km/h
3092 23-08-2008 12:41:02 17.5 C 7.6 g/m*3 17.5 C 0 km/h
3093 23-08-2008 12:53:02 17.7 C 7.85 g/m*3 17.7 C 0 km/h
3094 23-08-2008 13:05:02 18.2 C 7.62 g/m*3 18.2 C 0 km/h
3095 23-08-2008 13:17:02 18 C 7.68 g/m*3 18 C 0 km/h
3096 23-08-2008 13:29:02 17.5 C 7.6 g/m*3 17.5 C 0 km/h
3097 23-08-2008 13:41:02 17.5 C 7.6 g/m*3 17.5 C 0 km/h
3098 23-08-2008 13:53:02 18.4 C 7.24 g/m*3 18.4 C 0 km/h
3099 23-08-2008 14:05:03 17.9 C 7.79 g/m*3 17.9 C 0 km/h
3100 23-08-2008 14:17:02 17.7 C 6.49 g/m*3 17.7 C 0 km/h
Sensor: Nr:Datum:Temp:Abs-Feuchte:Windchill:Wind:
Aussen-T/F 3101 23-08-2008 14:29:02 17.9 C 6.11 g/m*3 17.9 C 0 km/h
3102 23-08-2008 14:41:03 17.7 C 5.88 g/m*3 17.7 C 0 km/h
3103 23-08-2008 14:53:02 17.5 C 6.11 g/m*3 17.5 C 0 km/h
3104 23-08-2008 15:05:02 17.2 C 6.15 g/m*3 17.2 C 0 km/h
3105 23-08-2008 15:17:02 17.1 C 6.26 g/m*3 17.1 C 0 km/h
3106 23-08-2008 15:29:02 17.1 C 6.4 g/m*3 17.1 C 0 km/h
3107 23-08-2008 15:41:02 17 C 6.8 g/m*3 17 C 0 km/h
3108 23-08-2008 15:53:01 17.3 C 6.78 g/m*3 17.3 C 0 km/h
3109 23-08-2008 16:05:02 16.6 C 7.2 g/m*3 16.6 C 0 km/h
3110 23-08-2008 16:17:02 17.4 C 7.41 g/m*3 17.4 C 0 km/h
3111 23-08-2008 16:29:02 18.6 C 7.16 g/m*3 18.6 C 0 km/h
3112 23-08-2008 16:41:02 18.1 C 7.26 g/m*3 18.1 C 0 km/h
3113 23-08-2008 16:53:02 18.5 C 7.91 g/m*3 18.5 C 0 km/h
3114 23-08-2008 17:05:02 19.7 C 7.64 g/m*3 19.7 C 0 km/h
3115 23-08-2008 17:17:02 19.6 C 7.6 g/m*3 19.6 C 0 km/h
3116 23-08-2008 17:29:02 19.7 C 7.64 g/m*3 19.7 C 0 km/h
3117 23-08-2008 17:41:02 19.1 C 7.21 g/m*3 19.1 C 0 km/h
3118 23-08-2008 17:53:02 19.5 C 7.55 g/m*3 19.5 C 0 km/h
3119 23-08-2008 18:05:03 18.9 C 6.97 g/m*3 18.9 C 0 km/h
3120 23-08-2008 18:17:02 18.8 C 7.09 g/m*3 18.8 C 0 km/h
3121 23-08-2008 18:29:02 18.7 C 6.88 g/m*3 18.7 C 0 km/h
3122 23-08-2008 18:41:03 18.6 C 6.84 g/m*3 18.6 C 0 km/h
3123 23-08-2008 18:53:02 18.4 C 6.92 g/m*3 18.4 C 0 km/h
3124 23-08-2008 19:05:02 18.2 C 7.15 g/m*3 18.2 C 0 km/h
3125 23-08-2008 19:17:02 17 C 8.39 g/m*3 17 C 0 km/h
Sensor: Nr:Datum:Temp:Abs-Feuchte:Windchill:Wind:
Aussen-T/F 3126 23-08-2008 19:29:03 16.8 C 9.29 g/m*3 16.8 C 0 km/h
3127 23-08-2008 19:41:02 16 C 9.4 g/m*3 16 C 0 km/h
3128 23-08-2008 19:53:02 15.9 C 9.89 g/m*3 15.9 C 0 km/h
3129 23-08-2008 20:05:02 15.8 C 9.69 g/m*3 15.8 C 0 km/h
3130 23-08-2008 20:17:02 16 C 8.58 g/m*3 16 C 0 km/h
3131 23-08-2008 20:29:02 16.3 C 8.19 g/m*3 16.3 C 0 km/h
3132 23-08-2008 20:41:02 15.8 C 8.48 g/m*3 15.8 C 0 km/h
3133 23-08-2008 20:53:01 14.9 C 9.18 g/m*3 14.9 C 0 km/h
3134 23-08-2008 21:05:02 14.5 C 9.58 g/m*3 14.5 C 0 km/h
3135 23-08-2008 21:17:02 14.2 C 9.89 g/m*3 14.2 C 0 km/h
3136 23-08-2008 21:29:02 14 C 10.01 g/m*3 14 C 0 km/h
3137 23-08-2008 21:41:02 14.2 C 10.14 g/m*3 14.2 C 0 km/h
3138 23-08-2008 21:53:02 14.1 C 9.95 g/m*3 14.1 C 0 km/h
3139 23-08-2008 22:06:01 14.3 C 9.95 g/m*3 14.3 C 0 km/h
3140 23-08-2008 22:18:01 14.4 C 9.77 g/m*3 14.4 C 0 km/h
3141 23-08-2008 22:30:01 14.6 C 9.76 g/m*3 14.6 C 0 km/h
3142 23-08-2008 22:42:01 14.4 C 9.52 g/m*3 14.4 C 0 km/h
3143 23-08-2008 22:54:01 14.1 C 9.47 g/m*3 14.1 C 0 km/h
3144 23-08-2008 23:06:01 14 C 9.41 g/m*3 14 C 0 km/h
3145 23-08-2008 23:18:01 13.9 C 9.47 g/m*3 13.9 C 0 km/h
3146 23-08-2008 23:30:01 13.9 C 9.35 g/m*3 13.9 C 0 km/h
3147 23-08-2008 23:42:01 14.1 C 9.1 g/m*3 14.1 C 0 km/h
3148 23-08-2008 23:54:02 14.2 C 9.16 g/m*3 14.2 C 0 km/h
3149 24-08-2008 00:06:02 13.9 C 9.11 g/m*3 13.9 C 0 km/h
3150 24-08-2008 00:18:02 13.8 C 9.17 g/m*3 13.8 C 0 km/h
Sensor: Nr:Datum:Temp:Abs-Feuchte:Windchill:Wind:
Aussen-T/F 3151 24-08-2008 00:30:02 13.6 C 9.06 g/m*3 13.6 C 0 km/h
3152 24-08-2008 00:42:02 13.6 C 9.06 g/m*3 13.6 C 0 km/h
3153 24-08-2008 00:54:02 13.5 C 9.01 g/m*3 13.5 C 0 km/h
3154 24-08-2008 01:06:02 13.5 C 9.01 g/m*3 13.5 C 0 km/h
3155 24-08-2008 01:18:02 13.4 C 8.95 g/m*3 13.4 C 0 km/h
3156 24-08-2008 01:30:02 13.5 C 8.89 g/m*3 13.5 C 0 km/h
3157 24-08-2008 01:42:02 13.2 C 8.84 g/m*3 13.2 C 0 km/h
3158 24-08-2008 01:54:02 12.9 C 8.9 g/m*3 12.9 C 0 km/h
3159 24-08-2008 02:06:02 13 C 8.96 g/m*3 13 C 0 km/h
3160 24-08-2008 02:18:02 13.1 C 8.9 g/m*3 13.1 C 0 km/h
3161 24-08-2008 02:30:02 12.8 C 8.85 g/m*3 12.8 C 0 km/h
3162 24-08-2008 02:42:02 12.6 C 8.96 g/m*3 12.6 C 0 km/h
3163 24-08-2008 02:54:02 12.5 C 8.91 g/m*3 12.5 C 0 km/h
3164 24-08-2008 03:06:02 12.3 C 8.9 g/m*3 12.3 C 0 km/h
3165 24-08-2008 03:18:02 12.4 C 8.96 g/m*3 12.4 C 0 km/h
3166 24-08-2008 03:30:02 12.5 C 8.91 g/m*3 12.5 C 0 km/h
3167 24-08-2008 03:42:03 12.4 C 8.85 g/m*3 12.4 C 0 km/h
3168 24-08-2008 03:54:03 12.1 C 8.9 g/m*3 12.1 C 0 km/h
3169 24-08-2008 04:06:03 12.1 C 8.79 g/m*3 12.1 C 0 km/h
3170 24-08-2008 04:18:03 12 C 8.85 g/m*3 12 C 0 km/h
3171 24-08-2008 04:30:03 12 C 8.85 g/m*3 12 C 0 km/h
3172 24-08-2008 04:42:03 11.8 C 8.84 g/m*3 11.8 C 0 km/h
3173 24-08-2008 04:54:03 11.7 C 8.79 g/m*3 11.7 C 0 km/h
3174 24-08-2008 05:06:03 11.4 C 8.72 g/m*3 11.4 C 0 km/h
3175 24-08-2008 05:18:03 11.2 C 8.72 g/m*3 11.2 C 0 km/h
Sensor: Nr:Datum:Temp:Abs-Feuchte:Windchill:Wind:
Aussen-T/F 3176 24-08-2008 05:30:03 11.2 C 8.82 g/m*3 11.2 C 0 km/h
3177 24-08-2008 05:42:03 11.1 C 8.76 g/m*3 11.1 C 0 km/h
3178 24-08-2008 05:54:03 11.2 C 8.82 g/m*3 11.2 C 0 km/h
3179 24-08-2008 06:06:03 11.2 C 8.82 g/m*3 11.2 C 0 km/h
3180 24-08-2008 06:18:03 11.5 C 8.99 g/m*3 11.5 C 0 km/h
3181 24-08-2008 06:30:03 11.7 C 8.99 g/m*3 11.7 C 0 km/h
3182 24-08-2008 06:42:03 11.8 C 8.95 g/m*3 11.8 C 0 km/h
3183 24-08-2008 06:54:03 11.7 C 8.89 g/m*3 11.7 C 0 km/h
3184 24-08-2008 07:06:03 11.8 C 8.95 g/m*3 11.8 C 0 km/h
3185 24-08-2008 07:18:03 11.8 C 8.95 g/m*3 11.8 C 0 km/h
3186 24-08-2008 07:30:03 11.6 C 8.83 g/m*3 11.6 C 0 km/h
3187 24-08-2008 07:42:04 11.6 C 8.83 g/m*3 11.6 C 0 km/h
3188 24-08-2008 07:54:04 11.7 C 8.89 g/m*3 11.7 C 0 km/h
3189 24-08-2008 08:06:04 11.6 C 8.94 g/m*3 11.6 C 0 km/h
3190 24-08-2008 08:18:04 11.8 C 9.05 g/m*3 11.8 C 0 km/h
3191 24-08-2008 08:30:04 11.9 C 9 g/m*3 11.9 C 0 km/h
3192 24-08-2008 08:42:04 12.1 C 9.01 g/m*3 12.1 C 0 km/h
3193 24-08-2008 08:54:04 12.3 C 9.12 g/m*3 12.3 C 0 km/h
3194 24-08-2008 09:06:02 12.5 C 9.24 g/m*3 12.5 C 0 km/h
3195 24-08-2008 09:18:02 12.8 C 9.3 g/m*3 12.8 C 0 km/h
3196 24-08-2008 09:30:02 13.5 C 9.36 g/m*3 13.5 C 0 km/h
3197 24-08-2008 09:42:02 14 C 9.17 g/m*3 14 C 0 km/h
3198 24-08-2008 09:54:02 14.2 C 9.28 g/m*3 14.2 C 0 km/h
3199 24-08-2008 10:06:02 15.2 C 9.48 g/m*3 15.2 C 0 km/h
3200 24-08-2008 10:18:02 15.5 C 9.25 g/m*3 15.5 C 0 km/h
Sensor: Nr:Datum:Temp:Abs-Feuchte:Windchill:Wind:
Aussen-T/F 3201 24-08-2008 10:30:03 15.8 C 9.29 g/m*3 15.8 C 0 km/h
3202 24-08-2008 10:42:02 16.2 C 8.96 g/m*3 16.2 C 0 km/h
3203 24-08-2008 10:54:02 16.4 C 8.93 g/m*3 16.4 C 0 km/h
3204 24-08-2008 11:06:02 16.6 C 8.9 g/m*3 16.6 C 0 km/h
3205 24-08-2008 11:18:02 17 C 8.68 g/m*3 17 C 0 km/h
3206 24-08-2008 11:30:02 17.4 C 8.6 g/m*3 17.4 C 0 km/h
3207 24-08-2008 11:42:02 18.4 C 8.34 g/m*3 18.4 C 0 km/h
3208 24-08-2008 11:54:02 19.1 C 7.7 g/m*3 19.1 C 0 km/h
3209 24-08-2008 12:06:02 19.1 C 7.38 g/m*3 19.1 C 0 km/h
3210 24-08-2008 12:18:02 19.2 C 7.59 g/m*3 19.2 C 0 km/h
3211 24-08-2008 12:30:02 19.7 C 7.47 g/m*3 19.7 C 0 km/h
3212 24-08-2008 12:42:02 19.5 C 6.88 g/m*3 19.5 C 0 km/h
3213 24-08-2008 12:54:02 19.6 C 6.92 g/m*3 19.6 C 0 km/h
3214 24-08-2008 13:06:02 19.6 C 6.75 g/m*3 19.6 C 0 km/h
3215 24-08-2008 13:18:01 20.5 C 6.94 g/m*3 20.5 C 0 km/h
3216 24-08-2008 13:30:01 21.1 C 6.82 g/m*3 21.1 C 0 km/h
3217 24-08-2008 13:42:02 21.6 C 6.45 g/m*3 21.6 C 0 km/h
3218 24-08-2008 13:54:02 21.9 C 6.56 g/m*3 21.9 C 0 km/h
3219 24-08-2008 14:06:03 21.3 C 6.34 g/m*3 21.3 C 0 km/h
3220 24-08-2008 14:18:02 21.5 C 6.22 g/m*3 21.5 C 0 km/h
3221 24-08-2008 14:30:02 21.6 C 6.07 g/m*3 21.6 C 0 km/h
3222 24-08-2008 14:42:03 22.5 C 5.99 g/m*3 22.5 C 0 km/h
3223 24-08-2008 14:54:02 22 C 6.02 g/m*3 22 C